Provisional Data: Chiques Creek near Route 283


Please select a monitoring station.
Please select start date.
Please select start date.

Toggle Unit: C/F Toggle Unit: C/F
Sample Time Temperature (C) Temperature (F) Specific Conductivity (mS/cm) pH   Turbidity (NTU+) DO (mg/L)
9/6/2021 12:00:00 AM 18.02 64.436 0.425 7.91 6.03 9.27
9/6/2021 12:15:00 AM 18.02 64.436 0.426 7.89 5.92 9.27
9/6/2021 12:30:00 AM 18.01 64.418 0.426 7.9 5.75 9.27
9/6/2021 12:45:00 AM 18.01 64.418 0.426 7.89 6.43 9.26
9/6/2021 1:00:00 AM 18.01 64.418 0.426 7.9 5.98 9.27
9/6/2021 1:15:00 AM 18 64.4 0.426 7.91 5.82 9.27
9/6/2021 1:30:00 AM 18 64.4 0.426 7.9 5.88 9.26
9/6/2021 1:45:00 AM 17.99 64.382 0.425 7.9 5.85 9.26
9/6/2021 2:00:00 AM 17.99 64.382 0.425 7.91 5.67 9.26
9/6/2021 2:15:00 AM 17.98 64.364 0.425 7.9 5.8 9.26
9/6/2021 2:30:00 AM 17.97 64.346 0.425 7.9 5.8 9.26
9/6/2021 2:45:00 AM 17.97 64.346 0.427 7.89 5.89 9.26
9/6/2021 3:00:00 AM 17.96 64.328 0.427 7.89 5.81 9.26
9/6/2021 3:15:00 AM 17.95 64.31 0.427 7.89 5.62 9.26
9/6/2021 3:30:00 AM 17.95 64.31 0.427 7.88 5.7 9.26
9/6/2021 3:45:00 AM 17.94 64.292 0.428 7.9 5.79 9.26
9/6/2021 4:00:00 AM 17.93 64.274 0.428 7.89 5.66 9.26
9/6/2021 4:15:00 AM 17.93 64.274 0.428 7.9 5.78 9.27
9/6/2021 4:30:00 AM 17.92 64.256 0.429 7.9 5.84 9.27
9/6/2021 4:45:00 AM 17.91 64.238 0.429 7.88 5.58 9.27
9/6/2021 5:00:00 AM 17.9 64.22 0.431 7.89 9.11 9.27
9/6/2021 5:15:00 AM 17.89 64.202 0.304 7.67 7.05 9.28
9/6/2021 5:30:00 AM 17.88 64.184 0.282 7.91 6.15 9.28
9/6/2021 5:45:00 AM 17.87 64.166 0.427 7.87 29.27 9.28
9/6/2021 6:00:00 AM 17.86 64.148 0.32 7.75 5.9 9.29
9/6/2021 6:15:00 AM 17.85 64.13 0.346 7.89 6.96 9.28
9/6/2021 6:30:00 AM 17.84 64.112 0.324 7.91 8.11 9.29
9/6/2021 6:45:00 AM 17.83 64.094 0.351 7.9 8.37 9.28
9/6/2021 7:00:00 AM 17.83 64.094 0.353 7.92 8.51 9.29
9/6/2021 7:15:00 AM 17.82 64.076 0.325 7.92 8.92 9.3
9/6/2021 7:30:00 AM 17.8 64.04 0.345 7.93 7.78 9.31
9/6/2021 7:45:00 AM 17.8 64.04 0.344 7.85 7.82 9.31
9/6/2021 8:00:00 AM 17.79 64.022 0.343 7.86 7.75 9.31
9/6/2021 8:15:00 AM 17.78 64.004 0.325 7.87 7.71 9.31
9/6/2021 8:30:00 AM 17.78 64.004 0.34 7.92 7.85 9.32
9/6/2021 8:45:00 AM 17.78 64.004 0.342 7.87 7.67 9.34
9/6/2021 9:00:00 AM 17.79 64.022 0.442 7.94 7.66 9.33
9/6/2021 9:15:00 AM 17.79 64.022 0.333 7.93 7.57 9.34
9/6/2021 9:30:00 AM 17.8 64.04 0.443 7.94 7.34 9.35
9/6/2021 9:45:00 AM 17.81 64.058 0.336 7.94 7.46 9.36
9/6/2021 10:00:00 AM 17.82 64.076 0.341 7.88 7.36 9.36
9/6/2021 10:15:00 AM 17.84 64.112 0.343 7.93 7.27 9.37
9/6/2021 10:30:00 AM 17.87 64.166 0.335 7.95 7.09 9.37
9/6/2021 10:45:00 AM 17.89 64.202 0.354 7.87 6.85 9.38
9/6/2021 11:00:00 AM 17.93 64.274 0.444 7.96 6.48 9.37
9/6/2021 11:15:00 AM 17.96 64.328 0.347 7.91 6.54 9.38
9/6/2021 11:30:00 AM 18 64.4 0.338 7.95 6.32 9.38
9/6/2021 11:45:00 AM 18.05 64.49 0.342 7.96 6.29 9.37
9/6/2021 12:00:00 PM 18.11 64.598 0.348 7.9 6.07 9.37
9/6/2021 12:15:00 PM 18.18 64.724 0.345 7.97 5.92 9.36
9/6/2021 12:30:00 PM 18.25 64.85 0.339 7.89 5.96 9.35
9/6/2021 12:45:00 PM 18.33 64.994 0.345 7.97 5.94 9.34
9/6/2021 1:00:00 PM 18.4 65.12 0.448 7.98 6.02 9.34
9/6/2021 1:15:00 PM 18.48 65.264 0.343 7.98 5.78 9.33
9/6/2021 1:30:00 PM 18.56 65.408 0.325 7.94 5.66 9.32
9/6/2021 1:45:00 PM 18.64 65.552 0.348 7.92 5.7 9.31
9/6/2021 2:00:00 PM 18.72 65.696 0.447 7.99 5.99 9.3
9/6/2021 2:15:00 PM 18.8 65.84 0.332 8 5.31 9.3
9/6/2021 2:30:00 PM 18.86 65.948 0.343 7.98 5.12 9.29
9/6/2021 2:45:00 PM 18.93 66.074 0.345 7.95 5.17 9.29
9/6/2021 3:00:00 PM 18.93 66.074 0.446 7.95 4.94 9.25
9/6/2021 3:15:00 PM 19.01 66.218 0.446 7.97 5.16 9.27
9/6/2021 3:30:00 PM 19.02 66.236 0.449 7.95 4.92 9.26
9/6/2021 3:45:00 PM 19.04 66.272 0.31 7.96 5.07 9.27
9/6/2021 4:00:00 PM 19.06 66.308 0.307 7.95 4.8 9.27
9/6/2021 4:15:00 PM 19.08 66.344 0.344 8.01 4.88 9.26
9/6/2021 4:30:00 PM 19.08 66.344 0.305 8.02 4.69 9.25
9/6/2021 4:45:00 PM 19.1 66.38 0.343 7.96 4.93 9.25
9/6/2021 5:00:00 PM 19.11 66.398 0.331 7.95 4.64 9.24
9/6/2021 5:15:00 PM 19.1 66.38 0.327 7.99 4.88 9.24
9/6/2021 5:30:00 PM 19.08 66.344 0.449 7.96 4.48 9.23
9/6/2021 5:45:00 PM 19.06 66.308 0.343 7.98 4.71 9.22
9/6/2021 6:00:00 PM 19.05 66.29 0.321 8.02 4.75 9.22
9/6/2021 6:15:00 PM 19.03 66.254 0.448 7.99 4.65 9.21
9/6/2021 6:30:00 PM 19.03 66.254 0.318 8 4.74 9.21
9/6/2021 6:45:00 PM 19.01 66.218 0.335 7.97 4.67 9.2
9/6/2021 7:00:00 PM 19.01 66.218 0.345 7.97 5.2 9.2
9/6/2021 7:15:00 PM 19.02 66.236 0.325 7.96 4.75 9.19
9/6/2021 7:30:00 PM 19.02 66.236 0.327 7.98 4.82 9.19
9/6/2021 7:45:00 PM 19.02 66.236 0.448 7.96 4.54 9.18
9/6/2021 8:00:00 PM 19.02 66.236 0.336 7.97 5 9.17
9/6/2021 8:15:00 PM 19.03 66.254 0.314 7.96 4.9 9.17
9/6/2021 8:30:00 PM 19.02 66.236 0.334 7.97 4.79 9.17
9/6/2021 8:45:00 PM 19.02 66.236 0.334 7.97 4.86 9.16
9/6/2021 9:00:00 PM 19.02 66.236 0.448 8 4.73 9.15
9/6/2021 9:15:00 PM 19.01 66.218 0.336 7.95 4.66 9.15
9/6/2021 9:30:00 PM 19.01 66.218 0.322 7.96 5.16 9.15
9/6/2021 9:45:00 PM 19 66.2 0.339 7.94 4.87 9.14
9/6/2021 10:00:00 PM 19 66.2 0.316 7.98 4.99 9.14
9/6/2021 10:15:00 PM 18.98 66.164 0.319 7.95 5.07 9.14
9/6/2021 10:30:00 PM 18.97 66.146 0.452 7.94 5.43 9.13
9/6/2021 10:45:00 PM 18.96 66.128 0.34 7.99 4.83 9.13
9/6/2021 11:00:00 PM 18.94 66.092 0.339 7.98 4.68 9.13
9/6/2021 11:15:00 PM 18.93 66.074 0.451 7.97 5.15 9.12
9/6/2021 11:30:00 PM 18.91 66.038 0.335 7.99 4.91 9.13
9/6/2021 11:45:00 PM 18.89 66.002 0.31 7.96 4.9 9.14
9/7/2021 12:00:00 AM 18.87 65.966 0.333 8 6.95 9.13
9/7/2021 12:15:00 AM 18.85 65.93 0.332 7.94 5.45 9.13
9/7/2021 12:30:00 AM 18.82 65.876 0.316 7.95 15.63 9.13
9/7/2021 12:45:00 AM 18.8 65.84 0.342 7.91 6.47 9.13
9/7/2021 1:00:00 AM 18.78 65.804 0.312 7.92 3.89 9.14
9/7/2021 1:15:00 AM 18.75 65.75 0.321 7.98 4.85 9.14
9/7/2021 1:30:00 AM 18.73 65.714 0.332 7.95 4.74 9.14
9/7/2021 1:45:00 AM 18.7 65.66 0.333 7.94 4.97 9.14
9/7/2021 2:00:00 AM 18.68 65.624 0.333 7.94 4.86 9.15
9/7/2021 2:15:00 AM 18.65 65.57 0.32 7.97 5.08 9.15
9/7/2021 2:30:00 AM 18.63 65.534 0.327 7.93 4.93 9.15
9/7/2021 2:45:00 AM 18.6 65.48 0.334 7.93 5.06 9.15
9/7/2021 3:00:00 AM 18.57 65.426 0.336 7.94 5.02 9.16
9/7/2021 3:15:00 AM 18.54 65.372 0.348 7.98 5.11 9.17
9/7/2021 3:30:00 AM 18.51 65.318 0.328 7.94 5.01 9.16
9/7/2021 3:45:00 AM 18.48 65.264 0.342 7.93 5.09 9.17
9/7/2021 4:00:00 AM 18.44 65.192 0.341 7.92 12.89 9.17
9/7/2021 4:15:00 AM 18.41 65.138 0.315 7.96 4.86 9.18
9/7/2021 4:30:00 AM 18.37 65.066 0.334 7.92 5.11 9.18
9/7/2021 4:45:00 AM 18.33 64.994 0.316 7.93 5.09 9.2
9/7/2021 5:00:00 AM 18.29 64.922 0.461 7.97 4.88 9.2
9/7/2021 5:15:00 AM 18.25 64.85 0.316 7.94 13.77 9.21
9/7/2021 5:30:00 AM 18.21 64.778 0.325 7.92 4.89 9.22
9/7/2021 5:45:00 AM 18.16 64.688 0.317 7.93 5.13 9.23
9/7/2021 6:00:00 AM 18.12 64.616 0.326 7.93 4.91 9.24
9/7/2021 6:15:00 AM 18.07 64.526 0.336 7.92 4.88 9.24
9/7/2021 6:30:00 AM 18.03 64.454 0.329 7.91 5.04 9.25
9/7/2021 6:45:00 AM 17.99 64.382 0.458 7.98 14.99 9.25
9/7/2021 7:00:00 AM 17.94 64.292 0.459 7.94 2.85 9.25
9/7/2021 7:15:00 AM 17.9 64.22 0.459 7.94 2.47 9.28
9/7/2021 7:30:00 AM 17.86 64.148 0.459 7.95 4.17 9.29
9/7/2021 7:45:00 AM 17.83 64.094 0.459 7.95 4.43 9.3
9/7/2021 8:00:00 AM 17.79 64.022 0.459 7.96 4.3 9.32
9/7/2021 8:15:00 AM 17.76 63.968 0.46 7.97 4.27 9.33
9/7/2021 8:30:00 AM 17.73 63.914 0.46 7.95 4.29 9.35
9/7/2021 8:45:00 AM 17.71 63.878 0.461 7.97 4.1 9.36
9/7/2021 9:00:00 AM 17.69 63.842 0.461 7.98 4.08 9.38
9/7/2021 9:15:00 AM 17.67 63.806 0.461 7.97 3.97 9.39
9/7/2021 9:30:00 AM 17.65 63.77 0.461 7.97 3.84 9.41
9/7/2021 9:45:00 AM 17.64 63.752 0.462 8 3.78 9.41
9/7/2021 10:00:00 AM 17.64 63.752 0.461 7.99 3.57 9.44
9/7/2021 10:15:00 AM 17.63 63.734 0.461 7.99 3.65 9.45
9/7/2021 10:30:00 AM 17.64 63.752 0.461 8 3.61 9.45
9/7/2021 10:45:00 AM 17.65 63.77 0.461 7.98 3.45 9.46
9/7/2021 11:00:00 AM 17.67 63.806 0.461 7.99 3.54 9.46
9/7/2021 11:15:00 AM 17.69 63.842 0.461 7.99 3.41 9.47
9/7/2021 11:30:00 AM 17.72 63.896 0.462 7.98 3.4 9.47
9/7/2021 11:45:00 AM 17.75 63.95 0.462 7.98 3.3 9.48
9/7/2021 12:00:00 PM 17.79 64.022 0.462 7.98 3.48 9.47
9/7/2021 12:15:00 PM 17.84 64.112 0.464 7.99 10.94 9.46
9/7/2021 12:30:00 PM 17.9 64.22 0.333 7.97 4.52 9.48
9/7/2021 12:45:00 PM 17.96 64.328 0.339 7.95 3.99 9.47
9/7/2021 1:00:00 PM 18.03 64.454 0.33 7.97 3.92 9.47
9/7/2021 1:15:00 PM 18.11 64.598 0.313 7.98 3.67 9.46
9/7/2021 1:30:00 PM 18.19 64.742 0.339 8.01 3.88 9.46
9/7/2021 1:45:00 PM 18.27 64.886 0.328 8 3.54 9.45
9/7/2021 2:00:00 PM 18.35 65.03 0.342 7.97 4.01 9.44
9/7/2021 2:15:00 PM 18.42 65.156 0.346 8.02 3.67 9.44
9/7/2021 2:30:00 PM 18.5 65.3 0.306 8.03 3.44 9.43
9/7/2021 2:45:00 PM 18.53 65.354 0.469 8.04 3.25 9.4
9/7/2021 3:00:00 PM 18.58 65.444 0.304 8.03 3.52 9.4
9/7/2021 3:15:00 PM 18.64 65.552 0.348 8.04 3.44 9.42
9/7/2021 3:30:00 PM 18.64 65.552 0.318 8.01 3.72 9.4
9/7/2021 3:45:00 PM 18.65 65.57 0.306 8 3.65 9.38
9/7/2021 4:00:00 PM 18.66 65.588 0.305 8.02 5.01 9.39
9/7/2021 4:15:00 PM 18.7 65.66 0.3 8.03 3.61 9.39
9/7/2021 4:30:00 PM 18.7 65.66 0.331 8.01 3.59 9.39
9/7/2021 4:45:00 PM 18.7 65.66 0.343 8.01 3.23 9.38
9/7/2021 5:00:00 PM 18.71 65.67799 0.469 8.04 3.42 9.36
9/7/2021 5:15:00 PM 18.73 65.714 0.347 8.01 3.24 9.36
9/7/2021 5:30:00 PM 18.73 65.714 0.314 8.02 3.6 9.34
9/7/2021 5:45:00 PM 18.72 65.696 0.34 8 8.22 9.34
9/7/2021 6:00:00 PM 18.69 65.642 0.304 8 7.57 9.33
9/7/2021 6:15:00 PM 18.68 65.624 0.335 8 3.41 9.32
9/7/2021 6:30:00 PM 18.67 65.606 0.337 8.01 3.49 9.32
9/7/2021 6:45:00 PM 18.65 65.57 0.327 8.01 3.38 9.31
9/7/2021 7:00:00 PM 18.65 65.57 0.313 8 3.57 9.3
9/7/2021 7:15:00 PM 18.65 65.57 0.323 8.01 3.47 9.29
9/7/2021 7:30:00 PM 18.65 65.57 0.329 8.03 3.38 9.29
9/7/2021 7:45:00 PM 18.66 65.588 0.31 7.99 3.41 9.28
9/7/2021 8:00:00 PM 18.66 65.588 0.332 8.02 3.47 9.27
9/7/2021 8:15:00 PM 18.67 65.606 0.303 8 3.46 9.27
9/7/2021 8:30:00 PM 18.67 65.606 0.467 8.04 3.59 9.25
9/7/2021 8:45:00 PM 18.67 65.606 0.341 7.99 3.89 9.25
9/7/2021 9:00:00 PM 18.68 65.624 0.315 8.02 3.88 9.25
9/7/2021 9:15:00 PM 18.68 65.624 0.339 8.04 3.79 9.24
9/7/2021 9:30:00 PM 18.68 65.624 0.327 8.03 3.95 9.24
9/7/2021 9:45:00 PM 18.68 65.624 0.341 7.99 3.87 9.23
9/7/2021 10:00:00 PM 18.68 65.624 0.327 8.03 4.07 9.22
9/7/2021 10:15:00 PM 18.67 65.606 0.306 8.01 3.96 9.22
9/7/2021 10:30:00 PM 18.66 65.588 0.315 8 4.36 9.22
9/7/2021 10:45:00 PM 18.65 65.57 0.312 7.96 4.4 9.22
9/7/2021 11:00:00 PM 18.64 65.552 0.468 8 4.28 9.2
9/7/2021 11:15:00 PM 18.63 65.534 0.47 8.01 4.27 9.21
9/7/2021 11:30:00 PM 18.63 65.534 0.341 8.01 4.48 9.21
9/7/2021 11:45:00 PM 18.62 65.516 0.336 8.03 4.27 9.2
9/8/2021 12:00:00 AM 18.61 65.498 0.343 8 4.73 9.19
9/8/2021 12:15:00 AM 18.61 65.498 0.337 7.98 4.63 9.19
9/8/2021 12:30:00 AM 18.6 65.48 0.34 8 4.46 9.19
9/8/2021 12:45:00 AM 18.6 65.48 0.327 7.98 4.65 9.18
9/8/2021 1:00:00 AM 18.6 65.48 0.329 8 4.59 9.18
9/8/2021 1:15:00 AM 18.59 65.462 0.327 8.02 4.72 9.17
9/8/2021 1:30:00 AM 18.59 65.462 0.473 8.01 4.74 9.16
9/8/2021 1:45:00 AM 18.59 65.462 0.301 8.01 7.9 9.17
9/8/2021 2:00:00 AM 18.59 65.462 0.306 8.02 4.86 9.16
9/8/2021 2:15:00 AM 18.58 65.444 0.307 8.01 4.98 9.16
9/8/2021 2:30:00 AM 18.58 65.444 0.343 8.02 5.04 9.15
9/8/2021 2:45:00 AM 18.58 65.444 0.332 7.98 4.83 9.14
9/8/2021 3:00:00 AM 18.58 65.444 0.48 7.99 4.89 9.14
9/8/2021 3:15:00 AM 18.59 65.462 0.31 8 5.05 9.15
9/8/2021 3:30:00 AM 18.59 65.462 0.482 7.99 4.91 9.14
9/8/2021 3:45:00 AM 18.59 65.462 0.316 7.99 5.01 9.14
9/8/2021 4:00:00 AM 18.59 65.462 0.338 8 4.72 9.14
9/8/2021 4:15:00 AM 18.59 65.462 0.342 7.98 4.85 9.13
9/8/2021 4:30:00 AM 18.59 65.462 0.327 7.99 4.93 9.13
9/8/2021 4:45:00 AM 18.59 65.462 0.305 7.99 4.91 9.13
9/8/2021 5:00:00 AM 18.58 65.444 0.31 7.97 4.84 9.13
9/8/2021 5:15:00 AM 18.58 65.444 0.325 7.99 4.71 9.13
9/8/2021 5:30:00 AM 18.57 65.426 0.487 7.99 4.78 9.12
9/8/2021 5:45:00 AM 18.57 65.426 0.487 8.01 4.6 9.12
9/8/2021 6:00:00 AM 18.56 65.408 0.348 8 4.86 9.13
9/8/2021 6:15:00 AM 18.55 65.39 0.328 7.99 5.02 9.13
9/8/2021 6:30:00 AM 18.54 65.372 0.324 8.02 5.2 9.13
9/8/2021 6:45:00 AM 18.52 65.336 0.348 8.01 4.97 9.13
9/8/2021 7:00:00 AM 18.51 65.318 0.307 8.01 4.74 9.14
9/8/2021 7:15:00 AM 18.5 65.3 0.296 7.98 4.88 9.15
9/8/2021 7:30:00 AM 18.49 65.282 0.488 8.02 4.7 9.16
9/8/2021 7:45:00 AM 18.48 65.264 0.342 7.99 4.8 9.16
9/8/2021 8:00:00 AM 18.46 65.228 0.314 8 4.71 9.17
9/8/2021 8:15:00 AM 18.45 65.21 0.328 7.99 4.62 9.18
9/8/2021 8:30:00 AM 18.44 65.192 0.342 7.99 4.71 9.18
9/8/2021 8:45:00 AM 18.44 65.192 0.342 7.99 4.75 9.2
9/8/2021 9:00:00 AM 18.44 65.192 0.325 8 4.49 9.22
9/8/2021 9:15:00 AM 18.44 65.192 0.321 8.02 4.31 9.23
9/8/2021 9:30:00 AM 18.45 65.21 0.314 8.01 4.39 9.24
9/8/2021 9:45:00 AM 18.46 65.228 0.485 8.01 4.39 9.25
9/8/2021 10:00:00 AM 18.48 65.264 0.315 8.01 4.38 9.26
9/8/2021 10:15:00 AM 18.5 65.3 0.3 8.02 4.45 9.27
9/8/2021 10:30:00 AM 18.52 65.336 0.324 8 4.3 9.27
9/8/2021 10:45:00 AM 18.54 65.372 0.31 7.99 4.28 9.28
9/8/2021 11:00:00 AM 18.57 65.426 0.49 8.01 4.18 9.28
9/8/2021 11:15:00 AM 18.59 65.462 0.308 8.02 4.05 9.28
9/8/2021 11:30:00 AM 18.62 65.516 0.291 8.01 4 9.29
9/8/2021 11:45:00 AM 18.65 65.57 0.313 8.03 3.93 9.28
9/8/2021 12:00:00 PM 18.71 65.67799 0.319 8.02 3.71 9.28
9/8/2021 12:15:00 PM 18.76 65.768 0.304 8.04 3.93 9.28
9/8/2021 12:30:00 PM 18.83 65.894 0.302 8.03 3.94 9.28
9/8/2021 12:45:00 PM 18.89 66.002 0.34 8.01 3.76 9.27
9/8/2021 1:00:00 PM 18.96 66.128 0.3 8.02 3.98 9.27
9/8/2021 1:15:00 PM 19.06 66.308 0.312 8.06 3.73 9.27
9/8/2021 1:30:00 PM 19.13 66.434 0.312 8.03 3.85 9.26
9/8/2021 1:45:00 PM 19.18 66.524 0.311 7.98 5.12 9.26
9/8/2021 2:00:00 PM 19.26 66.668 0.318 8.04 3.83 9.26
9/8/2021 2:15:00 PM 19.37 66.866 0.328 8.04 3.61 9.25
9/8/2021 2:30:00 PM 19.39 66.902 0.313 8.04 3.45 9.23
9/8/2021 2:45:00 PM 19.47 67.046 0.332 8.05 3.38 9.25
9/8/2021 3:00:00 PM 19.54 67.172 0.322 8.05 3.27 9.24
9/8/2021 3:15:00 PM 19.55 67.19 0.319 8.06 3.36 9.2
9/8/2021 3:30:00 PM 19.64 67.352 0.316 8.07 3.25 9.2
9/8/2021 3:45:00 PM 19.71 67.478 0.329 8.06 3.37 9.2
9/8/2021 4:00:00 PM 19.74 67.532 0.324 8.07 3.3 9.2
9/8/2021 4:15:00 PM 19.74 67.532 0.329 8.07 3.13 9.16
9/8/2021 4:30:00 PM 19.76 67.568 0.322 8.07 3.19 9.17
9/8/2021 4:45:00 PM 19.77 67.586 0.334 8.07 3.06 9.14
9/8/2021 5:00:00 PM 19.77 67.586 0.33 8.08 3.31 9.14
9/8/2021 5:15:00 PM 19.76 67.568 0.485 8.08 2.98 9.15
9/8/2021 5:30:00 PM 19.74 67.532 0.335 8.06 3.13 9.15
9/8/2021 5:45:00 PM 19.72 67.496 0.313 8.09 2.94 9.13
9/8/2021 6:00:00 PM 19.69 67.442 0.488 8.08 3.05 9.12
9/8/2021 6:15:00 PM 19.69 67.442 0.325 8.08 3.18 9.11
9/8/2021 6:30:00 PM 19.7 67.46 0.486 8.09 3.15 9.09
9/8/2021 6:45:00 PM 19.69 67.442 0.324 8.08 2.77 9.09
9/8/2021 7:00:00 PM 19.69 67.442 0.295 8.02 3.08 9.07
9/8/2021 7:15:00 PM 19.69 67.442 0.332 8.07 3.1 9.07
9/8/2021 7:30:00 PM 19.68 67.424 0.328 8.06 3.16 9.05
9/8/2021 7:45:00 PM 19.68 67.424 0.311 8.06 3.28 9.04
9/8/2021 8:00:00 PM 19.68 67.424 0.317 8.05 3.22 9.04
9/8/2021 8:15:00 PM 19.68 67.424 0.291 8.06 3.3 9.02
9/8/2021 8:30:00 PM 19.68 67.424 0.328 8.07 3.32 9.02
9/8/2021 8:45:00 PM 19.68 67.424 0.295 8.06 3.36 9.01
9/8/2021 9:00:00 PM 19.68 67.424 0.325 8.04 3.41 9.01
9/8/2021 9:15:00 PM 19.69 67.442 0.305 8.04 3.45 9
9/8/2021 9:30:00 PM 19.7 67.46 0.483 8.05 3.52 8.99
9/8/2021 9:45:00 PM 19.7 67.46 0.321 8.05 3.6 8.99
9/8/2021 10:00:00 PM 19.72 67.496 0.316 8.05 3.56 8.98
9/8/2021 10:15:00 PM 19.69 67.442 0.288 8.04 3.65 8.99
9/8/2021 10:30:00 PM 19.69 67.442 0.308 8.04 3.5 8.99
9/8/2021 10:45:00 PM 19.68 67.424 0.296 8.03 4.73 8.98
9/8/2021 11:00:00 PM 19.69 67.442 0.338 8.04 5.68 8.98
9/8/2021 11:15:00 PM 19.67 67.406 0.476 8.07 4.68 8.98
9/8/2021 11:30:00 PM 19.66 67.388 0.336 8.04 4.84 8.98
9/8/2021 11:45:00 PM 19.64 67.352 0.32 8.06 6.66 8.98
9/9/2021 12:00:00 AM 19.64 67.352 0.297 8.04 7.37 8.97
9/9/2021 12:15:00 AM 19.63 67.334 0.336 8.04 6.97 8.98
9/9/2021 12:30:00 AM 19.63 67.334 0.339 8.02 6.99 8.98
9/9/2021 12:45:00 AM 19.62 67.316 0.304 8.02 6.85 8.98
9/9/2021 1:00:00 AM 19.61 67.298 0.307 7.96 8.39 9
9/9/2021 1:15:00 AM 19.59 67.262 0.333 7.99 9.92 9.01
9/9/2021 1:30:00 AM 19.57 67.226 0.302 8.01 10.4 9.02
9/9/2021 1:45:00 AM 19.52 67.136 0.313 7.96 14.17 9.04
9/9/2021 2:00:00 AM 19.49 67.082 0.314 7.94 23.91 9.05
9/9/2021 2:15:00 AM 19.56 67.208 0.334 7.95 36.02 9.03
9/9/2021 2:30:00 AM 19.74 67.532 0.321 7.85 87 8.96
9/9/2021 2:45:00 AM 19.87 67.766 0.309 7.9 144.84 8.87
9/9/2021 3:00:00 AM 20 68 0.284 7.88 138.51 8.84
9/9/2021 3:15:00 AM 20.14 68.252 0.328 7.84 126.65 8.84
9/9/2021 3:30:00 AM 20.23 68.414 0.26 7.89 124.57 8.8
9/9/2021 3:45:00 AM 20.24 68.432 0.3 7.82 125.37 8.73
9/9/2021 4:00:00 AM 20.24 68.432 0.277 7.8 154.11 8.71
9/9/2021 4:15:00 AM 20.27 68.486 0.258 7.81 125.56 8.67
9/9/2021 4:30:00 AM 20.36 68.648 0.222 7.76 120.43 8.63
9/9/2021 4:45:00 AM 20.44 68.792 0.21 7.69 122.81 8.59
9/9/2021 5:00:00 AM 20.48 68.864 0.182 7.73 143.07 8.55
9/9/2021 5:15:00 AM 20.46 68.828 0.198 7.64 141.04 8.49
9/9/2021 5:30:00 AM 20.41 68.738 0.18 7.67 154.83 8.43
9/9/2021 5:45:00 AM 20.34 68.612 0.214 7.67 160.73 8.4
9/9/2021 6:00:00 AM 20.28 68.504 0.111 7.6 161.15 8.41
9/9/2021 6:15:00 AM 20.25 68.45 0.217 7.67 170.81 8.41
9/9/2021 6:30:00 AM 20.23 68.414 0.203 7.62 189.68 8.39
9/9/2021 6:45:00 AM 20.22 68.396 0.207 7.52 174.34 8.39
9/9/2021 7:00:00 AM 20.2 68.36 0.227 7.55 157.93 8.39
9/9/2021 7:15:00 AM 20.18 68.324 0.203 7.56 141.4 8.39
9/9/2021 7:30:00 AM 20.16 68.288 0.199 7.63 144.08 8.4
9/9/2021 7:45:00 AM 20.13 68.234 0.193 7.58 131.93 8.4
9/9/2021 8:00:00 AM 20.1 68.18 0.233 7.47 113.57 8.39
9/9/2021 8:15:00 AM 20.08 68.144 0.235 7.62 118.82 8.38
9/9/2021 8:30:00 AM 20.06 68.108 0.214 7.62 104.89 8.36
9/9/2021 8:45:00 AM 20.05 68.09 0.206 7.62 111.98 8.35
9/9/2021 9:00:00 AM 20.04 68.07201 0.211 7.61 120.31 8.36
9/9/2021 9:15:00 AM 20.03 68.054 0.208 7.61 102.47 8.37
9/9/2021 9:30:00 AM 20.02 68.036 0.201 7.61 105.96 8.38
9/9/2021 9:45:00 AM 20.01 68.018 0.24 7.46 93.67 8.39
9/9/2021 10:00:00 AM 19.99 67.982 0.205 7.56 95.92 8.4
9/9/2021 10:15:00 AM 19.97 67.946 0.215 7.6 92.29 8.39
9/9/2021 10:30:00 AM 19.96 67.92799 0.212 7.6 91.48 8.39
9/9/2021 10:45:00 AM 19.95 67.91 0.216 7.62 82.52 8.4
9/9/2021 11:00:00 AM 19.94 67.892 0.244 7.59 81.33 8.39
9/9/2021 11:15:00 AM 19.93 67.874 0.215 7.62 76.69 8.42
9/9/2021 11:30:00 AM -99999.99 -179968 -99999.99 -99999.99 -99999.99 -99999.99
9/9/2021 11:45:00 AM -99999.99 -179968 -99999.99 -99999.99 -99999.99 -99999.99
9/9/2021 12:00:00 PM -99999.99 -179968 -99999.99 -99999.99 -99999.99 -99999.99
9/9/2021 12:15:00 PM -99999.99 -179968 -99999.99 -99999.99 -99999.99 -99999.99
9/9/2021 12:30:00 PM 19.86 67.748 0.256 8.17 63.97 8.5
9/9/2021 12:45:00 PM 19.85 67.73 0.257 8.2 62.64 8.54
9/9/2021 1:00:00 PM 19.84 67.712 0.259 8.21 59.19 8.55
9/9/2021 1:15:00 PM 19.84 67.712 0.261 8.2 57.79 8.57
9/9/2021 1:30:00 PM 19.84 67.712 0.265 8.18 56.11 8.58
9/9/2021 1:45:00 PM 19.82 67.676 0.269 8.18 54.87 8.6
9/9/2021 2:00:00 PM 19.81 67.658 0.265 8.18 53.26 8.62
9/9/2021 2:15:00 PM 19.8 67.64 0.273 8.21 52.17 8.64
9/9/2021 2:30:00 PM 19.79 67.622 0.272 8.22 51.09 8.66
9/9/2021 2:45:00 PM 19.78 67.604 0.275 8.27 49.88 8.67
9/9/2021 3:00:00 PM 19.78 67.604 0.241 8.09 49.79 8.69
9/9/2021 3:15:00 PM 19.77 67.586 0.28 8.23 48.02 8.7
9/9/2021 3:30:00 PM 19.77 67.586 0.282 8.24 46.92 8.73
9/9/2021 3:45:00 PM 19.77 67.586 0.283 8.27 45.83 8.74
9/9/2021 4:00:00 PM 19.76 67.568 0.284 8.28 44.76 8.75
9/9/2021 4:15:00 PM 19.76 67.568 0.285 8.28 45.24 8.77
9/9/2021 4:30:00 PM 19.76 67.568 0.285 8.26 43.28 8.78
9/9/2021 4:45:00 PM 19.75 67.55 0.287 8.26 42.22 8.79
9/9/2021 5:00:00 PM 19.76 67.568 0.29 8.31 42.05 8.8
9/9/2021 5:15:00 PM 19.76 67.568 0.292 8.26 40.75 8.81
9/9/2021 5:30:00 PM 19.75 67.55 0.295 8.23 39.6 8.82
9/9/2021 5:45:00 PM 19.74 67.532 0.297 8.21 38.76 8.83
9/9/2021 6:00:00 PM 19.72 67.496 0.299 8.33 37.66 8.85
9/9/2021 6:15:00 PM 19.71 67.478 0.3 8.31 37.52 8.86
9/9/2021 6:30:00 PM 19.7 67.46 0.3 8.36 36.76 8.87
9/9/2021 6:45:00 PM 19.69 67.442 0.305 8.29 37.31 8.87
9/9/2021 7:00:00 PM 19.68 67.424 0.307 8.32 39.84 8.87
9/9/2021 7:15:00 PM 19.66 67.388 0.31 8.32 39.22 8.88
9/9/2021 7:30:00 PM 19.64 67.352 0.312 8.35 41.27 8.88
9/9/2021 7:45:00 PM 19.63 67.334 0.314 8.34 40.67 8.89
9/9/2021 8:00:00 PM 19.6 67.28 0.309 8.35 40.42 8.9
9/9/2021 8:15:00 PM 19.58 67.244 0.316 8.35 39.78 8.91
9/9/2021 8:30:00 PM 19.55 67.19 0.318 8.38 37.93 8.92
9/9/2021 8:45:00 PM 19.53 67.154 0.321 8.36 36.11 8.93
9/9/2021 9:00:00 PM 19.5 67.1 0.325 8.39 33.51 8.94
9/9/2021 9:15:00 PM 19.47 67.046 0.33 8.38 32.23 8.94
9/9/2021 9:30:00 PM 19.45 67.01 0.332 8.4 30.99 8.95
9/9/2021 9:45:00 PM 19.41 66.938 0.334 8.39 29.4 8.97
9/9/2021 10:00:00 PM 19.37 66.866 0.333 8.39 28.15 8.97
9/9/2021 10:15:00 PM 19.34 66.812 0.334 8.4 27.51 8.99
9/9/2021 10:30:00 PM 19.3 66.74 0.34 8.41 26.56 8.99
9/9/2021 10:45:00 PM 19.27 66.686 0.34 8.29 25.29 9
9/9/2021 11:00:00 PM 19.24 66.632 0.342 8.28 24.65 9.01
9/9/2021 11:15:00 PM 19.2 66.56 0.343 8.42 24.12 9.02
9/9/2021 11:30:00 PM 19.16 66.488 0.343 8.42 23.26 9.03
9/9/2021 11:45:00 PM 19.12 66.416 0.34 8.31 22.81 9.04
9/10/2021 12:00:00 AM 19.08 66.344 0.343 8.44 22.69 9.04
9/10/2021 12:15:00 AM 19.05 66.29 0.342 8.45 22.1 9.05
9/10/2021 12:30:00 AM 19.02 66.236 0.344 8.46 21.72 9.06
9/10/2021 12:45:00 AM 18.98 66.164 0.345 8.46 21.39 9.06
9/10/2021 1:00:00 AM 18.94 66.092 0.346 8.46 20.73 9.07
9/10/2021 1:15:00 AM 18.9 66.02 0.344 8.44 20.4 9.08
9/10/2021 1:30:00 AM 18.86 65.948 0.358 8.46 20.12 9.09
9/10/2021 1:45:00 AM 18.82 65.876 0.346 8.46 19.73 9.1
9/10/2021 2:00:00 AM 18.78 65.804 0.345 8.45 19.39 9.1
9/10/2021 2:15:00 AM 18.74 65.732 0.347 8.44 19.16 9.11
9/10/2021 2:30:00 AM 18.7 65.66 0.357 8.47 19.13 9.13
9/10/2021 2:45:00 AM 18.66 65.588 0.344 8.47 18.56 9.13
9/10/2021 3:00:00 AM 18.62 65.516 0.346 8.45 18.43 9.14
9/10/2021 3:15:00 AM 18.57 65.426 0.349 8.48 17.77 9.15
9/10/2021 3:30:00 AM 18.53 65.354 0.348 8.48 17.6 9.17
9/10/2021 3:45:00 AM 18.49 65.282 0.348 8.48 18 9.18
9/10/2021 4:00:00 AM 18.44 65.192 0.35 8.51 17.42 9.18
9/10/2021 4:15:00 AM 18.39 65.102 0.352 8.51 17.12 9.19
9/10/2021 4:30:00 AM 18.34 65.012 0.349 8.47 16.97 9.21
9/10/2021 4:45:00 AM 18.3 64.94 0.349 8.52 16.64 9.21
9/10/2021 5:00:00 AM 18.25 64.85 0.346 8.49 16.11 9.23
9/10/2021 5:15:00 AM 18.21 64.778 0.445 8.51 16.01 9.24
9/10/2021 5:30:00 AM 18.16 64.688 0.343 8.51 15.88 9.25
9/10/2021 5:45:00 AM 18.1 64.58 0.371 8.5 15.91 9.26
9/10/2021 6:00:00 AM 18.06 64.508 0.446 8.5 15.82 9.26
9/10/2021 6:15:00 AM 18.01 64.418 0.349 8.37 15.59 9.28
9/10/2021 6:30:00 AM 17.96 64.328 0.349 8.51 15.54 9.3
9/10/2021 6:45:00 AM 17.91 64.238 0.449 8.52 15.63 9.31
9/10/2021 7:00:00 AM 17.87 64.166 0.451 8.53 15.6 9.32
9/10/2021 7:15:00 AM 17.82 64.076 0.451 8.51 15.25 9.33
9/10/2021 7:30:00 AM 17.78 64.004 0.372 8.52 14.97 9.34
9/10/2021 7:45:00 AM 17.74 63.932 0.346 8.51 14.75 9.36
9/10/2021 8:00:00 AM 17.71 63.878 0.454 8.51 14.75 9.36
9/10/2021 8:15:00 AM 17.66 63.788 0.455 8.51 14.37 9.38
9/10/2021 8:30:00 AM 17.63 63.734 0.456 8.54 14.26 9.39
9/10/2021 8:45:00 AM 17.6 63.68 0.362 8.55 13.98 9.4
9/10/2021 9:00:00 AM 17.58 63.644 0.35 8.53 14.05 9.42
9/10/2021 9:15:00 AM 17.56 63.608 0.455 8.54 13.55 9.43
9/10/2021 9:30:00 AM 17.54 63.572 0.456 8.53 13.05 9.43
9/10/2021 9:45:00 AM 17.53 63.554 0.458 8.53 13.02 9.44
9/10/2021 10:00:00 AM 17.52 63.536 0.459 8.54 13.11 9.46
9/10/2021 10:15:00 AM 17.52 63.536 0.46 8.55 12.64 9.47
9/10/2021 10:30:00 AM 17.51 63.518 0.462 8.57 12.31 9.48
9/10/2021 10:45:00 AM 17.52 63.536 0.462 8.58 12.06 9.49
9/10/2021 11:00:00 AM 17.53 63.554 0.415 8.56 12.11 9.49
9/10/2021 11:15:00 AM 17.54 63.572 0.463 8.56 11.65 9.49
9/10/2021 11:30:00 AM 17.56 63.608 0.402 8.56 11.41 9.5
9/10/2021 11:45:00 AM 17.58 63.644 0.464 8.56 11.08 9.5
9/10/2021 12:00:00 PM 17.61 63.698 0.417 8.55 10.81 9.49
9/10/2021 12:15:00 PM 17.63 63.734 0.464 8.57 10.92 9.49
9/10/2021 12:30:00 PM 17.68 63.824 0.403 8.58 10.44 9.51
9/10/2021 12:45:00 PM 17.68 63.824 0.418 8.58 10.23 9.5
9/10/2021 1:00:00 PM 17.72 63.896 0.42 8.6 10.12 9.51
9/10/2021 1:15:00 PM 17.75 63.95 0.321 8.59 9.99 9.52
9/10/2021 1:30:00 PM 17.78 64.004 0.397 8.64 9.65 9.51
9/10/2021 1:45:00 PM 17.82 64.076 0.421 8.6 9.31 9.51
9/10/2021 2:00:00 PM 17.88 64.184 0.421 8.61 9.18 9.52
9/10/2021 2:15:00 PM 17.91 64.238 0.421 8.61 9.74 9.52
9/10/2021 2:30:00 PM 17.94 64.292 0.421 8.62 8.98 9.52
9/10/2021 2:45:00 PM 17.96 64.328 0.421 8.61 9.06 9.52
9/10/2021 3:00:00 PM 17.97 64.346 0.421 8.63 8.84 9.52
9/10/2021 3:15:00 PM 17.98 64.364 0.42 8.62 8.75 9.52
9/10/2021 3:30:00 PM 17.99 64.382 0.421 8.63 8.55 9.51
9/10/2021 3:45:00 PM 18.02 64.436 0.423 8.65 8.42 9.51
9/10/2021 4:00:00 PM 18.02 64.436 0.409 8.66 8.33 9.51
9/10/2021 4:15:00 PM 18.02 64.436 0.425 8.62 8.19 9.51
9/10/2021 4:30:00 PM 18.01 64.418 0.425 8.62 8.23 9.5
9/10/2021 4:45:00 PM 18 64.4 0.397 8.64 8.05 9.5
9/10/2021 5:00:00 PM 17.99 64.382 0.426 8.63 7.84 9.5
9/10/2021 5:15:00 PM 17.97 64.346 0.427 8.62 7.77 9.5
9/10/2021 5:30:00 PM 17.96 64.328 0.396 8.64 8.28 9.49
9/10/2021 5:45:00 PM 17.94 64.292 0.429 8.63 8.12 9.48
9/10/2021 6:00:00 PM 17.94 64.292 0.43 8.64 7.88 9.48
9/10/2021 6:15:00 PM 17.94 64.292 0.415 8.65 8.27 9.48
9/10/2021 6:30:00 PM 17.95 64.31 0.416 8.63 8.19 9.47
9/10/2021 6:45:00 PM 17.96 64.328 0.418 8.63 7.94 9.46
9/10/2021 7:00:00 PM 17.96 64.328 0.419 8.6 6.96 9.46
9/10/2021 7:15:00 PM 17.97 64.346 0.433 8.64 7.95 9.45
9/10/2021 7:30:00 PM 17.98 64.364 0.42 8.66 6.79 9.44
9/10/2021 7:45:00 PM 17.99 64.382 0.42 8.66 7.91 9.43
9/10/2021 8:00:00 PM 17.99 64.382 0.42 8.63 8.08 9.43
9/10/2021 8:15:00 PM 18 64.4 0.421 8.62 7.13 9.42
9/10/2021 8:30:00 PM 18 64.4 0.436 8.62 8.01 9.42
9/10/2021 8:45:00 PM 18.01 64.418 0.416 8.62 7.23 9.42
9/10/2021 9:00:00 PM 18.01 64.418 0.436 8.6 8.12 9.41
9/10/2021 9:15:00 PM 18.01 64.418 0.422 8.63 7.03 9.4
9/10/2021 9:30:00 PM 18.01 64.418 0.379 8.62 7.49 9.4
9/10/2021 9:45:00 PM 18.01 64.418 0.419 8.62 6.86 9.39
9/10/2021 10:00:00 PM 18.01 64.418 0.424 8.61 7.83 9.39
9/10/2021 10:15:00 PM 18.01 64.418 0.421 8.61 7.89 9.38
9/10/2021 10:30:00 PM 18.01 64.418 0.426 8.61 7.06 9.38
9/10/2021 10:45:00 PM 18 64.4 0.423 8.61 7.29 9.37
9/10/2021 11:00:00 PM 18 64.4 0.442 8.61 7.87 9.37
9/10/2021 11:15:00 PM 17.99 64.382 0.418 8.61 7.26 9.37
9/10/2021 11:30:00 PM 17.98 64.364 0.43 8.6 7.46 9.37
9/10/2021 11:45:00 PM 17.97 64.346 0.424 8.61 8.31 9.36
9/11/2021 12:00:00 AM 17.96 64.328 0.431 8.6 7.95 9.37
9/11/2021 12:15:00 AM 17.95 64.31 0.426 8.61 7.29 9.36
9/11/2021 12:30:00 AM 17.93 64.274 0.431 8.6 7.85 9.36
9/11/2021 12:45:00 AM 17.92 64.256 0.413 8.6 7.28 9.36
9/11/2021 1:00:00 AM 17.9 64.22 0.433 8.6 8.3 9.36
9/11/2021 1:15:00 AM 17.88 64.184 0.434 8.6 7.99 9.37
9/11/2021 1:30:00 AM 17.85 64.13 0.429 8.58 7.72 9.37
9/11/2021 1:45:00 AM 17.83 64.094 0.434 8.61 8.21 9.37
9/11/2021 2:00:00 AM 17.8 64.04 0.429 8.6 7.21 9.37
9/11/2021 2:15:00 AM 17.77 63.986 0.43 8.57 7.27 9.38
9/11/2021 2:30:00 AM 17.74 63.932 0.436 8.59 7.94 9.38
9/11/2021 2:45:00 AM 17.71 63.878 0.435 8.62 7.92 9.39
9/11/2021 3:00:00 AM 17.68 63.824 0.45 8.59 7.96 9.39
9/11/2021 3:15:00 AM 17.64 63.752 0.45 8.59 7.07 9.4
9/11/2021 3:30:00 AM 17.6 63.68 0.436 8.58 8.31 9.4
9/11/2021 3:45:00 AM 17.56 63.608 0.436 8.58 7.73 9.41
9/11/2021 4:00:00 AM 17.52 63.536 0.432 8.6 8.2 9.42
9/11/2021 4:15:00 AM 17.48 63.464 0.453 8.61 7.2 9.43
9/11/2021 4:30:00 AM 17.44 63.392 0.433 8.57 7.34 9.44
9/11/2021 4:45:00 AM 17.39 63.302 0.438 8.57 7.81 9.45
9/11/2021 5:00:00 AM 17.34 63.212 0.429 8.61 7.2 9.45
9/11/2021 5:15:00 AM 17.3 63.14 0.454 8.58 7.85 9.46
9/11/2021 5:30:00 AM 17.25 63.05 0.441 8.58 7.16 9.47
9/11/2021 5:45:00 AM 17.21 62.978 0.455 8.59 7.07 9.48
9/11/2021 6:00:00 AM 17.16 62.888 0.422 8.58 7.83 9.49
9/11/2021 6:15:00 AM 17.11 62.798 0.348 8.59 9.2 9.5
9/11/2021 6:30:00 AM 17.07 62.726 0.436 8.59 7.07 9.51
9/11/2021 6:45:00 AM 17.02 62.636 0.436 8.56 7.05 9.52
9/11/2021 7:00:00 AM 16.97 62.546 0.442 8.55 7.06 9.54
9/11/2021 7:15:00 AM 16.92 62.456 0.442 8.57 6.97 9.55
9/11/2021 7:30:00 AM 16.87 62.366 0.442 8.59 6.83 9.56
9/11/2021 7:45:00 AM 16.83 62.294 0.458 8.56 7.49 9.58
9/11/2021 8:00:00 AM 16.79 62.222 0.443 8.58 7.36 9.59
9/11/2021 8:15:00 AM 16.75 62.15 0.443 8.59 7.46 9.6
9/11/2021 8:30:00 AM 16.72 62.096 0.443 8.6 7.04 9.62
9/11/2021 8:45:00 AM 16.69 62.042 0.443 8.62 6.41 9.64
9/11/2021 9:00:00 AM 16.67 62.006 0.443 8.59 7.57 9.65
9/11/2021 9:15:00 AM 16.65 61.97 0.458 8.59 7.23 9.66
9/11/2021 9:30:00 AM 16.64 61.952 0.434 8.61 6.9 9.67
9/11/2021 9:45:00 AM 16.63 61.934 0.445 8.63 6.18 9.68
9/11/2021 10:00:00 AM 16.63 61.934 0.44 8.63 6.98 9.7
9/11/2021 10:15:00 AM 16.64 61.952 0.461 8.6 6.84 9.71
9/11/2021 10:30:00 AM 16.65 61.97 0.441 8.62 6.87 9.72
9/11/2021 10:45:00 AM 16.67 62.006 0.46 8.6 6.56 9.73
9/11/2021 11:00:00 AM 16.66 61.988 0.441 8.59 6.45 9.73
9/11/2021 11:15:00 AM 16.68 62.024 0.446 8.62 6.15 9.73
9/11/2021 11:30:00 AM 16.71 62.078 0.441 8.64 6.3 9.74
9/11/2021 11:45:00 AM 16.73 62.114 0.441 8.61 6.25 9.73
9/11/2021 12:00:00 PM 16.78 62.204 0.441 8.62 5.68 9.74
9/11/2021 12:15:00 PM 16.81 62.258 0.446 8.64 5.94 9.73
9/11/2021 12:30:00 PM 16.85 62.33 0.446 8.64 5.41 9.73
9/11/2021 12:45:00 PM 16.89 62.402 0.442 8.62 6.04 9.73
9/11/2021 1:00:00 PM 16.93 62.474 0.446 8.64 5.51 9.74
9/11/2021 1:15:00 PM 16.98 62.564 0.442 8.67 5.44 9.73
9/11/2021 1:30:00 PM 17.04 62.672 0.447 8.66 5.21 9.74
9/11/2021 1:45:00 PM 17.1 62.78 0.442 8.69 5.19 9.73
9/11/2021 2:00:00 PM 17.11 62.798 0.447 8.66 5.04 9.71
9/11/2021 2:15:00 PM 17.2 62.96 0.442 8.7 4.96 9.73
9/11/2021 2:30:00 PM 17.22 62.996 0.446 8.66 5.14 9.72
9/11/2021 2:45:00 PM 17.27 63.086 0.447 8.72 5.23 9.71
9/11/2021 3:00:00 PM 17.33 63.194 0.447 8.72 5.09 9.72
9/11/2021 3:15:00 PM 17.36 63.248 0.447 8.68 4.93 9.72
9/11/2021 3:30:00 PM 17.4 63.32 0.462 8.69 4.79 9.71
9/11/2021 3:45:00 PM 17.44 63.392 0.446 8.72 4.67 9.7
9/11/2021 4:00:00 PM 17.47 63.446 0.106 8.73 261.15 9.7
9/11/2021 4:15:00 PM 17.49 63.482 0.442 8.71 5.06 9.68
9/11/2021 4:30:00 PM 17.49 63.482 0.442 8.7 4.88 9.67
9/11/2021 4:45:00 PM 17.49 63.482 0.442 8.7 4.92 9.66
9/11/2021 5:00:00 PM 17.47 63.446 0.441 8.73 4.26 9.66
9/11/2021 5:15:00 PM 17.46 63.428 0.441 8.72 4.22 9.65
9/11/2021 5:30:00 PM 17.43 63.374 0.441 8.7 4.64 9.64
9/11/2021 5:45:00 PM 17.41 63.338 0.416 8.68 4.6 9.63
9/11/2021 6:00:00 PM 17.39 63.302 0.447 8.7 4.66 9.63
9/11/2021 6:15:00 PM 17.38 63.284 0.442 8.69 5.35 9.62
9/11/2021 6:30:00 PM 17.38 63.284 0.463 8.7 4.22 9.61
9/11/2021 6:45:00 PM 17.38 63.284 0.437 8.69 4.38 9.61
9/11/2021 7:00:00 PM 17.38 63.284 0.444 8.69 4.35 9.6
9/11/2021 7:15:00 PM 17.38 63.284 0.444 8.69 4.29 9.59
9/11/2021 7:30:00 PM 17.38 63.284 0.449 8.69 4.26 9.58
9/11/2021 7:45:00 PM 17.39 63.302 0.445 8.68 4.5 9.57
9/11/2021 8:00:00 PM 17.4 63.32 0.45 8.68 4.56 9.57
9/11/2021 8:15:00 PM 17.4 63.32 0.439 8.69 4.71 9.56
9/11/2021 8:30:00 PM 17.41 63.338 0.445 8.68 4.94 9.56
9/11/2021 8:45:00 PM 17.42 63.356 0.446 8.69 5.05 9.55
9/11/2021 9:00:00 PM 17.43 63.374 0.451 8.69 4.96 9.55
9/11/2021 9:15:00 PM 17.44 63.392 0.452 8.68 5.23 9.53
9/11/2021 9:30:00 PM 17.45 63.41 0.447 8.68 5.07 9.53
9/11/2021 9:45:00 PM 17.46 63.428 0.433 8.68 4.96 9.52
9/11/2021 10:00:00 PM 17.46 63.428 0.452 8.7 5.01 9.51
9/11/2021 10:15:00 PM 17.47 63.446 0.444 8.65 4.96 9.51
9/11/2021 10:30:00 PM 17.47 63.446 0.453 8.68 4.96 9.5
9/11/2021 10:45:00 PM 17.47 63.446 0.438 8.7 5 9.49
9/11/2021 11:00:00 PM 17.48 63.464 0.453 8.7 5.08 9.49
9/11/2021 11:15:00 PM 17.47 63.446 0.446 8.66 5.45 9.48
9/11/2021 11:30:00 PM 17.47 63.446 0.448 8.66 5.16 9.47
9/11/2021 11:45:00 PM 17.47 63.446 0.441 8.69 5.48 9.47
9/12/2021 12:00:00 AM 17.47 63.446 0.455 8.65 5.2 9.46
9/12/2021 12:15:00 AM 17.46 63.428 0.451 8.64 5.43 9.46
9/12/2021 12:30:00 AM 17.46 63.428 0.451 8.66 5.24 9.46
9/12/2021 12:45:00 AM 17.46 63.428 0.452 8.7 5.57 9.46
9/12/2021 1:00:00 AM 17.45 63.41 0.458 8.66 5.64 9.45
9/12/2021 1:15:00 AM 17.45 63.41 0.436 8.64 5.35 9.44
9/12/2021 1:30:00 AM 17.45 63.41 0.452 8.65 5.72 9.44
9/12/2021 1:45:00 AM 17.44 63.392 0.457 8.66 5.76 9.45
9/12/2021 2:00:00 AM 17.43 63.374 0.453 8.66 6 9.44
9/12/2021 2:15:00 AM 17.43 63.374 0.445 8.68 6.02 9.44
9/12/2021 2:30:00 AM 17.42 63.356 0.453 8.65 6.04 9.44
9/12/2021 2:45:00 AM 17.42 63.356 0.454 8.68 6.14 9.44
9/12/2021 3:00:00 AM 17.41 63.338 0.455 8.65 6.13 9.44
9/12/2021 3:15:00 AM 17.41 63.338 0.456 8.65 5.88 9.43
9/12/2021 3:30:00 AM 17.4 63.32 0.457 8.66 5.79 9.43
9/12/2021 3:45:00 AM 17.4 63.32 0.458 8.65 5.81 9.43
9/12/2021 4:00:00 AM 17.4 63.32 0.459 8.65 6.09 9.43
9/12/2021 4:15:00 AM 17.39 63.302 0.46 8.65 6.11 9.43
9/12/2021 4:30:00 AM 17.39 63.302 0.447 8.66 5.85 9.43
9/12/2021 4:45:00 AM 17.38 63.284 0.461 8.63 5.89 9.43
9/12/2021 5:00:00 AM 17.36 63.248 0.461 8.68 5.81 9.43
9/12/2021 5:15:00 AM 17.35 63.23 0.453 8.65 5.95 9.43
9/12/2021 5:30:00 AM 17.33 63.194 0.463 8.61 6.14 9.43
9/12/2021 5:45:00 AM 17.31 63.158 0.462 8.63 6.13 9.43
9/12/2021 6:00:00 AM 17.28 63.104 0.465 8.63 6.46 9.45
9/12/2021 6:15:00 AM 17.26 63.068 0.455 8.65 5.42 9.45
9/12/2021 6:30:00 AM 17.23 63.014 0.472 8.65 6.15 9.45
9/12/2021 6:45:00 AM 17.2 62.96 0.472 8.67 6.08 9.46
9/12/2021 7:00:00 AM 17.18 62.924 0.467 8.63 6.06 9.47
9/12/2021 7:15:00 AM 17.15 62.87 0.467 8.62 5.36 9.48
9/12/2021 7:30:00 AM 17.12 62.816 0.467 8.64 6.32 9.49
9/12/2021 7:45:00 AM 17.1 62.78 0.487 8.62 6.01 9.49
9/12/2021 8:00:00 AM 17.08 62.744 0.464 8.67 5.65 9.5
9/12/2021 8:15:00 AM 17.05 62.69 0.466 8.63 5.75 9.52
9/12/2021 8:30:00 AM 17.04 62.672 0.464 8.66 5.82 9.53
9/12/2021 8:45:00 AM 17.03 62.654 0.466 8.64 5.42 9.55
9/12/2021 9:00:00 AM 17.02 62.636 0.466 8.64 5.19 9.57
9/12/2021 9:15:00 AM 17.02 62.636 0.467 8.64 5.25 9.58
9/12/2021 9:30:00 AM 17.01 62.618 0.467 8.68 4.97 9.58
9/12/2021 9:45:00 AM 17 62.6 0.431 8.67 4.83 9.58
9/12/2021 10:00:00 AM 17 62.6 0.467 8.67 5.12 9.6
9/12/2021 10:15:00 AM 17.03 62.654 0.467 8.65 4.7 9.62
9/12/2021 10:30:00 AM 17.05 62.69 0.465 8.68 5.11 9.62
9/12/2021 10:45:00 AM 17.06 62.708 0.487 8.62 4.66 9.64
9/12/2021 11:00:00 AM 17.09 62.762 0.467 8.68 4.71 9.64
9/12/2021 11:15:00 AM 17.11 62.798 0.472 8.67 4.46 9.64
9/12/2021 11:30:00 AM 17.14 62.852 0.467 8.69 4.49 9.65
9/12/2021 11:45:00 AM 17.18 62.924 0.467 8.69 4.35 9.65
9/12/2021 12:00:00 PM 17.22 62.996 0.466 8.68 4.12 9.66
9/12/2021 12:15:00 PM 17.27 63.086 0.465 8.68 4.39 9.65
9/12/2021 12:30:00 PM 17.34 63.212 0.471 8.7 4.03 9.66
9/12/2021 12:45:00 PM 17.37 63.266 0.464 8.69 3.95 9.64
9/12/2021 1:00:00 PM 17.41 63.338 0.466 8.68 4.06 9.64
9/12/2021 1:15:00 PM 17.5 63.5 0.465 8.72 4 9.66
9/12/2021 1:30:00 PM 17.57 63.626 0.464 8.71 3.73 9.66
9/12/2021 1:45:00 PM 17.61 63.698 0.463 8.74 3.98 9.65
9/12/2021 2:00:00 PM 17.68 63.824 0.463 8.72 3.83 9.65
9/12/2021 2:15:00 PM 17.75 63.95 0.465 8.72 3.74 9.66
9/12/2021 2:30:00 PM 17.82 64.076 0.466 8.76 3.79 9.66
9/12/2021 2:45:00 PM 17.87 64.166 0.47 8.76 3.8 9.64
9/12/2021 3:00:00 PM 17.92 64.256 0.466 8.77 3.88 9.63
9/12/2021 3:15:00 PM 18 64.4 0.466 8.74 3.86 9.63
9/12/2021 3:30:00 PM 18.05 64.49 0.464 8.77 3.7 9.62
9/12/2021 3:45:00 PM 18.07 64.526 0.465 8.75 3.85 9.61
9/12/2021 4:00:00 PM 18.12 64.616 0.465 8.78 3.66 9.61
9/12/2021 4:15:00 PM 18.17 64.706 0.465 8.76 3.68 9.6
9/12/2021 4:30:00 PM 18.2 64.76 0.464 8.78 3.52 9.58
9/12/2021 4:45:00 PM 18.21 64.778 0.441 8.76 3.78 9.57
9/12/2021 5:00:00 PM 18.22 64.796 0.464 8.77 4.01 9.56
9/12/2021 5:15:00 PM 18.22 64.796 0.464 8.76 3.62 9.56
9/12/2021 5:30:00 PM 18.23 64.814 0.469 8.77 3.89 9.54
9/12/2021 5:45:00 PM 18.23 64.814 0.463 8.76 3.92 9.52
9/12/2021 6:00:00 PM 18.23 64.814 0.463 8.76 4.65 9.51
9/12/2021 6:15:00 PM 18.24 64.832 0.463 8.76 4.13 9.5
9/12/2021 6:30:00 PM 18.24 64.832 0.462 8.76 3.79 9.49
9/12/2021 6:45:00 PM 18.25 64.85 0.467 8.77 3.95 9.47
9/12/2021 7:00:00 PM 18.26 64.868 0.462 8.75 4 9.46
9/12/2021 7:15:00 PM 18.27 64.886 0.462 8.76 3.82 9.44
9/12/2021 7:30:00 PM 18.28 64.904 0.462 8.78 3.73 9.44
9/12/2021 7:45:00 PM 18.29 64.922 0.434 8.77 3.33 9.42
9/12/2021 8:00:00 PM 18.3 64.94 0.332 8.77 3.66 9.41
9/12/2021 8:15:00 PM 18.32 64.976 0.46 8.73 4.82 9.4
9/12/2021 8:30:00 PM 18.33 64.994 0.44 8.74 3.43 9.39
9/12/2021 8:45:00 PM 18.34 65.012 0.462 8.73 4.44 9.38
9/12/2021 9:00:00 PM 18.36 65.048 0.463 8.72 4.99 9.38
9/12/2021 9:15:00 PM 18.37 65.066 0.461 8.71 4.82 9.36
9/12/2021 9:30:00 PM 18.38 65.084 0.463 8.74 10.44 9.35
9/12/2021 9:45:00 PM 18.39 65.102 0.463 8.73 5.05 9.35
9/12/2021 10:00:00 PM 18.39 65.102 0.463 8.72 4.41 9.34
9/12/2021 10:15:00 PM 18.4 65.12 0.463 8.72 4.5 9.33
9/12/2021 10:30:00 PM 18.4 65.12 0.463 8.72 4.74 9.33
9/12/2021 10:45:00 PM 18.4 65.12 0.463 8.72 4.93 9.32
9/12/2021 11:00:00 PM 18.4 65.12 0.463 8.7 3.75 9.32
9/12/2021 11:15:00 PM 18.4 65.12 0.463 8.7 5.25 9.31
9/12/2021 11:30:00 PM 18.4 65.12 0.463 8.72 5.28 9.31
9/12/2021 11:45:00 PM 18.39 65.102 0.428 8.71 4.89 9.29
9/13/2021 12:00:00 AM 18.39 65.102 0.468 8.69 4.92 9.29
9/13/2021 12:15:00 AM 18.38 65.084 0.462 8.69 4.76 9.29
9/13/2021 12:30:00 AM 18.38 65.084 0.463 8.67 4.9 9.28
9/13/2021 12:45:00 AM 18.38 65.084 0.463 8.68 5.05 9.28
9/13/2021 1:00:00 AM 18.38 65.084 0.464 8.68 5.06 9.27
9/13/2021 1:15:00 AM 18.38 65.084 0.465 8.67 5.11 9.27
9/13/2021 1:30:00 AM 18.38 65.084 0.465 8.67 4.94 9.26
9/13/2021 1:45:00 AM 18.38 65.084 0.467 8.68 4.96 9.25
9/13/2021 2:00:00 AM 18.38 65.084 0.467 8.68 5.03 9.25
9/13/2021 2:15:00 AM 18.39 65.102 0.468 8.67 5.13 9.25
9/13/2021 2:30:00 AM 18.39 65.102 0.461 8.67 4.92 9.24
9/13/2021 2:45:00 AM 18.4 65.12 0.47 8.66 5.11 9.24
9/13/2021 3:00:00 AM 18.4 65.12 0.47 8.66 5.42 9.23
9/13/2021 3:15:00 AM 18.41 65.138 0.468 8.67 5.53 9.22
9/13/2021 3:30:00 AM 18.42 65.156 0.47 8.64 5.28 9.22
9/13/2021 3:45:00 AM 18.42 65.156 0.47 8.65 5.21 9.22
9/13/2021 4:00:00 AM 18.42 65.156 0.47 8.64 5.43 9.22
9/13/2021 4:15:00 AM 18.42 65.156 0.464 8.66 5.41 9.22
9/13/2021 4:30:00 AM 18.42 65.156 0.471 8.65 5.64 9.21
9/13/2021 4:45:00 AM 18.42 65.156 0.471 8.65 5.34 9.21
9/13/2021 5:00:00 AM 18.42 65.156 0.467 8.66 5.43 9.21
9/13/2021 5:15:00 AM 18.42 65.156 0.47 8.66 5.46 9.21
9/13/2021 5:30:00 AM 18.42 65.156 0.471 8.66 5.47 9.21
9/13/2021 5:45:00 AM 18.41 65.138 0.477 8.65 5.37 9.21
9/13/2021 6:00:00 AM 18.41 65.138 0.473 8.65 5.79 9.21
9/13/2021 6:15:00 AM 18.4 65.12 0.463 8.66 4.95 9.21
9/13/2021 6:30:00 AM 18.4 65.12 0.474 8.65 5.4 9.21
9/13/2021 6:45:00 AM 18.39 65.102 0.474 8.64 5.35 9.22
9/13/2021 7:00:00 AM 18.38 65.084 0.474 8.66 5.61 9.22
9/13/2021 7:15:00 AM 18.37 65.066 0.473 8.64 5.19 9.22
9/13/2021 7:30:00 AM 18.36 65.048 0.475 8.66 5.12 9.23
9/13/2021 7:45:00 AM 18.35 65.03 0.476 8.66 5.19 9.24
9/13/2021 8:00:00 AM 18.34 65.012 0.476 8.66 4.8 9.25
9/13/2021 8:15:00 AM 18.34 65.012 0.476 8.67 4.63 9.26
9/13/2021 8:30:00 AM 18.33 64.994 0.458 8.67 4.56 9.28
9/13/2021 8:45:00 AM 18.33 64.994 0.474 8.7 4.53 9.28
9/13/2021 9:00:00 AM 18.33 64.994 0.467 8.68 4.45 9.3
9/13/2021 9:15:00 AM 18.33 64.994 0.476 8.68 4.4 9.32
9/13/2021 9:30:00 AM 18.34 65.012 0.476 8.69 4.24 9.34
9/13/2021 9:45:00 AM 18.35 65.03 0.477 8.68 4.21 9.36
9/13/2021 10:00:00 AM 18.37 65.066 0.477 8.7 4.21 9.37
9/13/2021 10:15:00 AM 18.38 65.084 0.477 8.7 4.55 9.37
9/13/2021 10:30:00 AM 18.4 65.12 0.478 8.7 3.98 9.39
9/13/2021 10:45:00 AM 18.42 65.156 0.478 8.71 3.92 9.4
9/13/2021 11:00:00 AM 18.45 65.21 0.484 8.72 3.96 9.41
9/13/2021 11:15:00 AM 18.48 65.264 0.477 8.72 3.9 9.41
9/13/2021 11:30:00 AM 18.51 65.318 0.468 8.71 4.02 9.42
9/13/2021 11:45:00 AM 18.55 65.39 0.476 8.74 3.85 9.42
9/13/2021 12:00:00 PM 18.53 65.354 0.476 8.7 3.86 9.39
9/13/2021 12:15:00 PM 18.56 65.408 0.476 8.71 3.94 9.41
9/13/2021 12:30:00 PM 18.64 65.552 0.475 8.74 3.71 9.44
9/13/2021 12:45:00 PM 18.7 65.66 0.477 8.74 3.73 9.45
9/13/2021 1:00:00 PM 18.73 65.714 0.475 8.76 3.67 9.43
9/13/2021 1:15:00 PM 18.74 65.732 0.475 8.73 3.61 9.4
9/13/2021 1:30:00 PM 18.79 65.82201 0.477 8.73 3.7 9.4
9/13/2021 1:45:00 PM 18.86 65.948 0.475 8.76 3.94 9.42
9/13/2021 2:00:00 PM 18.88 65.984 0.475 8.74 3.54 9.38
9/13/2021 2:15:00 PM 18.9 66.02 0.476 8.74 3.48 9.38
9/13/2021 2:30:00 PM 18.94 66.092 0.474 8.76 3.49 9.42
9/13/2021 2:45:00 PM 18.96 66.128 0.423 8.77 3.13 9.37
9/13/2021 3:00:00 PM 18.98 66.164 0.47 8.77 3.15 9.4
9/13/2021 3:15:00 PM 19.04 66.272 0.475 8.8 3.12 9.42
9/13/2021 3:30:00 PM 19.09 66.362 0.422 8.78 2.96 9.43
9/13/2021 3:45:00 PM 19.13 66.434 0.475 8.79 3.14 9.43
9/13/2021 4:00:00 PM 19.17 66.506 0.476 8.78 3.1 9.41
9/13/2021 4:15:00 PM 19.22 66.596 0.475 8.79 3.07 9.4
9/13/2021 4:30:00 PM 19.26 66.668 0.394 8.79 2.9 9.39
9/13/2021 4:45:00 PM 19.3 66.74 0.477 8.79 3.02 9.37
9/13/2021 5:00:00 PM 19.33 66.794 0.478 8.8 3.06 9.36
9/13/2021 5:15:00 PM 19.34 66.812 0.475 8.79 2.9 9.34
9/13/2021 5:30:00 PM 19.33 66.794 0.475 8.81 2.83 9.33
9/13/2021 5:45:00 PM 19.32 66.776 0.455 8.79 2.99 9.31
9/13/2021 6:00:00 PM 19.3 66.74 0.476 8.79 2.97 9.3
9/13/2021 6:15:00 PM 19.28 66.704 0.473 8.78 2.94 9.29
9/13/2021 6:30:00 PM 19.27 66.686 0.473 8.78 3.07 9.27
9/13/2021 6:45:00 PM 19.27 66.686 0.473 8.77 3.13 9.26
9/13/2021 7:00:00 PM 19.26 66.668 0.474 8.77 3.1 9.25
9/13/2021 7:15:00 PM 19.27 66.686 0.472 8.75 3.22 9.23
9/13/2021 7:30:00 PM 19.27 66.686 0.471 8.76 3.45 9.21
9/13/2021 7:45:00 PM 19.27 66.686 0.47 8.76 3.32 9.21
9/13/2021 8:00:00 PM 19.27 66.686 0.411 8.75 3.39 9.21
9/13/2021 8:15:00 PM 19.27 66.686 0.47 8.76 3.71 9.2
9/13/2021 8:30:00 PM 19.28 66.704 0.47 8.75 3.74 9.19
9/13/2021 8:45:00 PM 19.28 66.704 0.472 8.74 4.27 9.2
9/13/2021 9:00:00 PM 19.28 66.704 0.47 8.74 4.12 9.18
9/13/2021 9:15:00 PM 19.27 66.686 0.472 8.74 4.14 9.18
9/13/2021 9:30:00 PM 19.27 66.686 0.47 8.74 4.4 9.17
9/13/2021 9:45:00 PM 19.26 66.668 0.416 8.75 4.49 9.16
9/13/2021 10:00:00 PM 19.26 66.668 0.47 8.73 4.33 9.16
9/13/2021 10:15:00 PM 19.25 66.65 0.47 8.73 4.19 9.15
9/13/2021 10:30:00 PM 19.24 66.632 0.469 8.71 4.35 9.14
9/13/2021 10:45:00 PM 19.23 66.614 0.469 8.71 4.69 9.14
9/13/2021 11:00:00 PM 19.22 66.596 0.471 8.72 4.18 9.14
9/13/2021 11:15:00 PM 19.21 66.578 0.471 8.72 4.09 9.14
9/13/2021 11:30:00 PM 19.19 66.542 0.459 8.71 4.16 9.13
9/13/2021 11:45:00 PM 19.18 66.524 0.469 8.69 4.41 9.13
9/14/2021 12:00:00 AM 19.17 66.506 0.47 8.71 4.32 9.12
9/14/2021 12:15:00 AM 19.16 66.488 0.457 8.69 4.14 9.12
9/14/2021 12:30:00 AM 19.15 66.47 0.473 8.68 4.07 9.13
9/14/2021 12:45:00 AM 19.13 66.434 0.471 8.7 4.09 9.11
9/14/2021 1:00:00 AM 19.12 66.416 0.472 8.69 4.71 9.11
9/14/2021 1:15:00 AM 19.11 66.398 0.475 8.69 4.57 9.12
9/14/2021 1:30:00 AM 19.09 66.362 0.475 8.69 4.45 9.12
9/14/2021 1:45:00 AM 19.08 66.344 0.475 8.69 4.47 9.11
9/14/2021 2:00:00 AM 19.06 66.308 0.474 8.68 4.73 9.1
9/14/2021 2:15:00 AM 19.05 66.29 0.477 8.69 4.96 9.11
9/14/2021 2:30:00 AM 19.03 66.254 0.475 8.66 4.99 9.09
9/14/2021 2:45:00 AM 19.02 66.236 0.483 8.67 4.95 9.1
9/14/2021 3:00:00 AM 19.01 66.218 0.48 8.67 4.87 9.1
9/14/2021 3:15:00 AM 19 66.2 0.482 8.67 5.02 9.1
9/14/2021 3:30:00 AM 18.99 66.182 0.483 8.66 5.09 9.1
9/14/2021 3:45:00 AM 18.98 66.164 0.485 8.67 5.07 9.1
9/14/2021 4:00:00 AM 18.97 66.146 0.486 8.66 4.98 9.1
9/14/2021 4:15:00 AM 18.96 66.128 0.481 8.67 5.01 9.09
9/14/2021 4:30:00 AM 18.94 66.092 0.485 8.65 5.44 9.09
9/14/2021 4:45:00 AM 18.93 66.074 0.485 8.67 5.37 9.09
9/14/2021 5:00:00 AM 18.92 66.056 0.487 8.67 5.16 9.09
9/14/2021 5:15:00 AM 18.9 66.02 0.485 8.66 4.8 9.1
9/14/2021 5:30:00 AM 18.88 65.984 0.485 8.65 5.19 9.1
9/14/2021 5:45:00 AM 18.87 65.966 0.485 8.65 5.05 9.1
9/14/2021 6:00:00 AM 18.85 65.93 0.485 8.65 5.2 9.1
9/14/2021 6:15:00 AM 18.84 65.912 0.433 8.66 5.48 9.1
9/14/2021 6:30:00 AM 18.82 65.876 0.486 8.65 5.16 9.1
9/14/2021 6:45:00 AM 18.8 65.84 0.486 8.66 5.28 9.11
9/14/2021 7:00:00 AM 18.79 65.82201 0.486 8.65 5.23 9.11
9/14/2021 7:15:00 AM 18.78 65.804 0.487 8.65 4.8 9.13
9/14/2021 7:30:00 AM 18.77 65.786 0.486 8.66 4.75 9.13
9/14/2021 7:45:00 AM 18.76 65.768 0.45 8.64 4.38 9.14
9/14/2021 8:00:00 AM 18.75 65.75 0.488 8.67 4.24 9.16
9/14/2021 8:15:00 AM 18.75 65.75 0.485 8.66 4.4 9.18
9/14/2021 8:30:00 AM 18.74 65.732 0.485 8.67 4.37 9.19
9/14/2021 8:45:00 AM 18.74 65.732 0.484 8.68 4.43 9.21
9/14/2021 9:00:00 AM 18.75 65.75 0.485 8.68 4.39 9.23
9/14/2021 9:15:00 AM 18.75 65.75 0.485 8.69 4.22 9.25
9/14/2021 9:30:00 AM 18.75 65.75 0.484 8.65 4.33 9.26
9/14/2021 9:45:00 AM 18.76 65.768 0.485 8.69 4.17 9.29
9/14/2021 10:00:00 AM 18.78 65.804 0.483 8.69 4.19 9.32
9/14/2021 10:15:00 AM 18.81 65.858 0.484 8.68 3.94 9.34
9/14/2021 10:30:00 AM 18.82 65.876 0.482 8.7 3.95 9.34
9/14/2021 10:45:00 AM 18.84 65.912 0.482 8.7 4.04 9.35
9/14/2021 11:00:00 AM 18.86 65.948 0.481 8.71 4.01 9.36
9/14/2021 11:15:00 AM 18.89 66.002 0.483 8.72 3.89 9.38
9/14/2021 11:30:00 AM 18.9 66.02 0.483 8.73 3.63 9.39
9/14/2021 11:45:00 AM 18.95 66.11 0.481 8.71 3.58 9.4
9/14/2021 12:00:00 PM 18.97 66.146 0.482 8.72 3.92 9.4
9/14/2021 12:15:00 PM 18.99 66.182 0.482 8.73 3.46 9.41
9/14/2021 12:30:00 PM 19.07 66.326 0.481 8.75 3.48 9.42
9/14/2021 12:45:00 PM 19.11 66.398 0.479 8.74 3.17 9.41
9/14/2021 1:00:00 PM 19.16 66.488 0.481 8.75 4.12 9.41
9/14/2021 1:15:00 PM 19.19 66.542 0.48 8.74 3.35 9.39
9/14/2021 1:30:00 PM 19.26 66.668 0.48 8.77 3.5 9.42
9/14/2021 1:45:00 PM 19.32 66.776 0.481 8.76 3.9 9.42
9/14/2021 2:00:00 PM 19.36 66.848 0.481 8.77 3.17 9.42
9/14/2021 2:15:00 PM 19.38 66.884 0.482 8.78 3.25 9.42
9/14/2021 2:30:00 PM 19.42 66.956 0.483 8.79 3.86 9.41
9/14/2021 2:45:00 PM 19.48 67.064 0.489 8.77 3.03 9.43
9/14/2021 3:00:00 PM 19.53 67.154 0.483 8.79 3.19 9.42
9/14/2021 3:15:00 PM 19.55 67.19 0.483 8.79 3.42 9.4
9/14/2021 3:30:00 PM 19.58 67.244 0.485 8.8 3.28 9.4
9/14/2021 3:45:00 PM 19.64 67.352 0.485 8.82 2.89 9.41
9/14/2021 4:00:00 PM 19.68 67.424 0.484 8.81 3.02 9.39
9/14/2021 4:15:00 PM 19.73 67.514 0.484 8.82 3.56 9.4
9/14/2021 4:30:00 PM 19.75 67.55 0.484 8.82 3.05 9.37
9/14/2021 4:45:00 PM 19.77 67.586 0.484 8.82 3.26 9.36
9/14/2021 5:00:00 PM 19.79 67.622 0.484 8.83 2.79 9.35
9/14/2021 5:15:00 PM 19.8 67.64 0.487 8.83 2.89 9.32
9/14/2021 5:30:00 PM 19.8 67.64 0.487 8.83 2.93 9.28
9/14/2021 5:45:00 PM 19.8 67.64 0.484 8.82 3.33 9.27
9/14/2021 6:00:00 PM 19.79 67.622 0.484 8.82 3.07 9.25
9/14/2021 6:15:00 PM 19.79 67.622 0.484 8.84 2.93 9.25
9/14/2021 6:30:00 PM 19.78 67.604 0.483 8.82 2.79 9.23
9/14/2021 6:45:00 PM 19.77 67.586 0.483 8.82 2.99 9.21
9/14/2021 7:00:00 PM 19.76 67.568 0.483 8.81 3.12 9.19
9/14/2021 7:15:00 PM 19.76 67.568 0.482 8.83 3.23 9.17
9/14/2021 7:30:00 PM 19.76 67.568 0.472 8.81 3.21 9.16
9/14/2021 7:45:00 PM 19.76 67.568 0.472 8.82 3.02 9.15
9/14/2021 8:00:00 PM 19.76 67.568 0.481 8.8 3.41 9.13
9/14/2021 8:15:00 PM 19.76 67.568 0.482 8.8 3.77 9.13
9/14/2021 8:30:00 PM 19.77 67.586 0.481 8.8 3.68 9.12
9/14/2021 8:45:00 PM 19.77 67.586 0.379 8.8 3.67 9.11
9/14/2021 9:00:00 PM 19.77 67.586 0.481 8.78 4 9.09
9/14/2021 9:15:00 PM 19.77 67.586 0.48 8.79 4.79 9.08
9/14/2021 9:30:00 PM 19.77 67.586 0.48 8.8 4.21 9.07
9/14/2021 9:45:00 PM 19.76 67.568 0.48 8.77 4.72 9.07
9/14/2021 10:00:00 PM 19.76 67.568 0.481 8.77 4.1 9.06
9/14/2021 10:15:00 PM 19.75 67.55 0.479 8.77 4.49 9.05
9/14/2021 10:30:00 PM 19.73 67.514 0.479 8.75 4.43 9.04
9/14/2021 10:45:00 PM 19.72 67.496 0.479 8.75 4.63 9.04
9/14/2021 11:00:00 PM 19.7 67.46 0.48 8.76 4.51 9.02
9/14/2021 11:15:00 PM 19.69 67.442 0.482 8.75 4.26 9.03
9/14/2021 11:30:00 PM 19.68 67.424 0.48 8.74 4.27 9.02
9/14/2021 11:45:00 PM 19.66 67.388 0.48 8.76 4.29 9.01
9/15/2021 12:00:00 AM 19.64 67.352 0.48 8.75 4.79 9.01
9/15/2021 12:15:00 AM 19.63 67.334 0.48 8.74 4.21 9.01
9/15/2021 12:30:00 AM 19.61 67.298 0.482 8.76 4.43 9
9/15/2021 12:45:00 AM 19.6 67.28 0.48 8.75 4.8 8.99
9/15/2021 1:00:00 AM 19.59 67.262 0.481 8.74 4.65 8.99
9/15/2021 1:15:00 AM 19.57 67.226 0.488 8.73 4.45 8.99
9/15/2021 1:30:00 AM 19.56 67.208 0.481 8.73 4.52 8.98
9/15/2021 1:45:00 AM 19.56 67.208 0.482 8.73 4.8 8.98
9/15/2021 2:00:00 AM 19.54 67.172 0.482 8.73 4.72 8.97
9/15/2021 2:15:00 AM 19.54 67.172 0.482 8.73 4.95 8.96
9/15/2021 2:30:00 AM 19.53 67.154 0.478 8.75 5.03 8.96
9/15/2021 2:45:00 AM 19.52 67.136 0.482 8.74 4.91 8.96
9/15/2021 3:00:00 AM 19.51 67.118 0.481 8.74 4.92 8.95
9/15/2021 3:15:00 AM 19.51 67.118 0.482 8.73 4.83 8.95
9/15/2021 3:30:00 AM 19.5 67.1 0.482 8.73 5.07 8.95
9/15/2021 3:45:00 AM 19.5 67.1 0.489 8.72 5.05 8.95
9/15/2021 4:00:00 AM 19.51 67.118 0.483 8.72 4.93 8.95
9/15/2021 4:15:00 AM 19.51 67.118 0.484 8.72 5.09 8.94
9/15/2021 4:30:00 AM 19.51 67.118 0.484 8.71 4.42 8.93
9/15/2021 4:45:00 AM 19.51 67.118 0.487 8.71 5.8 8.94
9/15/2021 5:00:00 AM 19.51 67.118 0.485 8.71 5.13 8.94
9/15/2021 5:15:00 AM 19.51 67.118 0.487 8.6 4.91 8.94
9/15/2021 5:30:00 AM 19.51 67.118 0.488 8.71 5.33 8.93
9/15/2021 5:45:00 AM 19.51 67.118 0.486 8.71 5.08 8.93
9/15/2021 6:00:00 AM 19.51 67.118 0.488 8.71 5.17 8.93
9/15/2021 6:15:00 AM 19.51 67.118 0.486 8.71 6.12 8.92
9/15/2021 6:30:00 AM 19.5 67.1 0.486 8.7 5.41 8.93
9/15/2021 6:45:00 AM 19.5 67.1 0.487 8.7 5.45 8.92
9/15/2021 7:00:00 AM 19.5 67.1 0.489 8.71 5.04 8.93
9/15/2021 7:15:00 AM 19.5 67.1 0.49 8.69 4.97 8.95
9/15/2021 7:30:00 AM 19.5 67.1 0.456 8.72 4.75 8.95
9/15/2021 7:45:00 AM 19.51 67.118 0.489 8.71 4.85 8.95
9/15/2021 8:00:00 AM 19.51 67.118 0.492 8.71 4.75 8.95
9/15/2021 8:15:00 AM 19.51 67.118 0.463 8.75 4.65 8.97
9/15/2021 8:30:00 AM 19.51 67.118 0.491 8.72 4.53 8.98
9/15/2021 8:45:00 AM 19.52 67.136 0.491 8.72 4.37 9.01
9/15/2021 9:00:00 AM 19.54 67.172 0.493 8.74 4.32 9.05
9/15/2021 9:15:00 AM 19.54 67.172 0.492 8.72 4.24 9.03
9/15/2021 9:30:00 AM 19.53 67.154 0.492 8.74 4.31 9.04
9/15/2021 9:45:00 AM 19.55 67.19 0.465 8.72 3.97 9.1
9/15/2021 10:00:00 AM 19.58 67.244 0.476 8.75 4.12 9.13
9/15/2021 10:15:00 AM 19.6 67.28 0.492 8.75 4.62 9.14
9/15/2021 10:30:00 AM 19.63 67.334 0.493 8.75 4.25 9.16
9/15/2021 10:45:00 AM 19.66 67.388 0.493 8.76 4.19 9.18
9/15/2021 11:00:00 AM 19.68 67.424 0.493 8.76 4.21 9.2
9/15/2021 11:15:00 AM 19.7 67.46 0.487 8.77 4.06 9.2
9/15/2021 11:30:00 AM 19.74 67.532 0.493 8.77 3.73 9.21
9/15/2021 11:45:00 AM 19.77 67.586 0.494 8.78 3.8 9.23
9/15/2021 12:00:00 PM 19.79 67.622 0.492 8.77 3.67 9.23
9/15/2021 12:15:00 PM 19.82 67.676 0.492 8.78 3.57 9.23
9/15/2021 12:30:00 PM 19.87 67.766 0.491 8.8 3.42 9.24
9/15/2021 12:45:00 PM 19.9 67.82 0.492 8.8 3.95 9.25
9/15/2021 1:00:00 PM 19.94 67.892 0.494 8.78 3.39 9.25
9/15/2021 1:15:00 PM 19.98 67.964 0.493 8.81 3.54 9.25
9/15/2021 1:30:00 PM 20.05 68.09 0.493 8.82 3.55 9.25
9/15/2021 1:45:00 PM 20.11 68.198 0.492 8.82 3.32 9.26
9/15/2021 2:00:00 PM 20.18 68.324 0.492 8.81 3.09 9.26
9/15/2021 2:15:00 PM 20.26 68.468 0.492 8.83 3.09 9.27
9/15/2021 2:30:00 PM 20.33 68.594 0.491 8.84 3.25 9.28
9/15/2021 2:45:00 PM 20.36 68.648 0.493 8.85 2.97 9.26
9/15/2021 3:00:00 PM 20.43 68.774 0.491 8.85 2.9 9.27
9/15/2021 3:15:00 PM 20.47 68.846 0.49 8.85 2.96 9.26
9/15/2021 3:30:00 PM 20.51 68.918 0.49 8.85 3.19 9.25
9/15/2021 3:45:00 PM 20.57 69.026 0.49 8.87 3.15 9.26
9/15/2021 4:00:00 PM 20.59 69.062 0.489 8.85 3.1 9.25
9/15/2021 4:15:00 PM 20.63 69.134 0.49 8.74 2.89 9.24
9/15/2021 4:30:00 PM 20.64 69.152 0.489 8.72 2.94 9.23
9/15/2021 4:45:00 PM 20.66 69.188 0.489 8.88 3.05 9.22
9/15/2021 5:00:00 PM 20.67 69.206 0.489 8.88 2.7 9.2
9/15/2021 5:15:00 PM 20.68 69.224 0.451 8.87 2.78 9.17
9/15/2021 5:30:00 PM 20.67 69.206 0.488 8.85 2.71 9.15
9/15/2021 5:45:00 PM 20.66 69.188 0.487 8.86 3.8 9.14
9/15/2021 6:00:00 PM 20.64 69.152 0.49 8.86 2.82 9.08
9/15/2021 6:15:00 PM 20.63 69.134 0.488 8.87 3.13 9.05
9/15/2021 6:30:00 PM 20.6 69.08 0.49 8.85 2.67 9.05
9/15/2021 6:45:00 PM 20.59 69.062 0.487 8.84 3.12 9.02
9/15/2021 7:00:00 PM 20.57 69.026 0.488 8.85 3.26 9.01
9/15/2021 7:15:00 PM 20.56 69.008 0.487 8.85 3.98 9
9/15/2021 7:30:00 PM 20.55 68.99 0.488 8.84 2.85 8.98
9/15/2021 7:45:00 PM 20.55 68.99 0.488 8.85 2.82 8.98
9/15/2021 8:00:00 PM 20.55 68.99 0.488 8.84 3.06 8.98
9/15/2021 8:15:00 PM 20.54 68.972 0.489 8.83 3.26 8.97
9/15/2021 8:30:00 PM 20.54 68.972 0.489 8.82 3.41 8.96
9/15/2021 8:45:00 PM 20.54 68.972 0.488 8.81 3.51 8.95
9/15/2021 9:00:00 PM 20.53 68.954 0.483 8.83 4.03 8.94
9/15/2021 9:15:00 PM 20.53 68.954 0.485 8.82 4.05 8.94
9/15/2021 9:30:00 PM 20.52 68.936 0.481 8.81 5.39 8.93
9/15/2021 9:45:00 PM 20.5 68.9 0.483 8.82 5.98 8.93
9/15/2021 10:00:00 PM 20.49 68.882 0.481 8.81 6.44 8.92
9/15/2021 10:15:00 PM 20.48 68.864 0.48 8.81 6.52 8.92
9/15/2021 10:30:00 PM 20.46 68.828 0.48 8.81 6.94 8.91
9/15/2021 10:45:00 PM 20.45 68.81 0.479 8.8 6.37 8.91
9/15/2021 11:00:00 PM 20.42 68.756 0.48 8.78 6.48 8.91
9/15/2021 11:15:00 PM 20.4 68.72 0.478 8.79 5.56 8.9
9/15/2021 11:30:00 PM 20.37 68.666 0.478 8.79 5.53 8.9
9/15/2021 11:45:00 PM 20.34 68.612 0.478 8.78 5.75 8.89
9/16/2021 12:00:00 AM 20.31 68.558 0.476 8.78 6.14 8.89
9/16/2021 12:15:00 AM 20.28 68.504 0.476 8.77 6.78 8.89
9/16/2021 12:30:00 AM 20.24 68.432 0.475 8.78 7.78 8.9
9/16/2021 12:45:00 AM 20.21 68.378 0.474 8.75 8.12 8.9
9/16/2021 1:00:00 AM 20.17 68.306 0.476 8.73 8.37 8.9
9/16/2021 1:15:00 AM 20.14 68.252 0.475 8.72 7.79 8.91
9/16/2021 1:30:00 AM 20.1 68.18 0.474 8.7 8.07 8.9
9/16/2021 1:45:00 AM 20.05 68.09 0.477 8.7 8.63 8.91
9/16/2021 2:00:00 AM 20.02 68.036 0.476 8.69 11.61 8.91
9/16/2021 2:15:00 AM 20.03 68.054 0.471 8.68 9.29 8.91
9/16/2021 2:30:00 AM 20.05 68.09 0.468 8.66 9.26 8.91
9/16/2021 2:45:00 AM 20.07 68.126 0.466 8.67 9.15 8.91
9/16/2021 3:00:00 AM 20.1 68.18 0.465 8.69 8.91 8.9
9/16/2021 3:15:00 AM 20.13 68.234 0.463 8.68 9.68 8.9
9/16/2021 3:30:00 AM 20.17 68.306 0.467 8.68 8.95 8.89
9/16/2021 3:45:00 AM 20.2 68.36 0.462 8.67 9.53 8.89
9/16/2021 4:00:00 AM 20.25 68.45 0.462 8.68 9.61 8.89
9/16/2021 4:15:00 AM 20.29 68.522 0.461 8.7 10.17 8.88
9/16/2021 4:30:00 AM 20.33 68.594 0.46 8.68 10.87 8.88
9/16/2021 4:45:00 AM 20.38 68.684 0.458 8.7 11.54 8.88
9/16/2021 5:00:00 AM 20.42 68.756 0.458 8.67 12.02 8.88
9/16/2021 5:15:00 AM 20.44 68.792 0.456 8.67 12.38 8.88
9/16/2021 5:30:00 AM 20.46 68.828 0.453 8.65 12.79 8.86
9/16/2021 5:45:00 AM 20.47 68.846 0.452 8.65 12.85 8.85
9/16/2021 6:00:00 AM 20.47 68.846 0.452 8.65 13.27 8.84
9/16/2021 6:15:00 AM 20.46 68.828 0.449 8.62 13.7 8.83
9/16/2021 6:30:00 AM 20.46 68.828 0.445 8.63 13.8 8.81
9/16/2021 6:45:00 AM 20.46 68.828 0.437 8.6 14.16 8.79
9/16/2021 7:00:00 AM 20.47 68.846 0.413 8.6 14.74 8.76
9/16/2021 7:15:00 AM 20.48 68.864 0.401 8.58 14.83 8.74
9/16/2021 7:30:00 AM 20.5 68.9 0.405 8.53 14.39 8.73
9/16/2021 7:45:00 AM 20.51 68.918 0.393 8.53 14.17 8.72
9/16/2021 8:00:00 AM 20.53 68.954 0.35 8.53 14 8.71
9/16/2021 8:15:00 AM 20.54 68.972 0.39 8.52 13.94 8.72
9/16/2021 8:30:00 AM 20.53 68.954 0.331 8.53 14.02 8.73
9/16/2021 8:45:00 AM 20.51 68.918 0.432 8.53 14.37 8.75
9/16/2021 9:00:00 AM 20.48 68.864 0.435 8.53 14.65 8.77
9/16/2021 9:15:00 AM 20.44 68.792 0.439 8.55 14.43 8.79
9/16/2021 9:30:00 AM 20.4 68.72 0.444 8.56 14.52 8.82
9/16/2021 9:45:00 AM 20.36 68.648 0.404 8.56 14.1 8.84
9/16/2021 10:00:00 AM 20.33 68.594 0.393 8.58 14.72 8.86
9/16/2021 10:15:00 AM 20.3 68.54 0.396 8.59 14.43 8.89
9/16/2021 10:30:00 AM 20.29 68.522 0.398 8.59 14.84 8.9
9/16/2021 10:45:00 AM 20.29 68.522 0.413 8.59 14.03 8.91
9/16/2021 11:00:00 AM 20.29 68.522 0.401 8.58 13.96 8.92
9/16/2021 11:15:00 AM 20.3 68.54 0.376 8.6 14.03 8.92
9/16/2021 11:30:00 AM 20.31 68.558 0.381 8.6 14.3 8.93
9/16/2021 11:45:00 AM 20.32 68.576 0.415 8.61 13.61 8.93
9/16/2021 12:00:00 PM 20.35 68.63 0.402 8.61 14.02 8.94
9/16/2021 12:15:00 PM 20.35 68.63 0.402 8.6 13.64 8.91
9/16/2021 12:30:00 PM 20.39 68.702 0.402 8.58 13.67 8.94
9/16/2021 12:45:00 PM 20.45 68.81 0.402 8.62 13.58 8.94
9/16/2021 1:00:00 PM 20.46 68.828 0.416 8.62 13.54 8.93
9/16/2021 1:15:00 PM 20.51 68.918 0.402 8.61 13.58 8.94
9/16/2021 1:30:00 PM 20.53 68.954 0.402 8.62 12.99 8.93
9/16/2021 1:45:00 PM 20.57 69.026 0.401 8.62 13.12 8.92
9/16/2021 2:00:00 PM 20.58 69.044 0.401 8.63 12.77 8.92
9/16/2021 2:15:00 PM 20.58 69.044 0.398 8.64 12.62 8.93
9/16/2021 2:30:00 PM 20.58 69.044 0.307 8.64 12.05 8.96
9/16/2021 2:45:00 PM 20.58 69.044 0.4 8.63 11.54 8.93
9/16/2021 3:00:00 PM 20.58 69.044 0.405 8.64 11.52 8.95
9/16/2021 3:15:00 PM 20.63 69.134 0.403 8.66 11.24 8.98
9/16/2021 3:30:00 PM 20.64 69.152 0.408 8.65 10.72 8.93
9/16/2021 3:45:00 PM 20.64 69.152 0.409 8.65 10.11 8.89
9/16/2021 4:00:00 PM 20.66 69.188 0.41 8.65 9.58 8.91
9/16/2021 4:15:00 PM 20.7 69.26 0.407 8.66 9.86 8.95
9/16/2021 4:30:00 PM 20.69 69.242 0.411 8.65 9.53 8.93
9/16/2021 4:45:00 PM 20.67 69.206 0.408 8.66 9.99 8.9
9/16/2021 5:00:00 PM 20.66 69.188 0.414 8.66 9.35 8.91
9/16/2021 5:15:00 PM 20.65 69.17 0.415 8.67 8.87 8.91
9/16/2021 5:30:00 PM 20.65 69.17 0.416 8.66 9.68 8.92
9/16/2021 5:45:00 PM 20.64 69.152 0.414 8.66 8.5 8.91
9/16/2021 6:00:00 PM 20.62 69.116 0.379 8.68 8.84 8.9
9/16/2021 6:15:00 PM 20.6 69.08 0.421 8.66 8.36 8.9
9/16/2021 6:30:00 PM 20.59 69.062 0.422 8.67 8.98 8.89
9/16/2021 6:45:00 PM 20.57 69.026 0.42 8.66 9.35 8.89
9/16/2021 7:00:00 PM 20.55 68.99 0.427 8.68 9.07 8.87
9/16/2021 7:15:00 PM 20.54 68.972 0.429 8.68 8.77 8.87
9/16/2021 7:30:00 PM 20.53 68.954 0.426 8.67 8.25 8.87
9/16/2021 7:45:00 PM 20.51 68.918 0.429 8.67 9.17 8.86
9/16/2021 8:00:00 PM 20.51 68.918 0.43 8.67 8.97 8.86
9/16/2021 8:15:00 PM 20.5 68.9 0.43 8.69 9.26 8.85
9/16/2021 8:30:00 PM 20.49 68.882 0.434 8.68 8.33 8.85
9/16/2021 8:45:00 PM 20.47 68.846 0.417 8.69 8.21 8.86
9/16/2021 9:00:00 PM 20.46 68.828 0.441 8.68 7.99 8.86
9/16/2021 9:15:00 PM 20.45 68.81 0.437 8.71 7.73 8.86
9/16/2021 9:30:00 PM 20.43 68.774 0.38 8.68 8.26 8.85
9/16/2021 9:45:00 PM 20.41 68.738 0.378 8.71 7.37 8.86
9/16/2021 10:00:00 PM 20.4 68.72 0.398 8.71 7.47 8.85
9/16/2021 10:15:00 PM 20.38 68.684 0.362 8.59 8.82 8.85
9/16/2021 10:30:00 PM 20.37 68.666 0.44 8.68 9.04 8.85
9/16/2021 10:45:00 PM 20.35 68.63 0.444 8.69 8.59 8.85
9/16/2021 11:00:00 PM 20.33 68.594 0.445 8.7 7.83 8.84
9/16/2021 11:15:00 PM 20.32 68.576 0.447 8.67 8.19 8.85
9/16/2021 11:30:00 PM 20.3 68.54 0.447 8.67 8.25 8.84
9/16/2021 11:45:00 PM 20.29 68.522 0.45 8.69 8.25 8.85
9/17/2021 12:00:00 AM 20.27 68.486 0.452 8.69 7.9 8.85
9/17/2021 12:15:00 AM 20.25 68.45 0.452 8.69 7.6 8.84
9/17/2021 12:30:00 AM 20.24 68.432 0.454 8.71 7.72 8.85
9/17/2021 12:45:00 AM 20.23 68.414 0.455 8.68 7.33 8.84
9/17/2021 1:00:00 AM 20.21 68.378 0.455 8.57 7.31 8.84
9/17/2021 1:15:00 AM 20.2 68.36 0.456 8.71 7.51 8.84
9/17/2021 1:30:00 AM 20.18 68.324 0.457 8.7 7.26 8.84
9/17/2021 1:45:00 AM 20.17 68.306 0.457 8.68 7.28 8.83
9/17/2021 2:00:00 AM 20.16 68.288 0.463 8.7 7.16 8.83
9/17/2021 2:15:00 AM 20.15 68.27 0.457 8.7 7.07 8.83
9/17/2021 2:30:00 AM 20.14 68.252 0.46 8.69 7.16 8.82
9/17/2021 2:45:00 AM 20.14 68.252 0.462 8.68 6.94 8.83
9/17/2021 3:00:00 AM 20.13 68.234 0.463 8.69 7.02 8.82
9/17/2021 3:15:00 AM 20.13 68.234 0.469 8.71 7.23 8.82
9/17/2021 3:30:00 AM 20.12 68.216 0.466 8.69 6.98 8.82
9/17/2021 3:45:00 AM 20.12 68.216 0.466 8.69 6.98 8.82
9/17/2021 4:00:00 AM 20.11 68.198 0.466 8.55 7.27 8.81
9/17/2021 4:15:00 AM 20.11 68.198 0.469 8.68 6.92 8.81
9/17/2021 4:30:00 AM 20.1 68.18 0.468 8.68 7.01 8.8
9/17/2021 4:45:00 AM 20.09 68.162 0.468 8.69 7.1 8.8
9/17/2021 5:00:00 AM 20.09 68.162 0.468 8.68 7.17 8.8
9/17/2021 5:15:00 AM 20.08 68.144 0.469 8.69 6.98 8.8
9/17/2021 5:30:00 AM 20.07 68.126 0.471 8.69 6.85 8.81
9/17/2021 5:45:00 AM 20.06 68.108 0.47 8.69 6.97 8.8
9/17/2021 6:00:00 AM 20.05 68.09 0.471 8.7 6.86 8.81
9/17/2021 6:15:00 AM 20.03 68.054 0.478 8.69 6.64 8.81
9/17/2021 6:30:00 AM 20.02 68.036 0.474 8.68 6.68 8.81
9/17/2021 6:45:00 AM 20.01 68.018 0.474 8.69 6.59 8.82
9/17/2021 7:00:00 AM 19.99 67.982 0.474 8.68 6.63 8.82
9/17/2021 7:15:00 AM 19.98 67.964 0.476 8.69 6.17 8.83
9/17/2021 7:30:00 AM 19.97 67.946 0.476 8.7 5.99 8.84
9/17/2021 7:45:00 AM 19.95 67.91 0.477 8.7 6.08 8.85
9/17/2021 8:00:00 AM 19.94 67.892 0.478 8.7 5.84 8.86
9/17/2021 8:15:00 AM 19.92 67.856 0.476 8.69 5.98 8.86
9/17/2021 8:30:00 AM 19.91 67.838 0.477 8.71 5.97 8.88
9/17/2021 8:45:00 AM 19.91 67.838 0.48 8.7 5.78 8.91
9/17/2021 9:00:00 AM 19.89 67.802 0.481 8.7 5.35 8.91
9/17/2021 9:15:00 AM 19.89 67.802 0.482 8.69 5.24 8.95
9/17/2021 9:30:00 AM 19.88 67.784 0.483 8.71 5.01 8.94
9/17/2021 9:45:00 AM 19.88 67.784 0.485 8.71 4.77 8.96
9/17/2021 10:00:00 AM 19.86 67.748 0.486 8.71 4.49 8.95
9/17/2021 10:15:00 AM 19.86 67.748 0.487 8.71 4.31 8.93
9/17/2021 10:30:00 AM 19.87 67.766 0.488 8.71 4.49 9.01
9/17/2021 10:45:00 AM 19.86 67.748 0.488 8.72 4.29 8.98
9/17/2021 11:00:00 AM 19.87 67.766 0.481 8.73 4.22 9.04
9/17/2021 11:15:00 AM 19.87 67.766 0.487 8.73 3.91 9.05
9/17/2021 11:30:00 AM 19.85 67.73 0.489 8.72 4.01 8.99
9/17/2021 11:45:00 AM 19.87 67.766 0.489 8.74 4.06 9.08
9/17/2021 12:00:00 PM 19.93 67.874 0.489 8.72 6.47 9.16
9/17/2021 12:15:00 PM 19.94 67.892 0.487 8.75 3.83 9.13
9/17/2021 12:30:00 PM 19.93 67.874 0.458 8.76 3.54 9.06
9/17/2021 12:45:00 PM 19.93 67.874 0.487 8.76 3.59 9.1
9/17/2021 1:00:00 PM 19.97 67.946 0.489 8.76 3.48 9.17
9/17/2021 1:15:00 PM 20.03 68.054 0.487 8.75 3.38 9.22
9/17/2021 1:30:00 PM 20.04 68.07201 0.487 8.78 3.15 9.17
9/17/2021 1:45:00 PM 20.04 68.07201 0.487 8.78 3.3 9.18
9/17/2021 2:00:00 PM 20.05 68.09 0.486 8.79 3.27 9.17
9/17/2021 2:15:00 PM 20.08 68.144 0.488 8.79 3.01 9.22
9/17/2021 2:30:00 PM 20.09 68.162 0.486 8.8 3.06 9.2
9/17/2021 2:45:00 PM 20.09 68.162 0.486 8.8 2.79 9.17
9/17/2021 3:00:00 PM 20.1 68.18 0.471 8.81 2.87 9.18
9/17/2021 3:15:00 PM 20.11 68.198 0.486 8.81 2.91 9.2
9/17/2021 3:30:00 PM 20.12 68.216 0.487 8.82 2.7 9.22
9/17/2021 3:45:00 PM 20.12 68.216 0.49 8.82 2.83 9.19
9/17/2021 4:00:00 PM 20.14 68.252 0.488 8.83 2.85 9.24
9/17/2021 4:15:00 PM 20.17 68.306 0.489 8.84 2.91 9.27
9/17/2021 4:30:00 PM 20.16 68.288 0.481 8.84 2.71 9.2
9/17/2021 4:45:00 PM 20.19 68.342 0.489 8.83 2.9 9.25
9/17/2021 5:00:00 PM 20.18 68.324 0.491 8.83 3.07 9.2
9/17/2021 5:15:00 PM 20.2 68.36 0.472 8.83 2.73 9.19
9/17/2021 5:30:00 PM 20.21 68.378 0.463 8.83 2.63 9.17
9/17/2021 5:45:00 PM 20.21 68.378 0.49 8.83 2.69 9.16
9/17/2021 6:00:00 PM 20.21 68.378 0.489 8.85 3.14 9.14
9/17/2021 6:15:00 PM 20.19 68.342 0.487 8.84 2.65 9.13
9/17/2021 6:30:00 PM 20.18 68.324 0.494 8.83 2.72 9.13
9/17/2021 6:45:00 PM 20.15 68.27 0.489 8.82 2.79 9.12
9/17/2021 7:00:00 PM 20.13 68.234 0.487 8.82 2.59 9.1
9/17/2021 7:15:00 PM 20.11 68.198 0.487 8.84 2.77 9.08
9/17/2021 7:30:00 PM 20.1 68.18 0.487 8.84 2.57 9.07
9/17/2021 7:45:00 PM 20.08 68.144 0.488 8.83 2.65 9.07
9/17/2021 8:00:00 PM 20.07 68.126 0.486 8.83 3.04 9.06
9/17/2021 8:15:00 PM 20.06 68.108 0.485 8.82 3.17 9.05
9/17/2021 8:30:00 PM 20.05 68.09 0.485 8.84 3.26 9.05
9/17/2021 8:45:00 PM 20.04 68.07201 0.485 8.81 3.92 9.04
9/17/2021 9:00:00 PM 20.04 68.07201 0.491 8.8 3.95 9.05
9/17/2021 9:15:00 PM 20.03 68.054 0.486 8.81 4.07 9.03
9/17/2021 9:30:00 PM 20.02 68.036 0.484 8.8 4.34 9.02
9/17/2021 9:45:00 PM 20.01 68.018 0.491 8.8 3.89 9.03
9/17/2021 10:00:00 PM 19.99 67.982 0.484 8.81 4.07 9.01
9/17/2021 10:15:00 PM 19.98 67.964 0.452 8.8 4.28 9.01
9/17/2021 10:30:00 PM 19.97 67.946 0.483 8.79 4.49 9
9/17/2021 10:45:00 PM 19.95 67.91 0.489 8.79 4.41 9
9/17/2021 11:00:00 PM 19.93 67.874 0.482 8.79 4.53 8.99
9/17/2021 11:15:00 PM 19.91 67.838 0.481 8.79 4.38 8.98
9/17/2021 11:30:00 PM 19.88 67.784 0.481 8.78 4.59 8.98
9/17/2021 11:45:00 PM 19.86 67.748 0.483 8.75 4.44 8.98
9/18/2021 12:00:00 AM 19.83 67.694 0.483 8.77 4.51 8.97
9/18/2021 12:15:00 AM 19.8 67.64 0.481 8.75 4.56 8.96
9/18/2021 12:30:00 AM 19.78 67.604 0.483 8.76 4.7 8.97
9/18/2021 12:45:00 AM 19.75 67.55 0.482 8.76 4.88 8.95
9/18/2021 1:00:00 AM 19.72 67.496 0.443 8.76 4.61 8.95
9/18/2021 1:15:00 AM 19.69 67.442 0.484 8.74 4.7 8.96
9/18/2021 1:30:00 AM 19.66 67.388 0.484 8.74 4.54 8.95
9/18/2021 1:45:00 AM 19.64 67.352 0.482 8.74 4.68 8.96
9/18/2021 2:00:00 AM 19.62 67.316 0.483 8.74 4.7 8.94
9/18/2021 2:15:00 AM 19.6 67.28 0.483 8.73 4.98 8.95
9/18/2021 2:30:00 AM 19.58 67.244 0.483 8.75 5.16 8.94
9/18/2021 2:45:00 AM 19.56 67.208 0.484 8.72 4.76 8.94
9/18/2021 3:00:00 AM 19.53 67.154 0.486 8.74 4.74 8.95
9/18/2021 3:15:00 AM 19.51 67.118 0.485 8.77 4.84 8.94
9/18/2021 3:30:00 AM 19.49 67.082 0.486 8.74 4.93 8.95
9/18/2021 3:45:00 AM 19.47 67.046 0.486 8.74 4.72 8.94
9/18/2021 4:00:00 AM 19.45 67.01 0.488 8.74 4.93 8.95
9/18/2021 4:15:00 AM 19.42 66.956 0.487 8.73 4.96 8.95
9/18/2021 4:30:00 AM 19.4 66.92 0.487 8.74 5.34 8.95
9/18/2021 4:45:00 AM 19.37 66.866 0.489 8.72 4.95 8.96
9/18/2021 5:00:00 AM 19.34 66.812 0.487 8.73 5.03 8.95
9/18/2021 5:15:00 AM 19.32 66.776 0.488 8.72 5.14 8.96
9/18/2021 5:30:00 AM 19.3 66.74 0.49 8.72 5.29 8.96
9/18/2021 5:45:00 AM 19.27 66.686 0.489 8.72 5.28 8.96
9/18/2021 6:00:00 AM 19.25 66.65 0.493 8.7 5.11 8.98
9/18/2021 6:15:00 AM 19.23 66.614 0.491 8.72 5.12 8.97
9/18/2021 6:30:00 AM 19.22 66.596 0.492 8.69 4.8 8.97
9/18/2021 6:45:00 AM 19.2 66.56 0.494 8.72 4.78 8.98
9/18/2021 7:00:00 AM 19.19 66.542 0.491 8.71 4.41 8.98
9/18/2021 7:15:00 AM 19.18 66.524 0.496 8.71 4.64 8.99
9/18/2021 7:30:00 AM 19.17 66.506 0.496 8.73 4.55 9
9/18/2021 7:45:00 AM 19.17 66.506 0.497 8.7 4.47 9.02
9/18/2021 8:00:00 AM 19.17 66.506 0.495 8.72 4.77 9.04
9/18/2021 8:15:00 AM 19.18 66.524 0.497 8.72 4.55 9.06
9/18/2021 8:30:00 AM 19.17 66.506 0.496 8.68 4.5 9.06
9/18/2021 8:45:00 AM 19.17 66.506 0.498 8.72 4.26 9.06
9/18/2021 9:00:00 AM 19.18 66.524 0.497 8.73 4.3 9.12
9/18/2021 9:15:00 AM 19.18 66.524 0.497 8.73 4.09 9.11
9/18/2021 9:30:00 AM 19.2 66.56 0.497 8.76 4.08 9.17
9/18/2021 9:45:00 AM 19.24 66.632 0.497 8.75 4.29 9.2
9/18/2021 10:00:00 AM 19.27 66.686 0.467 8.77 3.8 9.24
9/18/2021 10:15:00 AM 19.24 66.632 0.499 8.75 3.73 9.15
9/18/2021 10:30:00 AM 19.28 66.704 0.497 8.78 4.01 9.26
9/18/2021 10:45:00 AM 19.31 66.758 0.487 8.77 3.8 9.27
9/18/2021 11:00:00 AM 19.32 66.776 0.498 8.76 3.81 9.27
9/18/2021 11:15:00 AM 19.34 66.812 0.498 8.79 3.96 9.27
9/18/2021 11:30:00 AM 19.36 66.848 0.496 8.78 3.6 9.31
9/18/2021 11:45:00 AM 19.38 66.884 0.497 8.78 3.54 9.27
9/18/2021 12:00:00 PM 19.45 67.01 0.503 8.78 3.57 9.34
9/18/2021 12:15:00 PM 19.51 67.118 0.497 8.82 3.22 9.36
9/18/2021 12:30:00 PM 19.55 67.19 0.496 8.81 3.37 9.36
9/18/2021 12:45:00 PM 19.54 67.172 0.496 8.8 3 9.32
9/18/2021 1:00:00 PM 19.6 67.28 0.496 8.81 2.88 9.36
9/18/2021 1:15:00 PM 19.66 67.388 0.498 8.82 2.99 9.38
9/18/2021 1:30:00 PM 19.66 67.388 0.451 8.83 2.93 9.34
9/18/2021 1:45:00 PM 19.7 67.46 0.496 8.82 2.87 9.3
9/18/2021 2:00:00 PM 19.82 67.676 0.497 8.8 2.76 9.41
9/18/2021 2:15:00 PM 19.87 67.766 0.496 8.81 3 9.37
9/18/2021 2:30:00 PM 19.95 67.91 0.496 8.85 2.68 9.39
9/18/2021 2:45:00 PM 20.01 68.018 0.493 8.83 2.7 9.38
9/18/2021 3:00:00 PM 20.01 68.018 0.495 8.85 2.85 9.33
9/18/2021 3:15:00 PM 20.05 68.09 0.498 8.88 2.84 9.36
9/18/2021 3:30:00 PM 20.08 68.144 0.495 8.86 2.51 9.33
9/18/2021 3:45:00 PM 20.09 68.162 0.496 8.87 2.77 9.3
9/18/2021 4:00:00 PM 20.15 68.27 0.495 8.88 3.42 9.36
9/18/2021 4:15:00 PM 20.19 68.342 0.495 8.89 2.69 9.36
9/18/2021 4:30:00 PM 20.17 68.306 0.495 8.88 2.95 9.3
9/18/2021 4:45:00 PM 20.18 68.324 0.497 8.91 2.83 9.3
9/18/2021 5:00:00 PM 20.19 68.342 0.495 8.9 3.1 9.28
9/18/2021 5:15:00 PM 20.2 68.36 0.497 8.88 3.39 9.27
9/18/2021 5:30:00 PM 20.19 68.342 0.489 8.88 3.4 9.24
9/18/2021 5:45:00 PM 20.19 68.342 0.495 8.88 3.5 9.21
9/18/2021 6:00:00 PM 20.18 68.324 0.495 8.88 3.77 9.19
9/18/2021 6:15:00 PM 20.16 68.288 0.495 8.86 3.73 9.17
9/18/2021 6:30:00 PM 20.15 68.27 0.494 8.88 4.06 9.15
9/18/2021 6:45:00 PM 20.12 68.216 0.494 8.88 4.01 9.13
9/18/2021 7:00:00 PM 20.1 68.18 0.496 8.89 4.19 9.12
9/18/2021 7:15:00 PM 20.09 68.162 0.494 8.87 4.25 9.1
9/18/2021 7:30:00 PM 20.07 68.126 0.496 8.88 4.23 9.09
9/18/2021 7:45:00 PM 20.06 68.108 0.496 8.85 4.76 9.07
9/18/2021 8:00:00 PM 20.06 68.108 0.494 8.85 4.68 9.07
9/18/2021 8:15:00 PM 20.05 68.09 0.494 8.86 4.8 9.05
9/18/2021 8:30:00 PM 20.05 68.09 0.494 8.83 4.64 9.05
9/18/2021 8:45:00 PM 20.04 68.07201 0.494 8.84 4.6 9.03
9/18/2021 9:00:00 PM 20.04 68.07201 0.496 8.83 4.42 9.03
9/18/2021 9:15:00 PM 20.03 68.054 0.496 8.82 4.64 9.03
9/18/2021 9:30:00 PM 20.03 68.054 0.494 8.82 4.71 9.01
9/18/2021 9:45:00 PM 20.02 68.036 0.496 8.81 4.74 9
9/18/2021 10:00:00 PM 20.02 68.036 0.496 8.81 4.97 8.99
9/18/2021 10:15:00 PM 20.02 68.036 0.496 8.81 5.12 8.98
9/18/2021 10:30:00 PM 20.01 68.018 0.494 8.81 4.98 8.98
9/18/2021 10:45:00 PM 20 68 0.495 8.81 4.91 8.97
9/18/2021 11:00:00 PM 19.99 67.982 0.494 8.81 5.04 8.96
9/18/2021 11:15:00 PM 19.97 67.946 0.494 8.8 4.9 8.95
9/18/2021 11:30:00 PM 19.96 67.92799 0.494 8.81 5.32 8.94
9/18/2021 11:45:00 PM 19.94 67.892 0.494 8.79 5.19 8.93
9/19/2021 12:00:00 AM 19.92 67.856 0.494 8.8 4.94 8.93
9/19/2021 12:15:00 AM 19.9 67.82 0.495 8.76 5.52 8.93
9/19/2021 12:30:00 AM 19.88 67.784 0.493 8.79 5.89 8.93
9/19/2021 12:45:00 AM 19.86 67.748 0.495 8.76 4.93 8.93
9/19/2021 1:00:00 AM 19.83 67.694 0.495 8.79 5.13 8.93
9/19/2021 1:15:00 AM 19.81 67.658 0.485 8.77 4.69 8.92
9/19/2021 1:30:00 AM 19.78 67.604 0.495 8.79 5.26 8.92
9/19/2021 1:45:00 AM 19.75 67.55 0.495 8.75 5.36 8.92
9/19/2021 2:00:00 AM 19.72 67.496 0.495 8.77 5.09 8.92
9/19/2021 2:15:00 AM 19.69 67.442 0.495 8.74 4.96 8.92
9/19/2021 2:30:00 AM 19.66 67.388 0.495 8.73 5.02 8.92
9/19/2021 2:45:00 AM 19.63 67.334 0.495 8.74 5.2 8.92
9/19/2021 3:00:00 AM 19.61 67.298 0.501 8.74 5.26 8.91
9/19/2021 3:15:00 AM 19.58 67.244 0.494 8.75 5.39 8.92
9/19/2021 3:30:00 AM 19.55 67.19 0.496 8.75 5.61 8.92
9/19/2021 3:45:00 AM 19.52 67.136 0.492 8.75 5.75 8.92
9/19/2021 4:00:00 AM 19.5 67.1 0.429 8.75 4.97 8.92
9/19/2021 4:15:00 AM 19.47 67.046 0.493 8.62 5.21 8.92
9/19/2021 4:30:00 AM 19.44 66.992 0.496 8.73 5.05 8.93
9/19/2021 4:45:00 AM 19.41 66.938 0.495 8.61 5.51 8.93
9/19/2021 5:00:00 AM 19.39 66.902 0.496 8.74 5.46 8.94
9/19/2021 5:15:00 AM 19.36 66.848 0.494 8.76 5.23 8.93
9/19/2021 5:30:00 AM 19.34 66.812 0.496 8.75 5.21 8.94
9/19/2021 5:45:00 AM 19.32 66.776 0.496 8.75 5.54 8.95
9/19/2021 6:00:00 AM 19.29 66.722 0.495 8.77 5.44 8.95
9/19/2021 6:15:00 AM 19.27 66.686 0.493 8.74 5.45 8.95
9/19/2021 6:30:00 AM 19.25 66.65 0.495 8.75 5.74 8.95
9/19/2021 6:45:00 AM 19.23 66.614 0.495 8.74 4.92 8.96
9/19/2021 7:00:00 AM 19.21 66.578 0.495 8.75 5.02 8.96
9/19/2021 7:15:00 AM 19.19 66.542 0.494 8.74 4.99 8.97
9/19/2021 7:30:00 AM 19.18 66.524 0.496 8.74 4.71 8.98
9/19/2021 7:45:00 AM 19.16 66.488 0.489 8.75 4.98 9
9/19/2021 8:00:00 AM 19.15 66.47 0.496 8.75 4.54 9
9/19/2021 8:15:00 AM 19.14 66.452 0.496 8.75 4.77 9.02
9/19/2021 8:30:00 AM 19.13 66.434 0.497 8.76 4.62 9.04
9/19/2021 8:45:00 AM 19.13 66.434 0.498 8.77 3.99 9.06
9/19/2021 9:00:00 AM 19.12 66.416 0.5 8.77 4.2 9.09
9/19/2021 9:15:00 AM 19.12 66.416 0.501 8.79 3.79 9.12
9/19/2021 9:30:00 AM 19.14 66.452 0.499 8.78 3.56 9.15
9/19/2021 9:45:00 AM 19.15 66.47 0.5 8.8 3.49 9.2
9/19/2021 10:00:00 AM 19.16 66.488 0.501 8.8 3.53 9.24
9/19/2021 10:15:00 AM 19.18 66.524 0.502 8.83 3.52 9.27
9/19/2021 10:30:00 AM 19.19 66.542 0.458 8.81 4.12 9.3
9/19/2021 10:45:00 AM 19.21 66.578 0.503 8.81 3.28 9.32
9/19/2021 11:00:00 AM 19.22 66.596 0.505 8.81 3.18 9.34
9/19/2021 11:15:00 AM 19.23 66.614 0.504 8.83 3.35 9.34
9/19/2021 11:30:00 AM 19.24 66.632 0.504 8.83 3.42 9.35
9/19/2021 11:45:00 AM 19.27 66.686 0.506 8.84 2.95 9.36
9/19/2021 12:00:00 PM 19.28 66.704 0.447 8.83 2.91 9.37
9/19/2021 12:15:00 PM 19.3 66.74 0.505 8.85 3.12 9.37
9/19/2021 12:30:00 PM 19.31 66.758 0.505 8.83 2.78 9.38
9/19/2021 12:45:00 PM 19.34 66.812 0.499 8.84 2.88 9.39
9/19/2021 1:00:00 PM 19.36 66.848 0.509 8.85 2.91 9.39
9/19/2021 1:15:00 PM 19.4 66.92 0.51 8.84 2.87 9.39
9/19/2021 1:30:00 PM 19.43 66.974 0.511 8.85 2.74 9.39
9/19/2021 1:45:00 PM 19.48 67.064 0.509 8.85 3.09 9.39
9/19/2021 2:00:00 PM 19.54 67.172 0.51 8.87 2.73 9.39
9/19/2021 2:15:00 PM 19.61 67.298 0.51 8.87 3 9.39
9/19/2021 2:30:00 PM 19.67 67.406 0.511 8.89 3.25 9.4
9/19/2021 2:45:00 PM 19.74 67.532 0.511 8.89 3.86 9.4
9/19/2021 3:00:00 PM 19.79 67.622 0.511 8.88 2.65 9.41
9/19/2021 3:15:00 PM 19.84 67.712 0.475 8.91 2.33 9.39
9/19/2021 3:30:00 PM 19.88 67.784 0.442 8.92 2.94 9.4
9/19/2021 3:45:00 PM 19.91 67.838 0.511 8.91 3.75 9.4
9/19/2021 4:00:00 PM 19.94 67.892 0.512 8.91 2.82 9.4
9/19/2021 4:15:00 PM 19.94 67.892 0.503 8.92 2.81 9.39
9/19/2021 4:30:00 PM 19.94 67.892 0.509 8.94 3.65 9.38
9/19/2021 4:45:00 PM 19.93 67.874 0.508 8.92 2.87 9.36
9/19/2021 5:00:00 PM 19.91 67.838 0.508 8.93 3.03 9.35
9/19/2021 5:15:00 PM 19.89 67.802 0.507 8.93 2.89 9.33
9/19/2021 5:30:00 PM 19.86 67.748 0.507 8.93 3.41 9.32
9/19/2021 5:45:00 PM 19.82 67.676 0.509 8.91 3.17 9.31
9/19/2021 6:00:00 PM 19.77 67.586 0.506 8.88 2.83 9.29
9/19/2021 6:15:00 PM 19.73 67.514 0.506 8.91 2.71 9.27
9/19/2021 6:30:00 PM 19.68 67.424 0.507 8.75 3 9.26
9/19/2021 6:45:00 PM 19.63 67.334 0.507 8.9 2.75 9.25
9/19/2021 7:00:00 PM 19.58 67.244 0.507 8.9 2.96 9.23
9/19/2021 7:15:00 PM 19.53 67.154 0.508 8.91 2.94 9.21
9/19/2021 7:30:00 PM 19.5 67.1 0.509 8.89 3.09 9.2
9/19/2021 7:45:00 PM 19.47 67.046 0.509 8.9 3.43 9.2
9/19/2021 8:00:00 PM 19.44 66.992 0.511 8.87 3.55 9.19
9/19/2021 8:15:00 PM 19.41 66.938 0.509 8.9 4.1 9.19
9/19/2021 8:30:00 PM 19.39 66.902 0.509 8.89 3.8 9.19
9/19/2021 8:45:00 PM 19.36 66.848 0.511 8.87 4.02 9.18
9/19/2021 9:00:00 PM 19.33 66.794 0.509 8.89 3.68 9.17
9/19/2021 9:15:00 PM 19.31 66.758 0.509 8.84 4 9.16
9/19/2021 9:30:00 PM 19.28 66.704 0.511 8.86 4.21 9.17
9/19/2021 9:45:00 PM 19.26 66.668 0.509 8.87 4.33 9.16
9/19/2021 10:00:00 PM 19.23 66.614 0.508 8.86 4.64 9.16
9/19/2021 10:15:00 PM 19.21 66.578 0.508 8.85 4.5 9.15
9/19/2021 10:30:00 PM 19.18 66.524 0.508 8.84 4.38 9.14
9/19/2021 10:45:00 PM 19.16 66.488 0.509 8.84 4.71 9.15
9/19/2021 11:00:00 PM 19.14 66.452 0.509 8.85 4.87 9.15
9/19/2021 11:15:00 PM 19.12 66.416 0.508 8.87 4.97 9.14
9/19/2021 11:30:00 PM 19.09 66.362 0.51 8.84 4.8 9.14
9/19/2021 11:45:00 PM 19.07 66.326 0.508 8.85 5.25 9.13
9/20/2021 12:00:00 AM 19.04 66.272 0.508 8.85 5.14 9.13
9/20/2021 12:15:00 AM 19.01 66.218 0.511 8.83 5.14 9.13
9/20/2021 12:30:00 AM 18.98 66.164 0.509 8.84 5.07 9.13
9/20/2021 12:45:00 AM 18.95 66.11 0.51 8.82 4.94 9.12
9/20/2021 1:00:00 AM 18.91 66.038 0.51 8.83 4.71 9.13
9/20/2021 1:15:00 AM 18.86 65.948 0.512 8.83 5.02 9.13
9/20/2021 1:30:00 AM 18.82 65.876 0.511 8.81 4.88 9.13
9/20/2021 1:45:00 AM 18.78 65.804 0.511 8.8 4.95 9.13
9/20/2021 2:00:00 AM 18.73 65.714 0.511 8.81 4.7 9.13
9/20/2021 2:15:00 AM 18.68 65.624 0.513 8.81 5.27 9.14
9/20/2021 2:30:00 AM 18.63 65.534 0.513 8.81 4.98 9.14
9/20/2021 2:45:00 AM 18.58 65.444 0.51 8.79 4.98 9.14
9/20/2021 3:00:00 AM 18.53 65.354 0.511 8.82 5.15 9.14
9/20/2021 3:15:00 AM 18.48 65.264 0.512 8.66 5.05 9.15
9/20/2021 3:30:00 AM 18.43 65.174 0.512 8.78 5.08 9.16
9/20/2021 3:45:00 AM 18.38 65.084 0.51 8.82 5.86 9.16
9/20/2021 4:00:00 AM 18.33 64.994 0.508 8.82 4.92 9.16
9/20/2021 4:15:00 AM 18.29 64.922 0.43 8.79 4.95 9.17
9/20/2021 4:30:00 AM 18.23 64.814 0.508 8.79 5.34 9.17
9/20/2021 4:45:00 AM 18.19 64.742 0.392 8.78 5.48 9.18
9/20/2021 5:00:00 AM 18.14 64.652 0.509 8.81 7.29 9.19
9/20/2021 5:15:00 AM 18.09 64.562 0.511 8.81 5.01 9.19
9/20/2021 5:30:00 AM 18.05 64.49 0.509 8.79 5.57 9.19
9/20/2021 5:45:00 AM 18 64.4 0.509 8.79 5.43 9.21
9/20/2021 6:00:00 AM 17.95 64.31 0.51 8.78 4.9 9.21
9/20/2021 6:15:00 AM 17.91 64.238 0.51 8.78 5.1 9.22
9/20/2021 6:30:00 AM 17.87 64.166 0.501 8.77 5.34 9.23
9/20/2021 6:45:00 AM 17.83 64.094 0.512 8.64 4.95 9.24
9/20/2021 7:00:00 AM 17.79 64.022 0.513 8.76 7.84 9.25
9/20/2021 7:15:00 AM 17.76 63.968 0.511 8.78 4.52 9.26
9/20/2021 7:30:00 AM 17.72 63.896 0.517 8.74 4.33 9.28
9/20/2021 7:45:00 AM 17.69 63.842 0.511 8.78 4.13 9.29
9/20/2021 8:00:00 AM 17.67 63.806 0.511 8.77 4.28 9.31
9/20/2021 8:15:00 AM 17.65 63.77 0.514 8.79 3.81 9.34
9/20/2021 8:30:00 AM 17.64 63.752 0.507 8.81 3.63 9.36
9/20/2021 8:45:00 AM 17.63 63.734 0.514 8.77 3.5 9.37
9/20/2021 9:00:00 AM 17.63 63.734 0.52 8.81 3.61 9.41
9/20/2021 9:15:00 AM 17.63 63.734 0.512 8.8 3.38 9.45
9/20/2021 9:30:00 AM 17.64 63.752 0.517 8.8 3.23 9.49
9/20/2021 9:45:00 AM 17.66 63.788 0.515 8.82 3.34 9.53
9/20/2021 10:00:00 AM 17.68 63.824 0.423 8.82 2.91 9.58
9/20/2021 10:15:00 AM 17.71 63.878 0.517 8.83 3.51 9.62
9/20/2021 10:30:00 AM 17.73 63.914 0.518 8.83 3.51 9.64
9/20/2021 10:45:00 AM 17.76 63.968 0.519 8.84 3.09 9.66
9/20/2021 11:00:00 AM 17.77 63.986 0.523 8.83 3.02 9.68
9/20/2021 11:15:00 AM 17.79 64.022 0.521 8.8 3.07 9.68
9/20/2021 11:30:00 AM 17.82 64.076 0.523 8.85 2.92 9.7
9/20/2021 11:45:00 AM 17.84 64.112 0.523 8.86 2.97 9.71
9/20/2021 12:00:00 PM 17.87 64.166 0.525 8.86 2.76 9.71
9/20/2021 12:15:00 PM 17.9 64.22 0.525 8.85 2.98 9.73
9/20/2021 12:30:00 PM 17.92 64.256 0.527 8.85 2.81 9.72
9/20/2021 12:45:00 PM 17.96 64.328 0.527 8.85 2.83 9.73
9/20/2021 1:00:00 PM 17.99 64.382 0.53 8.87 2.53 9.73
9/20/2021 1:15:00 PM 18.03 64.454 0.528 8.86 3.06 9.73
9/20/2021 1:30:00 PM 18.07 64.526 0.528 8.87 2.63 9.73
9/20/2021 1:45:00 PM 18.11 64.598 0.529 8.87 2.9 9.71
9/20/2021 2:00:00 PM 18.16 64.688 0.529 8.87 2.74 9.73
9/20/2021 2:15:00 PM 18.25 64.85 0.529 8.89 3.09 9.73
9/20/2021 2:30:00 PM 18.31 64.958 0.53 8.87 2.75 9.72
9/20/2021 2:45:00 PM 18.39 65.102 0.53 8.89 2.64 9.73
9/20/2021 3:00:00 PM 18.49 65.282 0.532 8.9 2.7 9.73
9/20/2021 3:15:00 PM 18.54 65.372 0.518 8.94 2.63 9.73
9/20/2021 3:30:00 PM 18.61 65.498 0.53 8.91 3 9.71
9/20/2021 3:45:00 PM 18.66 65.588 0.53 8.93 3.52 9.71
9/20/2021 4:00:00 PM 18.72 65.696 0.532 8.94 2.93 9.7
9/20/2021 4:15:00 PM 18.74 65.732 0.53 8.94 2.67 9.69
9/20/2021 4:30:00 PM 18.77 65.786 0.531 8.94 3.21 9.67
9/20/2021 4:45:00 PM 18.79 65.82201 0.531 8.95 2.66 9.7
9/20/2021 5:00:00 PM 18.81 65.858 0.53 8.92 2.69 9.68
9/20/2021 5:15:00 PM 18.82 65.876 0.531 8.93 3.15 9.66
9/20/2021 5:30:00 PM 18.8 65.84 0.53 8.94 2.81 9.59
9/20/2021 5:45:00 PM 18.79 65.82201 0.529 8.92 3.07 9.58
9/20/2021 6:00:00 PM 18.77 65.786 0.531 8.94 2.98 9.58
9/20/2021 6:15:00 PM 18.74 65.732 0.53 8.81 2.9 9.57
9/20/2021 6:30:00 PM 18.7 65.66 0.53 8.81 3.04 9.55
9/20/2021 6:45:00 PM 18.66 65.588 0.53 8.93 3.16 9.53
9/20/2021 7:00:00 PM 18.63 65.534 0.529 8.92 3.15 9.51
9/20/2021 7:15:00 PM 18.6 65.48 0.529 8.93 3.08 9.48
9/20/2021 7:30:00 PM 18.58 65.444 0.528 8.92 3.33 9.47
9/20/2021 7:45:00 PM 18.57 65.426 0.522 8.93 3.59 9.45
9/20/2021 8:00:00 PM 18.56 65.408 0.528 8.93 4.56 9.44
9/20/2021 8:15:00 PM 18.56 65.408 0.515 8.9 3.57 9.44
9/20/2021 8:30:00 PM 18.55 65.39 0.527 8.93 3.95 9.43
9/20/2021 8:45:00 PM 18.54 65.372 0.528 8.9 4.25 9.41
9/20/2021 9:00:00 PM 18.54 65.372 0.529 8.93 4.2 9.41
9/20/2021 9:15:00 PM 18.53 65.354 0.528 8.91 4.51 9.39
9/20/2021 9:30:00 PM 18.53 65.354 0.529 8.92 4.46 9.38
9/20/2021 9:45:00 PM 18.52 65.336 0.529 8.9 5.14 9.37
9/20/2021 10:00:00 PM 18.51 65.318 0.529 8.9 5.87 9.36
9/20/2021 10:15:00 PM 18.51 65.318 0.461 8.9 4.64 9.35
9/20/2021 10:30:00 PM 18.5 65.3 0.529 8.9 5.2 9.34
9/20/2021 10:45:00 PM 18.48 65.264 0.513 8.89 4.92 9.33
9/20/2021 11:00:00 PM 18.47 65.246 0.529 8.87 5.35 9.31
9/20/2021 11:15:00 PM 18.45 65.21 0.53 8.87 5.11 9.32
9/20/2021 11:30:00 PM 18.44 65.192 0.53 8.87 5.49 9.31
9/20/2021 11:45:00 PM 18.42 65.156 0.53 8.87 5.42 9.3
9/21/2021 12:00:00 AM 18.4 65.12 0.53 8.86 4.95 9.29
9/21/2021 12:15:00 AM 18.38 65.084 0.523 8.87 5.25 9.28
9/21/2021 12:30:00 AM 18.36 65.048 0.53 8.85 5.47 9.28
9/21/2021 12:45:00 AM 18.33 64.994 0.532 8.84 5.53 9.28
9/21/2021 1:00:00 AM 18.3 64.94 0.529 8.85 5.57 9.27
9/21/2021 1:15:00 AM 18.27 64.886 0.496 8.84 5.4 9.26
9/21/2021 1:30:00 AM 18.24 64.832 0.528 8.82 5.78 9.25
9/21/2021 1:45:00 AM 18.2 64.76 0.528 8.74 5.97 9.25
9/21/2021 2:00:00 AM 18.17 64.706 0.529 8.83 5.37 9.25
9/21/2021 2:15:00 AM 18.13 64.634 0.53 8.83 5.73 9.24
9/21/2021 2:30:00 AM 18.09 64.562 0.529 8.79 5.4 9.24
9/21/2021 2:45:00 AM 18.05 64.49 0.528 8.8 5.37 9.24
9/21/2021 3:00:00 AM 18.01 64.418 0.52 8.81 5.68 9.23
9/21/2021 3:15:00 AM 17.98 64.364 0.525 8.8 5.44 9.22
9/21/2021 3:30:00 AM 17.93 64.274 0.527 8.8 5.4 9.23
9/21/2021 3:45:00 AM 17.9 64.22 0.524 8.8 5.95 9.23
9/21/2021 4:00:00 AM 17.87 64.166 0.526 8.8 5.42 9.24
9/21/2021 4:15:00 AM 17.82 64.076 0.523 8.8 5.44 9.23
9/21/2021 4:30:00 AM 17.78 64.004 0.522 8.81 5.15 9.23
9/21/2021 4:45:00 AM 17.74 63.932 0.524 8.78 5.36 9.24
9/21/2021 5:00:00 AM 17.69 63.842 0.523 8.76 4.98 9.25
9/21/2021 5:15:00 AM 17.65 63.77 0.519 8.79 5.87 9.25
9/21/2021 5:30:00 AM 17.62 63.716 0.523 8.78 5.6 9.26
9/21/2021 5:45:00 AM 17.58 63.644 0.513 8.79 5.35 9.26
9/21/2021 6:00:00 AM 17.56 63.608 0.519 8.78 5.56 9.27
9/21/2021 6:15:00 AM 17.52 63.536 0.521 8.78 6.13 9.27
9/21/2021 6:30:00 AM 17.49 63.482 0.519 8.79 6.57 9.28
9/21/2021 6:45:00 AM 17.46 63.428 0.52 8.77 5.61 9.28
9/21/2021 7:00:00 AM 17.44 63.392 0.52 8.78 5.62 9.29
9/21/2021 7:15:00 AM 17.42 63.356 0.502 8.76 5.42 9.31
9/21/2021 7:30:00 AM 17.4 63.32 0.52 8.79 5.27 9.33
9/21/2021 7:45:00 AM 17.38 63.284 0.507 8.79 5.26 9.34
9/21/2021 8:00:00 AM 17.37 63.266 0.517 8.79 4.9 9.38
9/21/2021 8:15:00 AM 17.37 63.266 0.51 8.78 4.96 9.4
9/21/2021 8:30:00 AM 17.36 63.248 0.519 8.8 4.97 9.44
9/21/2021 8:45:00 AM 17.36 63.248 0.519 8.8 4.66 9.47
9/21/2021 9:00:00 AM 17.37 63.266 0.519 8.81 4.98 9.53
9/21/2021 9:15:00 AM 17.36 63.248 0.517 8.79 5.41 9.43
9/21/2021 9:30:00 AM 17.38 63.284 0.519 8.81 4.21 9.57
9/21/2021 9:45:00 AM 17.42 63.356 0.517 8.85 4.38 9.63
9/21/2021 10:00:00 AM 17.43 63.374 0.517 8.83 4.15 9.63
9/21/2021 10:15:00 AM 17.45 63.41 0.518 8.83 4.07 9.66
9/21/2021 10:30:00 AM 17.51 63.518 0.512 8.84 3.87 9.73
9/21/2021 10:45:00 AM 17.59 63.662 0.521 8.71 4.48 9.76
9/21/2021 11:00:00 AM 17.63 63.734 0.521 8.86 3.73 9.77
9/21/2021 11:15:00 AM 17.62 63.716 0.52 8.87 3.82 9.74
9/21/2021 11:30:00 AM 17.7 63.86 0.523 8.87 3.85 9.8
9/21/2021 11:45:00 AM 17.68 63.824 0.523 8.87 3.79 9.77
9/21/2021 12:00:00 PM 17.74 63.932 0.521 8.88 4.09 9.82
9/21/2021 12:15:00 PM 17.76 63.968 0.45 8.88 3.55 9.81
9/21/2021 12:30:00 PM 17.8 64.04 0.523 8.89 3.73 9.82
9/21/2021 12:45:00 PM 17.79 64.022 0.526 8.88 3.25 9.73
9/21/2021 1:00:00 PM 17.8 64.04 0.524 8.86 3.64 9.76
9/21/2021 1:15:00 PM 17.84 64.112 0.532 8.88 3.48 9.73
9/21/2021 1:30:00 PM 17.88 64.184 0.524 8.91 3.31 9.8
9/21/2021 1:45:00 PM 17.94 64.292 0.527 8.9 3.54 9.84
9/21/2021 2:00:00 PM 18.02 64.436 0.526 8.91 3.91 9.82
9/21/2021 2:15:00 PM 18.06 64.508 0.503 8.91 3.19 9.81
9/21/2021 2:30:00 PM 18.06 64.508 0.53 8.91 3.03 9.78
9/21/2021 2:45:00 PM 18.09 64.562 0.528 8.91 3.15 9.77
9/21/2021 3:00:00 PM 18.12 64.616 0.528 8.89 2.93 9.75
9/21/2021 3:15:00 PM 18.18 64.724 0.528 8.92 2.89 9.78
9/21/2021 3:30:00 PM 18.32 64.976 0.528 8.94 2.85 9.91
9/21/2021 3:45:00 PM 18.39 65.102 0.528 8.96 2.83 9.9
9/21/2021 4:00:00 PM 18.4 65.12 0.529 8.94 2.88 9.86
9/21/2021 4:15:00 PM 18.45 65.21 0.526 8.97 2.89 9.85
9/21/2021 4:30:00 PM 18.47 65.246 0.53 8.95 2.69 9.85
9/21/2021 4:45:00 PM 18.47 65.246 0.528 8.96 2.97 9.76
9/21/2021 5:00:00 PM 18.48 65.264 0.514 8.97 2.81 9.74
9/21/2021 5:15:00 PM 18.51 65.318 0.529 8.96 2.75 9.71
9/21/2021 5:30:00 PM 18.55 65.39 0.528 8.97 3.1 9.67
9/21/2021 5:45:00 PM 18.59 65.462 0.529 8.96 2.9 9.7
9/21/2021 6:00:00 PM 18.61 65.498 0.529 8.99 2.98 9.67
9/21/2021 6:15:00 PM 18.61 65.498 0.527 8.98 2.83 9.66
9/21/2021 6:30:00 PM 18.6 65.48 0.518 8.99 2.89 9.64
9/21/2021 6:45:00 PM 18.58 65.444 0.527 8.98 3.03 9.63
9/21/2021 7:00:00 PM 18.57 65.426 0.529 8.98 3.07 9.61
9/21/2021 7:15:00 PM 18.56 65.408 0.526 8.97 3.17 9.59
9/21/2021 7:30:00 PM 18.56 65.408 0.528 8.96 3.63 9.58
9/21/2021 7:45:00 PM 18.56 65.408 0.526 8.99 3.55 9.57
9/21/2021 8:00:00 PM 18.55 65.39 0.526 8.96 3.64 9.56
9/21/2021 8:15:00 PM 18.56 65.408 0.523 8.99 3.68 9.56
9/21/2021 8:30:00 PM 18.56 65.408 0.526 8.91 3.48 9.55
9/21/2021 8:45:00 PM 18.56 65.408 0.525 8.96 3.56 9.53
9/21/2021 9:00:00 PM 18.56 65.408 0.526 8.94 3.61 9.52
9/21/2021 9:15:00 PM 18.57 65.426 0.524 8.96 4.22 9.49
9/21/2021 9:30:00 PM 18.57 65.426 0.523 8.95 4.32 9.48
9/21/2021 9:45:00 PM 18.58 65.444 0.524 8.96 3.83 9.47
9/21/2021 10:00:00 PM 18.58 65.444 0.523 8.84 4.98 9.45
9/21/2021 10:15:00 PM 18.58 65.444 0.523 8.84 4.52 9.44
9/21/2021 10:30:00 PM 18.58 65.444 0.525 8.93 4.81 9.43
9/21/2021 10:45:00 PM 18.58 65.444 0.525 8.93 4.25 9.42
9/21/2021 11:00:00 PM 18.57 65.426 0.525 8.93 4.38 9.4
9/21/2021 11:15:00 PM 18.57 65.426 0.524 8.92 5.39 9.38
9/21/2021 11:30:00 PM 18.56 65.408 0.524 8.91 4.42 9.37
9/21/2021 11:45:00 PM 18.56 65.408 0.527 8.89 4.81 9.37
9/22/2021 12:00:00 AM 18.55 65.39 0.525 8.89 4.62 9.34
9/22/2021 12:15:00 AM 18.54 65.372 0.525 8.9 4.48 9.32
9/22/2021 12:30:00 AM 18.53 65.354 0.528 8.88 4.81 9.32
9/22/2021 12:45:00 AM 18.52 65.336 0.528 8.89 4.71 9.3
9/22/2021 1:00:00 AM 18.5 65.3 0.526 8.87 5.14 9.28
9/22/2021 1:15:00 AM 18.49 65.282 0.515 8.86 4.82 9.27
9/22/2021 1:30:00 AM 18.47 65.246 0.526 8.87 4.62 9.25
9/22/2021 1:45:00 AM 18.46 65.228 0.503 8.88 4.89 9.25
9/22/2021 2:00:00 AM 18.45 65.21 0.525 8.87 4.72 9.23
9/22/2021 2:15:00 AM 18.43 65.174 0.525 8.84 4.47 9.23
9/22/2021 2:30:00 AM 18.42 65.156 0.525 8.85 4.65 9.21
9/22/2021 2:45:00 AM 18.4 65.12 0.509 8.83 4.82 9.2
9/22/2021 3:00:00 AM 18.39 65.102 0.524 8.83 4.64 9.19
9/22/2021 3:15:00 AM 18.37 65.066 0.524 8.83 4.8 9.18
9/22/2021 3:30:00 AM 18.35 65.03 0.523 8.82 4.91 9.17
9/22/2021 3:45:00 AM 18.34 65.012 0.525 8.8 5.26 9.17
9/22/2021 4:00:00 AM 18.32 64.976 0.524 8.81 4.78 9.16
9/22/2021 4:15:00 AM 18.3 64.94 0.53 8.81 4.67 9.16
9/22/2021 4:30:00 AM 18.28 64.904 0.524 8.8 4.85 9.14
9/22/2021 4:45:00 AM 18.27 64.886 0.524 8.78 5.08 9.15
9/22/2021 5:00:00 AM 18.25 64.85 0.521 8.8 4.98 9.14
9/22/2021 5:15:00 AM 18.24 64.832 0.52 8.8 5.7 9.13
9/22/2021 5:30:00 AM 18.22 64.796 0.521 8.78 4.88 9.13
9/22/2021 5:45:00 AM 18.21 64.778 0.52 8.79 5.06 9.13
9/22/2021 6:00:00 AM 18.21 64.778 0.522 8.79 5.11 9.13
9/22/2021 6:15:00 AM 18.2 64.76 0.52 8.8 4.99 9.12
9/22/2021 6:30:00 AM 18.19 64.742 0.527 8.78 4.97 9.12
9/22/2021 6:45:00 AM 18.18 64.724 0.52 8.78 5.12 9.12
9/22/2021 7:00:00 AM 18.18 64.724 0.519 8.79 4.93 9.12
9/22/2021 7:15:00 AM 18.17 64.706 0.519 8.8 4.95 9.11
9/22/2021 7:30:00 AM 18.17 64.706 0.521 8.78 4.81 9.14
9/22/2021 7:45:00 AM 18.18 64.724 0.517 8.78 5.31 9.14
9/22/2021 8:00:00 AM 18.18 64.724 0.521 8.77 4.64 9.14
9/22/2021 8:15:00 AM 18.19 64.742 0.519 8.77 4.66 9.17
9/22/2021 8:30:00 AM 18.2 64.76 0.522 8.78 4.67 9.21
9/22/2021 8:45:00 AM 18.21 64.778 0.519 8.81 4.46 9.19
9/22/2021 9:00:00 AM 18.22 64.796 0.521 8.76 4.23 9.2
9/22/2021 9:15:00 AM 18.26 64.868 0.521 8.78 4.18 9.36
9/22/2021 9:30:00 AM 18.3 64.94 0.523 8.8 4.19 9.37
9/22/2021 9:45:00 AM 18.3 64.94 0.521 8.83 4.21 9.25
9/22/2021 10:00:00 AM 18.31 64.958 0.523 8.8 3.93 9.27
9/22/2021 10:15:00 AM 18.32 64.976 0.522 8.8 3.95 9.18
9/22/2021 10:30:00 AM 18.34 65.012 0.523 8.8 3.85 9.21
9/22/2021 10:45:00 AM 18.37 65.066 0.522 8.81 4.07 9.23
9/22/2021 11:00:00 AM 18.41 65.138 0.524 8.81 3.97 9.27
9/22/2021 11:15:00 AM 18.44 65.192 0.524 8.84 3.66 9.3
9/22/2021 11:30:00 AM 18.5 65.3 0.525 8.84 3.67 9.43
9/22/2021 11:45:00 AM 18.54 65.372 0.526 8.85 3.44 9.42
9/22/2021 12:00:00 PM 18.56 65.408 0.527 8.84 3.28 9.38
9/22/2021 12:15:00 PM 18.57 65.426 0.527 8.83 3.25 9.34
9/22/2021 12:30:00 PM 18.6 65.48 0.51 8.84 3.04 9.33
9/22/2021 12:45:00 PM 18.63 65.534 0.528 8.72 2.94 9.32
9/22/2021 1:00:00 PM 18.68 65.624 0.529 8.85 3.32 9.42
9/22/2021 1:15:00 PM 18.71 65.67799 0.531 8.85 2.93 9.34
9/22/2021 1:30:00 PM 18.73 65.714 0.529 8.84 2.88 9.24
9/22/2021 1:45:00 PM 18.75 65.75 0.529 8.83 3.17 9.27
9/22/2021 2:00:00 PM 18.83 65.894 0.529 8.9 3.17 9.47
9/22/2021 2:15:00 PM 18.83 65.894 0.53 8.87 2.76 9.3
9/22/2021 2:30:00 PM 18.84 65.912 0.53 8.87 2.97 9.32
9/22/2021 2:45:00 PM 18.86 65.948 0.531 8.87 3.06 9.32
9/22/2021 3:00:00 PM 18.87 65.966 0.534 8.91 2.6 9.28
9/22/2021 3:15:00 PM 18.89 66.002 0.535 8.86 2.71 9.3
9/22/2021 3:30:00 PM 18.91 66.038 0.532 8.9 2.83 9.31
9/22/2021 3:45:00 PM 18.93 66.074 0.483 8.88 2.81 9.31
9/22/2021 4:00:00 PM 18.96 66.128 0.536 8.91 2.83 9.36
9/22/2021 4:15:00 PM 18.98 66.164 0.534 8.9 2.7 9.36
9/22/2021 4:30:00 PM 19 66.2 0.534 8.9 2.61 9.37
9/22/2021 4:45:00 PM 19.02 66.236 0.534 8.8 2.98 9.3
9/22/2021 5:00:00 PM 19.05 66.29 0.534 8.9 2.66 9.34
9/22/2021 5:15:00 PM 19.07 66.326 0.534 8.89 2.77 9.25
9/22/2021 5:30:00 PM 19.09 66.362 0.533 8.88 2.85 9.25
9/22/2021 5:45:00 PM 19.1 66.38 0.535 8.9 3.19 9.26
9/22/2021 6:00:00 PM 19.14 66.452 0.523 8.91 2.84 9.34
9/22/2021 6:15:00 PM 19.16 66.488 0.534 8.91 2.96 9.27
9/22/2021 6:30:00 PM 19.17 66.506 0.531 8.9 2.66 9.25
9/22/2021 6:45:00 PM 19.18 66.524 0.533 8.9 2.94 9.23
9/22/2021 7:00:00 PM 19.19 66.542 0.531 8.91 4.19 9.2
9/22/2021 7:15:00 PM 19.2 66.56 0.531 8.89 2.92 9.19
9/22/2021 7:30:00 PM 19.22 66.596 0.53 8.92 3.11 9.19
9/22/2021 7:45:00 PM 19.23 66.614 0.53 8.91 3.25 9.18
9/22/2021 8:00:00 PM 19.24 66.632 0.529 8.9 3.29 9.18
9/22/2021 8:15:00 PM 19.24 66.632 0.53 8.9 3.07 9.18
9/22/2021 8:30:00 PM 19.24 66.632 0.531 8.91 3.33 9.17
9/22/2021 8:45:00 PM 19.24 66.632 0.531 8.88 3.28 9.16
9/22/2021 9:00:00 PM 19.25 66.65 0.53 8.89 3.34 9.15
9/22/2021 9:15:00 PM 19.25 66.65 0.531 8.9 3.52 9.14
9/22/2021 9:30:00 PM 19.26 66.668 0.531 8.91 3.73 9.13
9/22/2021 9:45:00 PM 19.26 66.668 0.486 8.89 3.92 9.12
9/22/2021 10:00:00 PM 19.26 66.668 0.53 8.89 3.83 9.11
9/22/2021 10:15:00 PM 19.27 66.686 0.533 8.91 4.26 9.09
9/22/2021 10:30:00 PM 19.28 66.704 0.531 8.89 3.76 9.08
9/22/2021 10:45:00 PM 19.29 66.722 0.532 8.88 4.16 9.08
9/22/2021 11:00:00 PM 19.3 66.74 0.533 8.89 4.35 9.06
9/22/2021 11:15:00 PM 19.3 66.74 0.531 8.89 4.33 9.05
9/22/2021 11:30:00 PM 19.31 66.758 0.531 8.87 4.54 9.04
9/22/2021 11:45:00 PM 19.32 66.776 0.531 8.88 5.36 9.03
9/23/2021 12:00:00 AM 19.34 66.812 0.517 8.89 4.53 9.01
9/23/2021 12:15:00 AM 19.35 66.83 0.531 8.9 4.85 8.99
9/23/2021 12:30:00 AM 19.35 66.83 0.529 8.88 4.36 8.98
9/23/2021 12:45:00 AM 19.36 66.848 0.53 8.86 4.81 8.97
9/23/2021 1:00:00 AM 19.36 66.848 0.531 8.86 4.66 8.96
9/23/2021 1:15:00 AM 19.36 66.848 0.531 8.88 4.56 8.95
9/23/2021 1:30:00 AM 19.35 66.83 0.53 8.87 4.6 8.94
9/23/2021 1:45:00 AM 19.34 66.812 0.498 8.87 4.46 8.93
9/23/2021 2:00:00 AM 19.34 66.812 0.531 8.86 4.55 8.91
9/23/2021 2:15:00 AM 19.33 66.794 0.53 8.84 4.66 8.9
9/23/2021 2:30:00 AM 19.33 66.794 0.531 8.85 4.83 8.89
9/23/2021 2:45:00 AM 19.32 66.776 0.53 8.85 4.68 8.89
9/23/2021 3:00:00 AM 19.31 66.758 0.531 8.85 4.97 8.88
9/23/2021 3:15:00 AM 19.3 66.74 0.529 8.81 4.95 8.87
9/23/2021 3:30:00 AM 19.3 66.74 0.531 8.83 4.71 8.87
9/23/2021 3:45:00 AM 19.29 66.722 0.527 8.82 4.71 8.86
9/23/2021 4:00:00 AM 19.29 66.722 0.526 8.83 5 8.85
9/23/2021 4:15:00 AM 19.29 66.722 0.528 8.68 5.19 8.84
9/23/2021 4:30:00 AM 19.29 66.722 0.525 8.83 4.87 8.83
9/23/2021 4:45:00 AM 19.29 66.722 0.524 8.81 5.23 8.84
9/23/2021 5:00:00 AM 19.29 66.722 0.523 8.81 4.88 8.83
9/23/2021 5:15:00 AM 19.3 66.74 0.525 8.81 4.91 8.82
9/23/2021 5:30:00 AM 19.3 66.74 0.521 8.81 5.04 8.82
9/23/2021 5:45:00 AM 19.3 66.74 0.521 8.81 4.62 8.81
9/23/2021 6:00:00 AM 19.3 66.74 0.52 8.83 5.36 8.8
9/23/2021 6:15:00 AM 19.31 66.758 0.52 8.82 4.41 8.8
9/23/2021 6:30:00 AM 19.31 66.758 0.52 8.85 4.64 8.79
9/23/2021 6:45:00 AM 19.31 66.758 0.518 8.83 4.28 8.79
9/23/2021 7:00:00 AM 19.31 66.758 0.519 8.81 4.95 8.79
9/23/2021 7:15:00 AM 19.33 66.794 0.516 8.82 5.03 8.8
9/23/2021 7:30:00 AM 19.32 66.776 0.514 8.83 4.98 8.8
9/23/2021 7:45:00 AM 19.22 66.596 0.494 8.72 8.74 8.86
9/23/2021 8:00:00 AM 19.2 66.56 0.482 8.8 10.92 8.86
9/23/2021 8:15:00 AM 19.21 66.578 0.498 8.81 7.71 8.87
9/23/2021 8:30:00 AM 19.19 66.542 0.498 8.82 6.95 8.9
9/23/2021 8:45:00 AM 19.16 66.488 0.493 8.81 9.13 8.94
9/23/2021 9:00:00 AM 19.15 66.47 0.473 8.79 14.2 8.97
9/23/2021 9:15:00 AM 19.13 66.434 0.481 8.75 22.32 8.99
9/23/2021 9:30:00 AM 19.1 66.38 0.479 8.74 17.82 9.01
9/23/2021 9:45:00 AM 19.09 66.362 0.479 8.78 15.58 9.03
9/23/2021 10:00:00 AM 19.07 66.326 0.468 8.76 17.24 9.05
9/23/2021 10:15:00 AM 19 66.2 0.47 8.75 24.64 9.07
9/23/2021 10:30:00 AM 18.88 65.984 0.473 8.72 31.26 9.11
9/23/2021 10:45:00 AM 18.75 65.75 0.39 8.68 38.45 9.13
9/23/2021 11:00:00 AM 18.62 65.516 0.332 8.62 45.11 9.17
9/23/2021 11:15:00 AM 18.5 65.3 0.305 8.57 47.86 9.18
9/23/2021 11:30:00 AM 18.41 65.138 0.303 8.57 59.27 9.19
9/23/2021 11:45:00 AM 18.4 65.12 0.305 8.38 83.84 9.16
9/23/2021 12:00:00 PM 18.4 65.12 0.298 8.48 140.19 9.12
9/23/2021 12:15:00 PM 18.43 65.174 0.301 8.47 188.35 9.08
9/23/2021 12:30:00 PM 18.42 65.156 0.304 8.42 202.45 9.04
9/23/2021 12:45:00 PM 18.5 65.3 0.299 8.34 231.58 9.01
9/23/2021 1:00:00 PM 18.58 65.444 0.3 8.36 227.15 8.9
9/23/2021 1:15:00 PM 18.61 65.498 0.301 8.42 256.43 8.68
9/23/2021 1:30:00 PM 18.62 65.516 0.287 8.26 270.81 8.64
9/23/2021 1:45:00 PM 18.62 65.516 0.267 8.38 219.43 8.7
9/23/2021 2:00:00 PM 18.63 65.534 0.24 8.39 216.66 8.77
9/23/2021 2:15:00 PM 18.64 65.552 0.216 8.38 200.66 8.81
9/23/2021 2:30:00 PM 18.64 65.552 0.199 8.3 179.68 8.83
9/23/2021 2:45:00 PM 18.63 65.534 0.191 8.29 153.14 8.85
9/23/2021 3:00:00 PM 18.63 65.534 0.189 8.31 150.67 8.85
9/23/2021 3:15:00 PM 18.65 65.57 0.192 8.22 167 8.84
9/23/2021 3:30:00 PM 18.63 65.534 0.192 8.26 173.96 8.83
9/23/2021 3:45:00 PM 18.63 65.534 0.193 8.25 187.89 8.82
9/23/2021 4:00:00 PM 18.64 65.552 0.195 8.28 164.5 8.8
9/23/2021 4:15:00 PM 18.67 65.606 0.194 8.31 166.24 8.82
9/23/2021 4:30:00 PM 18.69 65.642 0.193 8.21 166.69 8.8
9/23/2021 4:45:00 PM 18.72 65.696 0.194 8.28 150.75 8.79
9/23/2021 5:00:00 PM 18.75 65.75 0.194 8.25 140.67 8.79
9/23/2021 5:15:00 PM 18.77 65.786 0.194 8.21 142.79 8.79
9/23/2021 5:30:00 PM 18.79 65.82201 0.194 8.19 139.98 8.78
9/23/2021 5:45:00 PM 18.81 65.858 0.193 8.24 120.58 8.76
9/23/2021 6:00:00 PM 18.84 65.912 0.193 8.22 121.65 8.74
9/23/2021 6:15:00 PM 18.86 65.948 0.194 8.21 111.33 8.7
9/23/2021 6:30:00 PM 18.88 65.984 0.195 8.21 124.29 8.68
9/23/2021 6:45:00 PM 18.89 66.002 0.195 8.19 103.21 8.66
9/23/2021 7:00:00 PM 18.91 66.038 0.196 8.15 119.5 8.63
9/23/2021 7:15:00 PM 18.92 66.056 0.197 8.18 96.37 8.62
9/23/2021 7:30:00 PM 18.92 66.056 0.199 8.13 94.1 8.59
9/23/2021 7:45:00 PM 18.93 66.074 0.198 7.94 104.56 8.59
9/23/2021 8:00:00 PM 18.92 66.056 0.199 8.11 107.79 8.57
9/23/2021 8:15:00 PM 18.91 66.038 0.201 8.16 96.1 8.57
9/23/2021 8:30:00 PM 18.9 66.02 0.201 8.14 97.13 8.57
9/23/2021 8:45:00 PM 18.88 65.984 0.201 8.1 105.49 8.56
9/23/2021 9:00:00 PM 18.86 65.948 0.202 8.12 88.67 8.55
9/23/2021 9:15:00 PM 18.85 65.93 0.202 8.12 102.98 8.56
9/23/2021 9:30:00 PM 18.83 65.894 0.202 7.95 101.88 8.56
9/23/2021 9:45:00 PM 18.81 65.858 0.202 8.11 85.87 8.57
9/23/2021 10:00:00 PM 18.79 65.82201 0.202 8.11 81.55 8.57
9/23/2021 10:15:00 PM 18.77 65.786 0.202 8.12 88.71 8.58
9/23/2021 10:30:00 PM 18.75 65.75 0.201 8.11 82.7 8.58
9/23/2021 10:45:00 PM 18.73 65.714 0.201 8.11 86.95 8.58
9/23/2021 11:00:00 PM 18.7 65.66 0.201 8.03 73.63 8.61
9/23/2021 11:15:00 PM 18.68 65.624 0.2 8.03 86.79 8.61
9/23/2021 11:30:00 PM 18.65 65.57 0.201 8.07 60.51 8.63
9/23/2021 11:45:00 PM 18.62 65.516 0.201 8.03 70.55 8.62
9/24/2021 12:00:00 AM 18.59 65.462 0.202 8 70.97 8.63
9/24/2021 12:15:00 AM 18.56 65.408 0.201 8.04 68.32 8.64
9/24/2021 12:30:00 AM 18.52 65.336 0.202 8.1 66.99 8.64
9/24/2021 12:45:00 AM 18.49 65.282 0.203 8.1 62.42 8.67
9/24/2021 1:00:00 AM 18.45 65.21 0.204 8.08 55.52 8.68
9/24/2021 1:15:00 AM 18.4 65.12 0.203 8.02 58.87 8.68
9/24/2021 1:30:00 AM 18.36 65.048 0.204 8.05 58.15 8.7
9/24/2021 1:45:00 AM 18.31 64.958 0.204 8.06 53.68 8.72
9/24/2021 2:00:00 AM 18.26 64.868 0.204 8.06 52.51 8.74
9/24/2021 2:15:00 AM 18.2 64.76 0.207 8.12 51.38 8.75
9/24/2021 2:30:00 AM 18.15 64.67 0.21 8.1 48.17 8.77
9/24/2021 2:45:00 AM 18.08 64.544 0.213 8.01 45.21 8.79
9/24/2021 3:00:00 AM 18.02 64.436 0.216 8.1 46.73 8.81
9/24/2021 3:15:00 AM 17.96 64.328 0.22 8.12 52.2 8.83
9/24/2021 3:30:00 AM 17.88 64.184 0.226 8.13 44.7 8.85
9/24/2021 3:45:00 AM 17.81 64.058 0.231 8.08 48.01 8.87
9/24/2021 4:00:00 AM 17.74 63.932 0.237 8.05 41.08 8.9
9/24/2021 4:15:00 AM 17.67 63.806 0.243 8.14 42.19 8.93
9/24/2021 4:30:00 AM 17.61 63.698 0.248 8.09 40.78 8.95
9/24/2021 4:45:00 AM 17.54 63.572 0.254 8.15 38.87 8.98
9/24/2021 5:00:00 AM 17.47 63.446 0.258 8.12 36.15 9.01
9/24/2021 5:15:00 AM 17.4 63.32 0.257 8.12 35.74 9.05
9/24/2021 5:30:00 AM 17.34 63.212 0.267 8.14 35.46 9.09
9/24/2021 5:45:00 AM 17.27 63.086 0.273 8.13 34.1 9.14
9/24/2021 6:00:00 AM 17.21 62.978 0.276 8.2 33.16 9.17
9/24/2021 6:15:00 AM 17.15 62.87 0.28 8.15 32.28 9.21
9/24/2021 6:30:00 AM 17.1 62.78 0.278 8.26 32.39 9.25
9/24/2021 6:45:00 AM 17.04 62.672 0.288 8.19 30.74 9.29
9/24/2021 7:00:00 AM 16.98 62.564 0.292 8.22 29.58 9.32
9/24/2021 7:15:00 AM 16.93 62.474 0.293 8.2 28.14 9.34
9/24/2021 7:30:00 AM 16.87 62.366 0.301 8.2 26.59 9.37
9/24/2021 7:45:00 AM 16.82 62.276 0.305 8.24 26.65 9.39
9/24/2021 8:00:00 AM 16.76 62.168 0.307 8.25 25.57 9.41
9/24/2021 8:15:00 AM 16.71 62.078 0.31 8.29 25.67 9.43
9/24/2021 8:30:00 AM 16.67 62.006 0.311 8.27 25.16 9.45
9/24/2021 8:45:00 AM 16.62 61.916 0.313 8.29 24.41 9.47
9/24/2021 9:00:00 AM 16.58 61.844 0.318 8.29 22.94 9.49
9/24/2021 9:15:00 AM 16.54 61.772 0.323 8.3 22.63 9.51
9/24/2021 9:30:00 AM 16.52 61.736 0.326 8.29 20.77 9.52
9/24/2021 9:45:00 AM 16.49 61.682 0.327 8.32 20.92 9.54
9/24/2021 10:00:00 AM 16.46 61.628 0.329 8.33 19.34 9.56
9/24/2021 10:15:00 AM 16.45 61.61 0.33 8.32 19.63 9.58
9/24/2021 10:30:00 AM 16.43 61.574 0.331 8.3 16.53 9.59
9/24/2021 10:45:00 AM 16.42 61.556 0.333 8.36 17.66 9.61
9/24/2021 11:00:00 AM 16.42 61.556 0.336 8.39 17.82 9.62
9/24/2021 11:15:00 AM 16.43 61.574 0.337 8.35 16.99 9.63
9/24/2021 11:30:00 AM 16.45 61.61 0.341 8.37 16.34 9.64
9/24/2021 11:45:00 AM 16.47 61.646 0.343 8.41 15.87 9.65
9/24/2021 12:00:00 PM 16.47 61.646 0.344 8.24 15.45 9.65
9/24/2021 12:15:00 PM 16.51 61.718 0.341 8.39 14.96 9.66
9/24/2021 12:30:00 PM 16.54 61.772 0.346 8.42 14.29 9.66
9/24/2021 12:45:00 PM 16.58 61.844 0.348 8.41 13.41 9.67
9/24/2021 1:00:00 PM 16.62 61.916 0.344 8.41 13.88 9.67
9/24/2021 1:15:00 PM 16.65 61.97 0.35 8.28 13.51 9.67
9/24/2021 1:30:00 PM 16.67 62.006 0.352 8.42 13.69 9.68
9/24/2021 1:45:00 PM 16.7 62.06 0.353 8.42 12.33 9.68
9/24/2021 2:00:00 PM 16.73 62.114 0.355 8.44 13 9.68
9/24/2021 2:15:00 PM 16.75 62.15 0.358 8.47 12.66 9.68
9/24/2021 2:30:00 PM 16.78 62.204 0.357 8.44 11.91 9.69
9/24/2021 2:45:00 PM 16.79 62.222 0.359 8.44 11.52 9.68
9/24/2021 3:00:00 PM 16.8 62.24 0.36 8.47 11.81 9.69
9/24/2021 3:15:00 PM 16.8 62.24 0.363 8.48 11.73 9.69
9/24/2021 3:30:00 PM 16.81 62.258 0.362 8.5 11.58 9.68
9/24/2021 3:45:00 PM 16.8 62.24 0.362 8.47 11.12 9.69
9/24/2021 4:00:00 PM 16.8 62.24 0.362 8.5 11.39 9.68
9/24/2021 4:15:00 PM 16.8 62.24 0.361 8.48 10.6 9.68
9/24/2021 4:30:00 PM 16.8 62.24 0.36 8.48 10.3 9.67
9/24/2021 4:45:00 PM 16.79 62.222 0.363 8.48 10.63 9.67
9/24/2021 5:00:00 PM 16.78 62.204 0.36 8.5 10.36 9.67
9/24/2021 5:15:00 PM 16.77 62.186 0.361 8.5 10.22 9.66
9/24/2021 5:30:00 PM 16.77 62.186 0.358 8.48 10.41 9.66
9/24/2021 5:45:00 PM 16.77 62.186 0.357 8.51 10.19 9.65
9/24/2021 6:00:00 PM 16.78 62.204 0.373 8.49 9.63 9.65
9/24/2021 6:15:00 PM 16.8 62.24 0.363 8.49 9.46 9.64
9/24/2021 6:30:00 PM 16.82 62.276 0.358 8.49 9.29 9.64
9/24/2021 6:45:00 PM 16.83 62.294 0.356 8.48 8.94 9.63
9/24/2021 7:00:00 PM 16.85 62.33 0.361 8.53 9.17 9.63
9/24/2021 7:15:00 PM 16.86 62.348 0.359 8.5 8.91 9.62
9/24/2021 7:30:00 PM 16.88 62.384 0.362 8.47 8.94 9.61
9/24/2021 7:45:00 PM 16.9 62.42 0.459 8.48 8.91 9.6
9/24/2021 8:00:00 PM 16.91 62.438 0.459 8.49 8.67 9.6
9/24/2021 8:15:00 PM 16.93 62.474 0.461 8.48 8.64 9.59
9/24/2021 8:30:00 PM 16.93 62.474 0.462 8.38 8.41 9.59
9/24/2021 8:45:00 PM 16.94 62.492 0.464 8.5 8.27 9.58
9/24/2021 9:00:00 PM 16.95 62.51 0.467 8.5 8.06 9.57
9/24/2021 9:15:00 PM 16.95 62.51 0.468 8.5 8.19 9.57
9/24/2021 9:30:00 PM 16.95 62.51 0.469 8.5 8.07 9.56
9/24/2021 9:45:00 PM 16.95 62.51 0.422 8.51 8.24 9.56
9/24/2021 10:00:00 PM 16.94 62.492 0.471 8.51 8.38 9.55
9/24/2021 10:15:00 PM 16.94 62.492 0.425 8.53 8.15 9.55
9/24/2021 10:30:00 PM 16.94 62.492 0.425 8.51 8.45 9.54
9/24/2021 10:45:00 PM 16.93 62.474 0.396 8.5 8.31 9.53
9/24/2021 11:00:00 PM 16.92 62.456 0.426 8.5 8.45 9.53
9/24/2021 11:15:00 PM 16.92 62.456 0.473 8.48 8.29 9.54
9/24/2021 11:30:00 PM 16.91 62.438 0.427 8.49 8.36 9.53
9/24/2021 11:45:00 PM 16.91 62.438 0.397 8.52 8.21 9.53
9/25/2021 12:00:00 AM 16.9 62.42 0.393 8.5 8.25 9.53
9/25/2021 12:15:00 AM 16.89 62.402 0.432 8.5 8.23 9.52
9/25/2021 12:30:00 AM 16.88 62.384 0.433 8.51 8.21 9.52
9/25/2021 12:45:00 AM 16.87 62.366 0.434 8.5 8.24 9.52
9/25/2021 1:00:00 AM 16.85 62.33 0.484 8.5 8.19 9.52
9/25/2021 1:15:00 AM 16.83 62.294 0.436 8.5 8.37 9.52
9/25/2021 1:30:00 AM 16.81 62.258 0.487 8.44 8.54 9.53
9/25/2021 1:45:00 AM 16.78 62.204 0.438 8.52 8.14 9.54
9/25/2021 2:00:00 AM 16.76 62.168 0.438 8.51 8.16 9.54
9/25/2021 2:15:00 AM 16.72 62.096 0.438 8.5 8.15 9.54
9/25/2021 2:30:00 AM 16.7 62.06 0.424 8.34 8.12 9.55
9/25/2021 2:45:00 AM 16.66 61.988 0.425 8.35 8 9.56
9/25/2021 3:00:00 AM 16.63 61.934 0.427 8.51 8.04 9.56
9/25/2021 3:15:00 AM 16.6 61.88 0.429 8.51 8.13 9.56
9/25/2021 3:30:00 AM 16.56 61.808 0.445 8.51 7.98 9.57
9/25/2021 3:45:00 AM 16.51 61.718 0.495 8.45 7.92 9.58
9/25/2021 4:00:00 AM 16.48 61.664 0.447 8.5 8.16 9.59
9/25/2021 4:15:00 AM 16.43 61.574 0.449 8.51 7.85 9.6
9/25/2021 4:30:00 AM 16.39 61.502 0.45 8.51 7.93 9.6
9/25/2021 4:45:00 AM 16.34 61.412 0.435 8.54 8.06 9.61
9/25/2021 5:00:00 AM 16.3 61.34 0.434 8.51 7.92 9.62
9/25/2021 5:15:00 AM 16.25 61.25 0.433 8.54 7.86 9.64
9/25/2021 5:30:00 AM 16.2 61.16 0.448 8.51 7.46 9.64
9/25/2021 5:45:00 AM 16.15 61.07 0.433 8.54 7.53 9.65
9/25/2021 6:00:00 AM 16.11 60.998 0.449 8.51 7.65 9.66
9/25/2021 6:15:00 AM 16.06 60.908 0.451 8.38 7.42 9.67
9/25/2021 6:30:00 AM 16.01 60.818 0.5 8.5 7.44 9.69
9/25/2021 6:45:00 AM 15.97 60.746 0.5 8.49 7.55 9.69
9/25/2021 7:00:00 AM 15.92 60.656 0.437 8.37 7.47 9.7
9/25/2021 7:15:00 AM 15.88 60.584 0.453 8.5 7.36 9.71
9/25/2021 7:30:00 AM 15.84 60.512 0.438 8.49 7.46 9.72
9/25/2021 7:45:00 AM 15.8 60.44 0.453 8.52 7.27 9.73
9/25/2021 8:00:00 AM 15.76 60.368 0.437 8.54 7.24 9.74
9/25/2021 8:15:00 AM 15.72 60.296 0.451 8.5 6.97 9.76
9/25/2021 8:30:00 AM 15.69 60.242 0.437 8.53 6.88 9.77
9/25/2021 8:45:00 AM 15.65 60.17 0.453 8.53 6.44 9.78
9/25/2021 9:00:00 AM 15.63 60.134 0.439 8.54 6.78 9.8
9/25/2021 9:15:00 AM 15.61 60.098 0.455 8.53 6.37 9.81
9/25/2021 9:30:00 AM 15.6 60.08 0.44 8.56 6.47 9.83
9/25/2021 9:45:00 AM 15.59 60.062 0.456 8.53 6.28 9.84
9/25/2021 10:00:00 AM 15.58 60.044 0.441 8.59 5.98 9.86
9/25/2021 10:15:00 AM 15.58 60.044 0.457 8.53 5.75 9.87
9/25/2021 10:30:00 AM 15.59 60.062 0.441 8.58 5.88 9.89
9/25/2021 10:45:00 AM 15.6 60.08 0.506 8.43 5.3 9.89
9/25/2021 11:00:00 AM 15.61 60.098 0.441 8.59 5.64 9.9
9/25/2021 11:15:00 AM 15.64 60.152 0.456 8.54 5.44 9.9
9/25/2021 11:30:00 AM 15.67 60.206 0.441 8.59 5.12 9.91
9/25/2021 11:45:00 AM 15.7 60.26 0.441 8.56 5.06 9.91
9/25/2021 12:00:00 PM 15.74 60.332 0.415 8.6 4.97 9.91
9/25/2021 12:15:00 PM 15.79 60.422 0.507 8.58 4.67 9.91
9/25/2021 12:30:00 PM 15.85 60.53 0.442 8.56 4.76 9.91
9/25/2021 12:45:00 PM 15.91 60.638 0.458 8.57 4.64 9.9
9/25/2021 1:00:00 PM 15.97 60.746 0.442 8.63 4.8 9.9
9/25/2021 1:15:00 PM 16.02 60.836 0.441 8.6 4.52 9.9
9/25/2021 1:30:00 PM 16.07 60.926 0.441 8.61 4.39 9.9
9/25/2021 1:45:00 PM 16.12 61.016 0.455 8.59 4.24 9.89
9/25/2021 2:00:00 PM 16.16 61.088 0.44 8.61 4.3 9.89
9/25/2021 2:15:00 PM 16.2 61.16 0.456 8.48 4.22 9.9
9/25/2021 2:30:00 PM 16.24 61.232 0.441 8.61 4.18 9.89
9/25/2021 2:45:00 PM 16.28 61.304 0.441 8.51 3.99 9.9
9/25/2021 3:00:00 PM 16.3 61.34 0.437 8.63 4.01 9.89
9/25/2021 3:15:00 PM 16.33 61.394 0.458 8.62 3.99 9.88
9/25/2021 3:30:00 PM 16.37 61.466 0.438 8.64 4.14 9.88
9/25/2021 3:45:00 PM 16.4 61.52 0.443 8.63 3.88 9.87
9/25/2021 4:00:00 PM 16.41 61.538 0.443 8.64 3.63 9.86
9/25/2021 4:15:00 PM 16.43 61.574 0.443 8.64 3.62 9.86
9/25/2021 4:30:00 PM 16.44 61.592 0.443 8.65 3.49 9.85
9/25/2021 4:45:00 PM 16.44 61.592 0.458 8.62 3.6 9.84
9/25/2021 5:00:00 PM 16.44 61.592 0.443 8.66 3.47 9.83
9/25/2021 5:15:00 PM 16.44 61.592 0.444 8.65 3.52 9.82
9/25/2021 5:30:00 PM 16.44 61.592 0.459 8.65 3.93 9.81
9/25/2021 5:45:00 PM 16.43 61.574 0.439 8.61 3.55 9.8
9/25/2021 6:00:00 PM 16.44 61.592 0.444 8.64 3.4 9.8
9/25/2021 6:15:00 PM 16.44 61.592 0.44 8.43 3.64 9.78
9/25/2021 6:30:00 PM 16.44 61.592 0.439 8.66 3.34 9.77
9/25/2021 6:45:00 PM 16.45 61.61 0.443 8.66 3.44 9.76
9/25/2021 7:00:00 PM 16.45 61.61 0.359 8.62 3.36 9.75
9/25/2021 7:15:00 PM 16.46 61.628 0.439 8.62 3.7 9.74
9/25/2021 7:30:00 PM 16.46 61.628 0.443 8.63 3.55 9.73
9/25/2021 7:45:00 PM 16.47 61.646 0.439 8.61 3.89 9.72
9/25/2021 8:00:00 PM 16.47 61.646 0.46 8.65 3.97 9.71
9/25/2021 8:15:00 PM 16.48 61.664 0.446 8.62 4.12 9.7
9/25/2021 8:30:00 PM 16.49 61.682 0.447 8.64 4.28 9.69
9/25/2021 8:45:00 PM 16.5 61.7 0.442 8.66 4.44 9.69
9/25/2021 9:00:00 PM 16.51 61.718 0.443 8.63 4.83 9.68
9/25/2021 9:15:00 PM 16.51 61.718 0.443 8.64 4.59 9.67
9/25/2021 9:30:00 PM 16.52 61.736 0.449 8.61 4.72 9.66
9/25/2021 9:45:00 PM 16.52 61.736 0.449 8.61 4.91 9.65
9/25/2021 10:00:00 PM 16.53 61.754 0.449 8.6 4.78 9.64
9/25/2021 10:15:00 PM 16.53 61.754 0.448 8.58 4.85 9.63
9/25/2021 10:30:00 PM 16.54 61.772 0.448 8.6 5.16 9.62
9/25/2021 10:45:00 PM 16.54 61.772 0.449 8.62 5.11 9.62
9/25/2021 11:00:00 PM 16.54 61.772 0.444 8.61 5.15 9.61
9/25/2021 11:15:00 PM 16.54 61.772 0.444 8.62 5.46 9.6
9/25/2021 11:30:00 PM 16.55 61.79 0.45 8.63 5.26 9.59
9/25/2021 11:45:00 PM 16.56 61.808 0.45 8.6 5.3 9.59
9/26/2021 12:00:00 AM 16.56 61.808 0.446 8.62 5.4 9.58
9/26/2021 12:15:00 AM 16.57 61.826 0.451 8.59 5.36 9.57
9/26/2021 12:30:00 AM 16.58 61.844 0.446 8.59 5.3 9.57
9/26/2021 12:45:00 AM 16.58 61.844 0.446 8.59 5.42 9.56
9/26/2021 1:00:00 AM 16.58 61.844 0.447 8.58 5.44 9.56
9/26/2021 1:15:00 AM 16.58 61.844 0.452 8.6 5.61 9.55
9/26/2021 1:30:00 AM 16.58 61.844 0.452 8.62 5.53 9.55
9/26/2021 1:45:00 AM 16.59 61.862 0.453 8.59 5.24 9.55
9/26/2021 2:00:00 AM 16.59 61.862 0.454 8.6 5.66 9.54
9/26/2021 2:15:00 AM 16.59 61.862 0.45 8.61 5.41 9.54
9/26/2021 2:30:00 AM 16.59 61.862 0.456 8.6 5.46 9.54
9/26/2021 2:45:00 AM 16.58 61.844 0.457 8.61 5.51 9.54
9/26/2021 3:00:00 AM 16.57 61.826 0.458 8.6 5.19 9.54
9/26/2021 3:15:00 AM 16.57 61.826 0.449 8.61 5.65 9.54
9/26/2021 3:30:00 AM 16.56 61.808 0.459 8.58 5.28 9.54
9/26/2021 3:45:00 AM 16.55 61.79 0.454 8.6 5.5 9.54
9/26/2021 4:00:00 AM 16.54 61.772 0.459 8.59 5.38 9.54
9/26/2021 4:15:00 AM 16.52 61.736 0.454 8.62 5.48 9.55
9/26/2021 4:30:00 AM 16.51 61.718 0.458 8.6 5.25 9.55
9/26/2021 4:45:00 AM 16.49 61.682 0.453 8.61 5.39 9.55
9/26/2021 5:00:00 AM 16.48 61.664 0.458 8.61 5.77 9.55
9/26/2021 5:15:00 AM 16.46 61.628 0.454 8.62 5.57 9.56
9/26/2021 5:30:00 AM 16.44 61.592 0.459 8.59 5.47 9.56
9/26/2021 5:45:00 AM 16.41 61.538 0.454 8.6 5.48 9.56
9/26/2021 6:00:00 AM 16.38 61.484 0.459 8.59 5.61 9.57
9/26/2021 6:15:00 AM 16.35 61.43 0.46 8.4 5.6 9.58
9/26/2021 6:30:00 AM 16.32 61.376 0.459 8.59 5.34 9.58
9/26/2021 6:45:00 AM 16.29 61.322 0.454 8.61 5.67 9.59
9/26/2021 7:00:00 AM 16.26 61.268 0.459 8.61 5.23 9.6
9/26/2021 7:15:00 AM 16.22 61.196 0.454 8.59 5.24 9.61
9/26/2021 7:30:00 AM 16.19 61.142 0.406 8.62 5.09 9.62
9/26/2021 7:45:00 AM 16.15 61.07 0.455 8.62 5.12 9.63
9/26/2021 8:00:00 AM 16.12 61.016 0.455 8.63 4.92 9.64
9/26/2021 8:15:00 AM 16.09 60.962 0.461 8.62 4.71 9.66
9/26/2021 8:30:00 AM 16.06 60.908 0.461 8.61 4.67 9.67
9/26/2021 8:45:00 AM 16.03 60.854 0.461 8.61 4.58 9.68
9/26/2021 9:00:00 AM 16.01 60.818 0.478 8.62 4.76 9.7
9/26/2021 9:15:00 AM 15.99 60.782 0.425 8.64 4.54 9.71
9/26/2021 9:30:00 AM 15.98 60.764 0.462 8.64 4.35 9.74
9/26/2021 9:45:00 AM 15.97 60.746 0.456 8.67 4.25 9.77
9/26/2021 10:00:00 AM 15.96 60.728 0.477 8.59 4.34 9.79
9/26/2021 10:15:00 AM 15.95 60.71 0.455 8.64 4.2 9.8
9/26/2021 10:30:00 AM 15.95 60.71 0.461 8.64 3.96 9.81
9/26/2021 10:45:00 AM 15.95 60.71 0.456 8.6 4.1 9.83
9/26/2021 11:00:00 AM 15.96 60.728 0.461 8.65 3.76 9.83
9/26/2021 11:15:00 AM 15.97 60.746 0.461 8.67 3.77 9.84
9/26/2021 11:30:00 AM 15.99 60.782 0.457 8.66 3.89 9.84
9/26/2021 11:45:00 AM 16.02 60.836 0.457 8.66 3.77 9.85
9/26/2021 12:00:00 PM 16.04 60.872 0.462 8.67 3.66 9.85
9/26/2021 12:15:00 PM 16.08 60.944 0.457 8.67 3.68 9.85
9/26/2021 12:30:00 PM 16.12 61.016 0.457 8.67 3.54 9.85
9/26/2021 12:45:00 PM 16.17 61.106 0.456 8.63 3.36 9.86
9/26/2021 1:00:00 PM 16.23 61.214 0.461 8.67 3.3 9.86
9/26/2021 1:15:00 PM 16.28 61.304 0.461 8.69 3.27 9.85
9/26/2021 1:30:00 PM 16.33 61.394 0.461 8.7 3.36 9.85
9/26/2021 1:45:00 PM 16.38 61.484 0.461 8.67 3.25 9.85
9/26/2021 2:00:00 PM 16.43 61.574 0.462 8.7 3.05 9.85
9/26/2021 2:15:00 PM 16.48 61.664 0.462 8.69 2.87 9.85
9/26/2021 2:30:00 PM 16.53 61.754 0.436 8.71 3.03 9.84
9/26/2021 2:45:00 PM 16.57 61.826 0.457 8.73 3.06 9.85
9/26/2021 3:00:00 PM 16.6 61.88 0.456 8.72 2.97 9.84
9/26/2021 3:15:00 PM 16.62 61.916 0.462 8.71 3.12 9.83
9/26/2021 3:30:00 PM 16.64 61.952 0.461 8.7 2.94 9.84
9/26/2021 3:45:00 PM 16.65 61.97 0.456 8.59 3.26 9.83
9/26/2021 4:00:00 PM 16.64 61.952 0.461 8.67 3.16 9.82
9/26/2021 4:15:00 PM 16.63 61.934 0.456 8.72 3.32 9.82
9/26/2021 4:30:00 PM 16.6 61.88 0.462 8.69 2.98 9.8
9/26/2021 4:45:00 PM 16.58 61.844 0.457 8.71 2.95 9.79
9/26/2021 5:00:00 PM 16.55 61.79 0.462 8.73 3.04 9.79
9/26/2021 5:15:00 PM 16.52 61.736 0.457 8.73 3.01 9.78
9/26/2021 5:30:00 PM 16.49 61.682 0.457 8.69 2.8 9.78
9/26/2021 5:45:00 PM 16.46 61.628 0.462 8.72 3.13 9.76
9/26/2021 6:00:00 PM 16.44 61.592 0.462 8.73 2.98 9.76
9/26/2021 6:15:00 PM 16.43 61.574 0.457 8.72 3.1 9.75
9/26/2021 6:30:00 PM 16.42 61.556 0.457 8.69 2.94 9.75
9/26/2021 6:45:00 PM 16.42 61.556 0.477 8.7 3.17 9.74
9/26/2021 7:00:00 PM 16.41 61.538 0.457 8.68 3.08 9.73
9/26/2021 7:15:00 PM 16.4 61.52 0.462 8.71 3.17 9.72
9/26/2021 7:30:00 PM 16.4 61.52 0.456 8.67 3.39 9.71
9/26/2021 7:45:00 PM 16.39 61.502 0.479 8.71 3.34 9.71
9/26/2021 8:00:00 PM 16.38 61.484 0.456 8.6 3.66 9.71
9/26/2021 8:15:00 PM 16.38 61.484 0.458 8.71 3.73 9.71
9/26/2021 8:30:00 PM 16.37 61.466 0.44 8.72 3.4 9.7
9/26/2021 8:45:00 PM 16.36 61.448 0.463 8.7 3.8 9.7
9/26/2021 9:00:00 PM 16.35 61.43 0.463 8.69 3.87 9.69
9/26/2021 9:15:00 PM 16.34 61.412 0.464 8.7 4.2 9.69
9/26/2021 9:30:00 PM 16.33 61.394 0.464 8.7 4.24 9.68
9/26/2021 9:45:00 PM 16.31 61.358 0.449 8.7 4.66 9.67
9/26/2021 10:00:00 PM 16.3 61.34 0.48 8.69 4.22 9.68
9/26/2021 10:15:00 PM 16.28 61.304 0.465 8.68 4.41 9.68
9/26/2021 10:30:00 PM 16.27 61.286 0.466 8.68 4.49 9.67
9/26/2021 10:45:00 PM 16.24 61.232 0.466 8.67 4.86 9.67
9/26/2021 11:00:00 PM 16.22 61.196 0.461 8.69 4.69 9.66
9/26/2021 11:15:00 PM 16.2 61.16 0.461 8.68 5.05 9.67
9/26/2021 11:30:00 PM 16.18 61.124 0.466 8.68 5 9.67
9/26/2021 11:45:00 PM 16.16 61.088 0.466 8.67 5.22 9.66
9/27/2021 12:00:00 AM 16.14 61.052 0.46 8.68 4.91 9.66
9/27/2021 12:15:00 AM 16.12 61.016 0.466 8.66 5.08 9.66
9/27/2021 12:30:00 AM 16.1 60.98 0.461 8.67 5.03 9.66
9/27/2021 12:45:00 AM 16.08 60.944 0.466 8.66 4.99 9.66
9/27/2021 1:00:00 AM 16.06 60.908 0.444 8.66 5.48 9.66
9/27/2021 1:15:00 AM 16.05 60.89 0.467 8.66 4.81 9.66
9/27/2021 1:30:00 AM 16.04 60.872 0.484 8.65 5.56 9.66
9/27/2021 1:45:00 AM 16.02 60.836 0.469 8.65 4.95 9.66
9/27/2021 2:00:00 AM 16.01 60.818 0.45 8.67 4.54 9.65
9/27/2021 2:15:00 AM 16 60.8 0.465 8.66 4.66 9.66
9/27/2021 2:30:00 AM 15.98 60.764 0.453 8.66 4.69 9.65
9/27/2021 2:45:00 AM 15.97 60.746 0.486 8.54 4.78 9.65
9/27/2021 3:00:00 AM 15.96 60.728 0.472 8.66 4.68 9.66
9/27/2021 3:15:00 AM 15.95 60.71 0.472 8.65 4.78 9.66
9/27/2021 3:30:00 AM 15.93 60.674 0.472 8.6 4.72 9.66
9/27/2021 3:45:00 AM 15.92 60.656 0.473 8.63 4.72 9.66
9/27/2021 4:00:00 AM 15.91 60.638 0.474 8.66 4.66 9.65
9/27/2021 4:15:00 AM 15.89 60.602 0.47 8.66 4.77 9.65
9/27/2021 4:30:00 AM 15.87 60.566 0.476 8.65 4.54 9.67
9/27/2021 4:45:00 AM 15.86 60.548 0.471 8.66 4.65 9.66
9/27/2021 5:00:00 AM 15.83 60.494 0.478 8.65 4.56 9.67
9/27/2021 5:15:00 AM 15.81 60.458 0.473 8.66 4.21 9.68
9/27/2021 5:30:00 AM 15.79 60.422 0.479 8.64 4.63 9.67
9/27/2021 5:45:00 AM 15.76 60.368 0.463 8.66 4.47 9.68
9/27/2021 6:00:00 AM 15.74 60.332 0.474 8.65 4.33 9.69
9/27/2021 6:15:00 AM 15.71 60.278 0.496 8.55 4.41 9.69
9/27/2021 6:30:00 AM 15.68 60.224 0.473 8.68 4.47 9.7
9/27/2021 6:45:00 AM 15.65 60.17 0.475 8.62 4.62 9.71
9/27/2021 7:00:00 AM 15.61 60.098 0.474 8.66 4.65 9.71
9/27/2021 7:15:00 AM 15.58 60.044 0.481 8.64 4.46 9.73
9/27/2021 7:30:00 AM 15.55 59.99 0.475 8.65 4.25 9.74
9/27/2021 7:45:00 AM 15.52 59.936 0.482 8.63 4.17 9.75
9/27/2021 8:00:00 AM 15.49 59.882 0.476 8.52 3.99 9.76
9/27/2021 8:15:00 AM 15.46 59.828 0.478 8.66 3.88 9.78
9/27/2021 8:30:00 AM 15.44 59.792 0.478 8.67 4 9.79
9/27/2021 8:45:00 AM 15.42 59.756 0.478 8.67 3.65 9.81
9/27/2021 9:00:00 AM 15.4 59.72 0.482 8.67 3.77 9.83
9/27/2021 9:15:00 AM 15.39 59.702 0.477 8.67 3.43 9.84
9/27/2021 9:30:00 AM 15.39 59.702 0.477 8.68 3.73 9.87
9/27/2021 9:45:00 AM 15.38 59.684 0.477 8.68 3.49 9.9
9/27/2021 10:00:00 AM 15.38 59.684 0.477 8.68 3.41 9.92
9/27/2021 10:15:00 AM 15.39 59.702 0.477 8.69 3.19 9.93
9/27/2021 10:30:00 AM 15.39 59.702 0.478 8.7 3.25 9.94
9/27/2021 10:45:00 AM 15.41 59.738 0.478 8.7 3.47 9.95
9/27/2021 11:00:00 AM 15.42 59.756 0.479 8.69 3.72 9.95
9/27/2021 11:15:00 AM 15.44 59.792 0.479 8.68 3.15 9.96
9/27/2021 11:30:00 AM 15.47 59.846 0.454 8.7 3.31 9.96
9/27/2021 11:45:00 AM 15.51 59.918 0.46 8.72 2.95 9.97
9/27/2021 12:00:00 PM 15.54 59.972 0.486 8.71 3.36 9.97
9/27/2021 12:15:00 PM 15.58 60.044 0.481 8.72 3.1 9.97
9/27/2021 12:30:00 PM 15.64 60.152 0.481 8.71 3.25 9.97
9/27/2021 12:45:00 PM 15.7 60.26 0.482 8.72 2.68 9.97
9/27/2021 1:00:00 PM 15.77 60.386 0.488 8.72 2.91 9.96
9/27/2021 1:15:00 PM 15.85 60.53 0.483 8.71 2.85 9.95
9/27/2021 1:30:00 PM 15.93 60.674 0.483 8.74 2.94 9.95
9/27/2021 1:45:00 PM 16 60.8 0.483 8.72 2.56 9.95
9/27/2021 2:00:00 PM 16.08 60.944 0.483 8.74 2.49 9.95
9/27/2021 2:15:00 PM 16.14 61.052 0.483 8.73 2.47 9.93
9/27/2021 2:30:00 PM 16.21 61.178 0.482 8.74 2.74 9.93
9/27/2021 2:45:00 PM 16.27 61.286 0.479 8.75 2.74 9.92
9/27/2021 3:00:00 PM 16.33 61.394 0.478 8.77 2.47 9.92
9/27/2021 3:15:00 PM 16.38 61.484 0.478 8.74 2.72 9.91
9/27/2021 3:30:00 PM 16.43 61.574 0.479 8.74 2.65 9.91
9/27/2021 3:45:00 PM 16.46 61.628 0.479 8.76 2.66 9.9
9/27/2021 4:00:00 PM 16.49 61.682 0.478 8.77 2.88 9.89
9/27/2021 4:15:00 PM 16.5 61.7 0.484 8.76 2.64 9.87
9/27/2021 4:30:00 PM 16.52 61.736 0.478 8.77 2.48 9.86
9/27/2021 4:45:00 PM 16.52 61.736 0.478 8.76 2.61 9.85
9/27/2021 5:00:00 PM 16.52 61.736 0.478 8.77 2.37 9.84
9/27/2021 5:15:00 PM 16.51 61.718 0.478 8.77 2.48 9.82
9/27/2021 5:30:00 PM 16.49 61.682 0.478 8.76 2.54 9.81
9/27/2021 5:45:00 PM 16.48 61.664 0.478 8.77 2.7 9.79
9/27/2021 6:00:00 PM 16.47 61.646 0.478 8.76 2.54 9.78
9/27/2021 6:15:00 PM 16.47 61.646 0.476 8.74 2.61 9.76
9/27/2021 6:30:00 PM 16.47 61.646 0.479 8.76 2.71 9.75
9/27/2021 6:45:00 PM 16.47 61.646 0.499 8.77 2.81 9.73
9/27/2021 7:00:00 PM 16.48 61.664 0.477 8.75 3.1 9.71
9/27/2021 7:15:00 PM 16.49 61.682 0.478 8.74 2.88 9.71
9/27/2021 7:30:00 PM 16.5 61.7 0.476 8.65 3.02 9.69
9/27/2021 7:45:00 PM 16.52 61.736 0.477 8.75 3.28 9.69
9/27/2021 8:00:00 PM 16.52 61.736 0.474 8.73 3.12 9.68
9/27/2021 8:15:00 PM 16.53 61.754 0.475 8.75 3.65 9.67
9/27/2021 8:30:00 PM 16.55 61.79 0.475 8.74 3.96 9.66
9/27/2021 8:45:00 PM 16.55 61.79 0.479 8.76 3.37 9.65
9/27/2021 9:00:00 PM 16.56 61.808 0.474 8.58 3.33 9.65
9/27/2021 9:15:00 PM 16.56 61.808 0.473 8.7 3.54 9.64
9/27/2021 9:30:00 PM 16.56 61.808 0.471 8.71 3.7 9.62
9/27/2021 9:45:00 PM 16.56 61.808 0.427 8.73 3.65 9.61
9/27/2021 10:00:00 PM 16.56 61.808 0.471 8.71 4.08 9.61
9/27/2021 10:15:00 PM 16.56 61.808 0.388 8.71 3.89 9.6
9/27/2021 10:30:00 PM 16.55 61.79 0.471 8.72 3.98 9.59
9/27/2021 10:45:00 PM 16.54 61.772 0.478 8.71 4.75 9.59
9/27/2021 11:00:00 PM 16.53 61.754 0.471 8.66 4.4 9.58
9/27/2021 11:15:00 PM 16.52 61.736 0.479 8.7 4.61 9.58
9/27/2021 11:30:00 PM 16.51 61.718 0.472 8.71 4.47 9.57
9/27/2021 11:45:00 PM 16.51 61.718 0.479 8.69 4.25 9.56
9/28/2021 12:00:00 AM 16.5 61.7 0.473 8.73 4.62 9.56
9/28/2021 12:15:00 AM 16.49 61.682 0.475 8.69 4.51 9.55
9/28/2021 12:30:00 AM 16.48 61.664 0.473 8.7 5.17 9.55
9/28/2021 12:45:00 AM 16.47 61.646 0.476 8.69 4.58 9.55
9/28/2021 1:00:00 AM 16.47 61.646 0.476 8.7 4.81 9.54
9/28/2021 1:15:00 AM 16.46 61.628 0.476 8.7 4.72 9.54
9/28/2021 1:30:00 AM 16.45 61.61 0.476 8.69 4.88 9.53
9/28/2021 1:45:00 AM 16.45 61.61 0.475 8.71 4.8 9.52
9/28/2021 2:00:00 AM 16.44 61.592 0.477 8.69 5.22 9.53
9/28/2021 2:15:00 AM 16.43 61.574 0.475 8.72 5.2 9.52
9/28/2021 2:30:00 AM 16.43 61.574 0.478 8.69 5.02 9.52
9/28/2021 2:45:00 AM 16.42 61.556 0.484 8.69 5.36 9.52
9/28/2021 3:00:00 AM 16.42 61.556 0.479 8.7 4.93 9.51
9/28/2021 3:15:00 AM 16.42 61.556 0.48 8.68 4.74 9.51
9/28/2021 3:30:00 AM 16.42 61.556 0.486 8.69 5.28 9.51
9/28/2021 3:45:00 AM 16.42 61.556 0.482 8.67 4.78 9.5
9/28/2021 4:00:00 AM 16.42 61.556 0.487 8.67 4.77 9.5
9/28/2021 4:15:00 AM 16.43 61.574 0.488 8.67 5.06 9.49
9/28/2021 4:30:00 AM 16.44 61.592 0.483 8.68 5.08 9.49
9/28/2021 4:45:00 AM 16.44 61.592 0.489 8.67 5.32 9.49
9/28/2021 5:00:00 AM 16.45 61.61 0.484 8.71 5.02 9.49
9/28/2021 5:15:00 AM 16.46 61.628 0.485 8.69 4.68 9.48
9/28/2021 5:30:00 AM 16.46 61.628 0.483 8.71 4.81 9.47
9/28/2021 5:45:00 AM 16.46 61.628 0.426 8.68 4.74 9.48
9/28/2021 6:00:00 AM 16.46 61.628 0.484 8.7 4.96 9.48
9/28/2021 6:15:00 AM 16.46 61.628 0.487 8.68 4.85 9.48
9/28/2021 6:30:00 AM 16.45 61.61 0.485 8.69 4.95 9.47
9/28/2021 6:45:00 AM 16.45 61.61 0.487 8.66 5.08 9.49
9/28/2021 7:00:00 AM 16.44 61.592 0.485 8.71 4.92 9.48
9/28/2021 7:15:00 AM 16.44 61.592 0.492 8.67 5.1 9.49
9/28/2021 7:30:00 AM 16.43 61.574 0.485 8.58 4.68 9.48
9/28/2021 7:45:00 AM 16.42 61.556 0.492 8.67 4.71 9.5
9/28/2021 8:00:00 AM 16.42 61.556 0.485 8.63 4.67 9.49
9/28/2021 8:15:00 AM 16.41 61.538 0.486 8.65 4.65 9.5
9/28/2021 8:30:00 AM 16.4 61.52 0.484 8.55 4.5 9.5
9/28/2021 8:45:00 AM 16.39 61.502 0.486 8.67 4.23 9.51
9/28/2021 9:00:00 AM 16.38 61.484 0.486 8.67 4.32 9.51
9/28/2021 9:15:00 AM 16.38 61.484 0.492 8.71 4.1 9.55
9/28/2021 9:30:00 AM 16.38 61.484 0.482 8.64 3.91 9.56
9/28/2021 9:45:00 AM 16.37 61.466 0.492 8.67 4.05 9.56
9/28/2021 10:00:00 AM 16.38 61.484 0.487 8.7 4.08 9.61
9/28/2021 10:15:00 AM 16.38 61.484 0.486 8.71 3.77 9.63
9/28/2021 10:30:00 AM 16.39 61.502 0.508 8.7 3.84 9.63
9/28/2021 10:45:00 AM 16.4 61.52 0.484 8.6 3.68 9.63
9/28/2021 11:00:00 AM 16.4 61.52 0.486 8.71 3.39 9.65
9/28/2021 11:15:00 AM 16.44 61.592 0.486 8.71 3.49 9.71
9/28/2021 11:30:00 AM 16.51 61.718 0.487 8.72 3.27 9.74
9/28/2021 11:45:00 AM 16.54 61.772 0.487 8.71 3.28 9.74
9/28/2021 12:00:00 PM 16.51 61.718 0.493 8.71 3.21 9.64
9/28/2021 12:15:00 PM 16.5 61.7 0.489 8.7 3.33 9.64
9/28/2021 12:30:00 PM 16.5 61.7 0.489 8.69 3.24 9.65
9/28/2021 12:45:00 PM 16.51 61.718 0.488 8.71 3.09 9.66
9/28/2021 1:00:00 PM 16.51 61.718 0.49 8.72 3.61 9.68
9/28/2021 1:15:00 PM 16.51 61.718 0.489 8.68 3.04 9.65
9/28/2021 1:30:00 PM 16.51 61.718 0.491 8.71 2.98 9.64
9/28/2021 1:45:00 PM 16.53 61.754 0.489 8.73 3.42 9.64
9/28/2021 2:00:00 PM 16.54 61.772 0.491 8.73 2.79 9.68
9/28/2021 2:15:00 PM 16.56 61.808 0.489 8.76 3.12 9.67
9/28/2021 2:30:00 PM 16.57 61.826 0.491 8.74 2.94 9.67
9/28/2021 2:45:00 PM 16.6 61.88 0.491 8.75 2.91 9.72
9/28/2021 3:00:00 PM 16.62 61.916 0.491 8.75 2.83 9.73
9/28/2021 3:15:00 PM 16.64 61.952 0.491 8.75 3 9.71
9/28/2021 3:30:00 PM 16.69 62.042 0.49 8.75 3 9.78
9/28/2021 3:45:00 PM 16.73 62.114 0.489 8.61 3.04 9.78
9/28/2021 4:00:00 PM 16.77 62.186 0.489 8.76 2.97 9.77
9/28/2021 4:15:00 PM 16.8 62.24 0.48 8.78 2.98 9.74
9/28/2021 4:30:00 PM 16.83 62.294 0.488 8.78 3.04 9.75
9/28/2021 4:45:00 PM 16.87 62.366 0.488 8.76 3.06 9.73
9/28/2021 5:00:00 PM 16.89 62.402 0.488 8.78 2.84 9.7
9/28/2021 5:15:00 PM 16.9 62.42 0.488 8.79 2.87 9.69
9/28/2021 5:30:00 PM 16.89 62.402 0.489 8.79 3.23 9.67
9/28/2021 5:45:00 PM 16.87 62.366 0.49 8.78 3.07 9.65
9/28/2021 6:00:00 PM 16.87 62.366 0.49 8.78 3.06 9.65
9/28/2021 6:15:00 PM 16.86 62.348 0.49 8.74 2.99 9.64
9/28/2021 6:30:00 PM 16.86 62.348 0.495 8.75 2.84 9.63
9/28/2021 6:45:00 PM 16.86 62.348 0.489 8.78 3.52 9.62
9/28/2021 7:00:00 PM 16.87 62.366 0.489 8.76 3.04 9.61
9/28/2021 7:15:00 PM 16.88 62.384 0.487 8.77 3.27 9.59
9/28/2021 7:30:00 PM 16.89 62.402 0.488 8.72 3.41 9.59
9/28/2021 7:45:00 PM 16.9 62.42 0.487 8.77 3.21 9.58
9/28/2021 8:00:00 PM 16.91 62.438 0.486 8.74 3.45 9.58
9/28/2021 8:15:00 PM 16.91 62.438 0.486 8.76 3.41 9.58
9/28/2021 8:30:00 PM 16.92 62.456 0.484 8.72 3.66 9.57
9/28/2021 8:45:00 PM 16.92 62.456 0.483 8.76 3.6 9.56
9/28/2021 9:00:00 PM 16.93 62.474 0.483 8.75 3.79 9.56
9/28/2021 9:15:00 PM 16.92 62.456 0.482 8.76 4.23 9.55
9/28/2021 9:30:00 PM 16.92 62.456 0.474 8.75 4.13 9.54
9/28/2021 9:45:00 PM 16.92 62.456 0.486 8.72 4.38 9.54
9/28/2021 10:00:00 PM 16.91 62.438 0.476 8.76 4.04 9.54
9/28/2021 10:15:00 PM 16.9 62.42 0.481 8.76 4.34 9.54
9/28/2021 10:30:00 PM 16.89 62.402 0.481 8.76 4.22 9.53
9/28/2021 10:45:00 PM 16.88 62.384 0.479 8.75 4.12 9.53
9/28/2021 11:00:00 PM 16.87 62.366 0.481 8.75 4.81 9.53
9/28/2021 11:15:00 PM 16.86 62.348 0.487 8.73 4.88 9.52
9/28/2021 11:30:00 PM 16.84 62.312 0.479 8.72 4.51 9.51
9/28/2021 11:45:00 PM 16.82 62.276 0.482 8.74 4.3 9.52
9/29/2021 12:00:00 AM 16.81 62.258 0.48 8.69 4.58 9.51
9/29/2021 12:15:00 AM 16.79 62.222 0.425 8.74 4.39 9.51
9/29/2021 12:30:00 AM 16.78 62.204 0.48 8.73 4.65 9.5
9/29/2021 12:45:00 AM 16.76 62.168 0.482 8.73 4.57 9.5
9/29/2021 1:00:00 AM 16.74 62.132 0.482 8.74 4.57 9.5
9/29/2021 1:15:00 AM 16.73 62.114 0.487 8.7 4.66 9.5
9/29/2021 1:30:00 AM 16.71 62.078 0.482 8.74 4.86 9.49
9/29/2021 1:45:00 AM 16.69 62.042 0.486 8.7 4.82 9.49
9/29/2021 2:00:00 AM 16.67 62.006 0.486 8.74 4.86 9.49
9/29/2021 2:15:00 AM 16.66 61.988 0.48 8.73 4.78 9.5
9/29/2021 2:30:00 AM 16.64 61.952 0.48 8.72 4.69 9.5
9/29/2021 2:45:00 AM 16.61 61.898 0.486 8.69 4.77 9.5
9/29/2021 3:00:00 AM 16.59 61.862 0.474 8.72 4.65 9.5
9/29/2021 3:15:00 AM 16.57 61.826 0.482 8.73 4.93 9.51
9/29/2021 3:30:00 AM 16.54 61.772 0.489 8.71 4.91 9.51
9/29/2021 3:45:00 AM 16.52 61.736 0.49 8.7 4.86 9.51
9/29/2021 4:00:00 AM 16.5 61.7 0.486 8.72 5.09 9.52
9/29/2021 4:15:00 AM 16.47 61.646 0.487 8.72 5.35 9.52
9/29/2021 4:30:00 AM 16.44 61.592 0.488 8.73 5.61 9.52
9/29/2021 4:45:00 AM 16.42 61.556 0.488 8.69 5.11 9.53
9/29/2021 5:00:00 AM 16.4 61.52 0.494 8.72 4.84 9.54
9/29/2021 5:15:00 AM 16.37 61.466 0.494 8.72 4.86 9.54
9/29/2021 5:30:00 AM 16.35 61.43 0.489 8.71 4.85 9.55
9/29/2021 5:45:00 AM 16.32 61.376 0.489 8.71 4.87 9.56
9/29/2021 6:00:00 AM 16.3 61.34 0.489 8.71 4.95 9.56
9/29/2021 6:15:00 AM 16.27 61.286 0.489 8.71 5.12 9.56
9/29/2021 6:30:00 AM 16.25 61.25 0.489 8.71 4.66 9.57
9/29/2021 6:45:00 AM 16.23 61.214 0.488 8.71 5.05 9.57
9/29/2021 7:00:00 AM 16.2 61.16 0.477 8.74 4.65 9.57
9/29/2021 7:15:00 AM 16.17 61.106 0.494 8.73 4.81 9.59
9/29/2021 7:30:00 AM 16.15 61.07 0.493 8.71 4.69 9.59
9/29/2021 7:45:00 AM 16.12 61.016 0.487 8.73 4.69 9.6
9/29/2021 8:00:00 AM 16.09 60.962 0.486 8.72 4.54 9.6
9/29/2021 8:15:00 AM 16.07 60.926 0.491 8.71 4.46 9.64
9/29/2021 8:30:00 AM 16.05 60.89 0.491 8.73 4.53 9.65
9/29/2021 8:45:00 AM 16.03 60.854 0.486 8.74 4.17 9.66
9/29/2021 9:00:00 AM 16.02 60.836 0.492 8.71 4.1 9.7
9/29/2021 9:15:00 AM 16.01 60.818 0.487 8.74 4.28 9.73
9/29/2021 9:30:00 AM 15.99 60.782 0.488 8.76 4.18 9.73
9/29/2021 9:45:00 AM 15.97 60.746 0.486 8.74 4.11 9.73
9/29/2021 10:00:00 AM 15.97 60.746 0.488 8.75 3.87 9.77
9/29/2021 10:15:00 AM 16 60.8 0.487 8.76 4.37 9.81
9/29/2021 10:30:00 AM 16.01 60.818 0.489 8.75 3.94 9.82
9/29/2021 10:45:00 AM 16.02 60.836 0.489 8.77 3.68 9.83
9/29/2021 11:00:00 AM 16.04 60.872 0.489 8.76 3.34 9.85
9/29/2021 11:15:00 AM 16.04 60.872 0.494 8.77 3.37 9.87
9/29/2021 11:30:00 AM 16.05 60.89 0.494 8.76 3.75 9.87
9/29/2021 11:45:00 AM 16.05 60.89 0.494 8.78 3.14 9.89
9/29/2021 12:00:00 PM 16.06 60.908 0.494 8.77 3.15 9.88
9/29/2021 12:15:00 PM 16.08 60.944 0.489 8.78 3.58 9.9
9/29/2021 12:30:00 PM 16.08 60.944 0.495 8.76 3.12 9.89
9/29/2021 12:45:00 PM 16.09 60.962 0.489 8.77 3.38 9.9
9/29/2021 1:00:00 PM 16.13 61.034 0.485 8.79 2.72 9.9
9/29/2021 1:15:00 PM 16.18 61.124 0.489 8.77 2.96 9.91
9/29/2021 1:30:00 PM 16.21 61.178 0.494 8.78 2.62 9.91
9/29/2021 1:45:00 PM 16.26 61.268 0.489 8.79 2.67 9.91
9/29/2021 2:00:00 PM 16.32 61.376 0.488 8.8 2.61 9.91
9/29/2021 2:15:00 PM 16.37 61.466 0.49 8.79 2.88 9.91
9/29/2021 2:30:00 PM 16.42 61.556 0.49 8.82 2.88 9.91
9/29/2021 2:45:00 PM 16.47 61.646 0.491 8.8 2.76 9.91
9/29/2021 3:00:00 PM 16.5 61.7 0.471 8.84 2.53 9.9
9/29/2021 3:15:00 PM 16.52 61.736 0.491 8.83 2.73 9.9
9/29/2021 3:30:00 PM 16.55 61.79 0.494 8.82 2.7 9.91
9/29/2021 3:45:00 PM 16.56 61.808 0.495 8.85 2.75 9.9
9/29/2021 4:00:00 PM 16.56 61.808 0.496 8.83 2.65 9.88
9/29/2021 4:15:00 PM 16.56 61.808 0.475 8.84 2.7 9.86
9/29/2021 4:30:00 PM 16.55 61.79 0.497 8.81 2.56 9.86
9/29/2021 4:45:00 PM 16.54 61.772 0.497 8.82 2.47 9.86
9/29/2021 5:00:00 PM 16.51 61.718 0.492 8.82 2.54 9.84
9/29/2021 5:15:00 PM 16.48 61.664 0.496 8.83 2.62 9.84
9/29/2021 5:30:00 PM 16.44 61.592 0.496 8.83 2.58 9.82
9/29/2021 5:45:00 PM 16.4 61.52 0.483 8.83 2.58 9.81
9/29/2021 6:00:00 PM 16.35 61.43 0.5 8.82 2.7 9.8
9/29/2021 6:15:00 PM 16.32 61.376 0.487 8.83 2.59 9.79
9/29/2021 6:30:00 PM 16.29 61.322 0.495 8.82 2.62 9.79
9/29/2021 6:45:00 PM 16.26 61.268 0.485 8.82 2.57 9.77
9/29/2021 7:00:00 PM 16.24 61.232 0.498 8.76 2.93 9.77
9/29/2021 7:15:00 PM 16.22 61.196 0.498 8.81 2.76 9.76
9/29/2021 7:30:00 PM 16.21 61.178 0.492 8.78 2.8 9.76
9/29/2021 7:45:00 PM 16.19 61.142 0.491 8.79 2.98 9.75
9/29/2021 8:00:00 PM 16.17 61.106 0.489 8.8 3.53 9.75
9/29/2021 8:15:00 PM 16.16 61.088 0.496 8.78 3.19 9.74
9/29/2021 8:30:00 PM 16.15 61.07 0.49 8.79 3.42 9.75
9/29/2021 8:45:00 PM 16.14 61.052 0.449 8.81 3.14 9.74
9/29/2021 9:00:00 PM 16.12 61.016 0.489 8.79 3.38 9.74
9/29/2021 9:15:00 PM 16.11 60.998 0.494 8.81 3.89 9.74
9/29/2021 9:30:00 PM 16.1 60.98 0.488 8.79 3.8 9.73
9/29/2021 9:45:00 PM 16.09 60.962 0.493 8.79 3.81 9.73
9/29/2021 10:00:00 PM 16.07 60.926 0.488 8.79 4.08 9.73
9/29/2021 10:15:00 PM 16.06 60.908 0.487 8.79 3.71 9.73
9/29/2021 10:30:00 PM 16.04 60.872 0.486 8.77 3.94 9.72
9/29/2021 10:45:00 PM 16.02 60.836 0.491 8.77 3.65 9.72
9/29/2021 11:00:00 PM 16 60.8 0.486 8.78 4.38 9.71
9/29/2021 11:15:00 PM 15.97 60.746 0.491 8.78 3.82 9.71
9/29/2021 11:30:00 PM 15.95 60.71 0.482 8.78 3.86 9.7
9/29/2021 11:45:00 PM 15.93 60.674 0.492 8.78 3.87 9.7
9/30/2021 12:00:00 AM 15.9 60.62 0.484 8.77 3.92 9.7
9/30/2021 12:15:00 AM 15.88 60.584 0.491 8.77 3.66 9.7
9/30/2021 12:30:00 AM 15.85 60.53 0.486 8.77 4.13 9.7
9/30/2021 12:45:00 AM 15.83 60.494 0.485 8.76 3.8 9.71
9/30/2021 1:00:00 AM 15.8 60.44 0.49 8.74 3.97 9.71
9/30/2021 1:15:00 AM 15.78 60.404 0.506 8.75 3.94 9.7
9/30/2021 1:30:00 AM 15.75 60.35 0.484 8.74 4.47 9.71
9/30/2021 1:45:00 AM 15.71 60.278 0.484 8.75 3.94 9.72
9/30/2021 2:00:00 AM 15.68 60.224 0.484 8.75 3.76 9.72
9/30/2021 2:15:00 AM 15.64 60.152 0.484 8.75 3.92 9.72
9/30/2021 2:30:00 AM 15.62 60.116 0.463 8.74 3.9 9.72
9/30/2021 2:45:00 AM 15.59 60.062 0.452 8.76 4.16 9.73
9/30/2021 3:00:00 AM 15.56 60.008 0.483 8.74 4.35 9.72
9/30/2021 3:15:00 AM 15.53 59.954 0.485 8.74 4.3 9.73
9/30/2021 3:30:00 AM 15.5 59.9 0.484 8.75 4.58 9.73
9/30/2021 3:45:00 AM 15.48 59.864 0.492 8.72 4.38 9.74
9/30/2021 4:00:00 AM 15.46 59.828 0.485 8.71 4.81 9.74
9/30/2021 4:15:00 AM 15.44 59.792 0.487 8.72 4.67 9.74
9/30/2021 4:30:00 AM 15.42 59.756 0.488 8.73 4.83 9.74
9/30/2021 4:45:00 AM 15.4 59.72 0.489 8.72 4.96 9.74
9/30/2021 5:00:00 AM 15.39 59.702 0.49 8.72 5.62 9.75
9/30/2021 5:15:00 AM 15.37 59.666 0.455 8.74 5.62 9.74
9/30/2021 5:30:00 AM 15.35 59.63 0.487 8.74 5.8 9.75
9/30/2021 5:45:00 AM 15.34 59.612 0.31 8.73 5.43 9.75
9/30/2021 6:00:00 AM 15.33 59.594 0.492 8.77 5.81 9.75
9/30/2021 6:15:00 AM 15.32 59.576 0.499 8.74 5.61 9.76
9/30/2021 6:30:00 AM 15.3 59.54 0.491 8.74 5.85 9.75
9/30/2021 6:45:00 AM 15.29 59.522 0.493 8.72 6.1 9.77
9/30/2021 7:00:00 AM 15.28 59.504 0.494 8.75 6.16 9.77
9/30/2021 7:15:00 AM 15.27 59.486 0.494 8.73 6.24 9.78
9/30/2021 7:30:00 AM 15.26 59.468 0.494 8.74 6.26 9.78
9/30/2021 7:45:00 AM 15.25 59.45 0.495 8.75 6.39 9.79
9/30/2021 8:00:00 AM 15.24 59.432 0.495 8.71 6.44 9.8
9/30/2021 8:15:00 AM 15.23 59.414 0.496 8.7 6.98 9.81
9/30/2021 8:30:00 AM 15.23 59.414 0.503 8.74 7.29 9.83
9/30/2021 8:45:00 AM 15.23 59.414 0.498 8.75 8.15 9.84
9/30/2021 9:00:00 AM 15.24 59.432 0.5 8.75 8.15 9.86
9/30/2021 9:15:00 AM 15.25 59.45 0.5 8.75 8.88 9.9
9/30/2021 9:30:00 AM 15.26 59.468 0.507 8.79 9.16 9.92
9/30/2021 9:45:00 AM 15.27 59.486 0.507 8.74 9.31 9.96
9/30/2021 10:00:00 AM 15.28 59.504 0.503 8.77 9.87 9.99
9/30/2021 10:15:00 AM 15.3 59.54 0.503 8.81 9.98 10.02
9/